MYDAX CHILLER For Sector 8 Monochromators  S/N 120-0453             

Key: (Temperatures in Centigrade) 
A) System is ON or OFF
B) Actual Tank Temperature as sensed by the Output RTD                   
C) Set point Temperature 
D) Calculated temperature of the refrigerant line at the suction pressure transducer
E) Pressure in PSIg of the refrigerant line at the suction pressure transducer
F & G) Temperature in the refrigerant line at the Superheat and Condenser RTDs
H) Temperature in the refrigerant line at the Discharge RTD (2-stage design only)
I) Temperature in the refrigerant line at the Subcooler RTD (inactive)
J) Valve drives of evaporator 

----------- DATE ----------: A    B     C     D     E    F    G    H   I J

 last update: Tue Feb 27 09:18:42 PST 2024
Tue Feb 27 09:18:35 PST 2024 ON: 20.00 +20.0 20.01 -12.8 30.7 06 09 0012 1402 Alarm State:  0
Tue Feb 27 09:17:34 PST 2024 ON: 20.00 +20.0 20.01 -12.8 30.8 06 09 001C 1417 Alarm State:  0
Tue Feb 27 09:16:32 PST 2024 ON: 19.98 +20.0 20.00 -12.8 30.8 06 09 0027 1319 Alarm State:  0
Tue Feb 27 09:15:31 PST 2024 ON: 20.00 +20.0 20.00 -12.8 30.7 06 09 0031 130B Alarm State:  0
Tue Feb 27 09:14:29 PST 2024 ON: 19.99 +20.0 19.99 -12.8 30.7 06 09 0009 1231 Alarm State:  0
Tue Feb 27 09:13:28 PST 2024 ON: 20.00 +20.0 20.00 -12.8 30.7 06 09 0013 1309 Alarm State:  0
Tue Feb 27 09:12:26 PST 2024 ON: 20.00 +20.0 20.00 -12.8 30.7 06 09 001E 131D Alarm State:  0
Tue Feb 27 09:11:25 PST 2024 ON: 20.00 +20.0 20.00 -12.8 30.6 06 0A 0024 1409 Alarm State:  0
Tue Feb 27 09:10:23 PST 2024 ON: 20.00 +20.0 20.01 -12.8 30.6 06 09 002F 1325 Alarm State:  0
Tue Feb 27 09:09:22 PST 2024 ON: 19.99 +20.0 20.00 -12.8 30.8 06 09 0006 1312 Alarm State:  0
Tue Feb 27 09:08:20 PST 2024 ON: 20.00 +20.0 20.00 -12.8 30.7 06 09 0011 1318 Alarm State:  0
Tue Feb 27 09:07:19 PST 2024 ON: 19.99 +20.0 19.99 -12.8 30.6 06 0A 001B 131D Alarm State:  0
Tue Feb 27 09:06:17 PST 2024 ON: 20.00 +20.0 20.02 -12.8 30.6 06 08 0026 1311 Alarm State:  0
Tue Feb 27 09:05:16 PST 2024 ON: 20.00 +20.0 20.00 -12.8 30.7 06 0A 0030 1405 Alarm State:  0
Tue Feb 27 09:04:14 PST 2024 ON: 19.99 +20.0 19.99 -12.8 30.6 06 0A 0008 131F Alarm State:  0
Tue Feb 27 09:03:13 PST 2024 ON: 19.99 +20.0 19.98 -12.8 30.8 06 0A 0012 131C Alarm State:  0
Tue Feb 27 09:02:11 PST 2024 ON: 20.00 +20.0 20.00 -12.8 30.7 06 0A 001D 140B Alarm State:  0
Tue Feb 27 09:01:10 PST 2024 ON: 19.99 +20.0 19.99 -12.8 30.7 06 0A 0027 1322 Alarm State:  0
Tue Feb 27 09:00:08 PST 2024 ON: 19.99 +20.0 19.99 -12.8 30.7 06 0A 0032 1312 Alarm State:  0
Tue Feb 27 08:59:07 PST 2024 ON: 20.00 +20.0 19.99 -12.8 30.7 06 0A 0009 1311 Alarm State:  0
Tue Feb 27 08:58:05 PST 2024 ON: 20.00 +20.0 19.99 -12.8 30.7 06 0A 0014 1409 Alarm State:  0
Tue Feb 27 08:57:04 PST 2024 ON: 19.99 +20.0 20.01 -12.8 30.7 06 09 001E 1330 Alarm State:  0
Tue Feb 27 08:56:02 PST 2024 ON: 19.99 +20.0 19.98 -12.8 30.7 06 0A 0029 1325 Alarm State:  0
Tue Feb 27 08:55:00 PST 2024 ON: 20.00 +20.0 20.00 -12.8 30.6 06 0A 0000 1407 Alarm State:  0
Tue Feb 27 08:53:59 PST 2024 ON: 19.99 +20.0 19.98 -12.8 30.7 06 0A 000B 131B Alarm State:  0
Tue Feb 27 08:52:57 PST 2024 ON: 20.00 +20.0 20.01 -12.8 30.7 06 09 0015 130F Alarm State:  0
Tue Feb 27 08:51:56 PST 2024 ON: 20.00 +20.0 20.00 -12.8 30.7 06 09 0020 130B Alarm State:  0
Tue Feb 27 08:50:54 PST 2024 ON: 20.00 +20.0 20.02 -12.8 30.7 06 08 0024 1326 Alarm State:  0
Tue Feb 27 08:49:53 PST 2024 ON: 20.00 +20.0 20.01 -12.8 30.7 06 09 001B 141C Alarm State:  0
Tue Feb 27 08:48:51 PST 2024 ON: 19.99 +20.0 19.98 -12.8 30.6 06 0B 0025 1405 Alarm State:  0
Tue Feb 27 08:47:50 PST 2024 ON: 19.99 +20.0 20.00 -12.8 30.7 06 09 0030 1330 Alarm State:  0
Tue Feb 27 08:46:48 PST 2024 ON: 19.99 +20.0 19.99 -12.8 30.8 06 09 0007 1225 Alarm State:  0
Tue Feb 27 08:45:47 PST 2024 ON: 20.00 +20.0 20.00 -12.8 30.6 06 09 0012 1302 Alarm State:  0
Tue Feb 27 08:44:45 PST 2024 ON: 20.00 +20.0 20.00 -12.8 30.7 06 0A 001C 140C Alarm State:  0
Tue Feb 27 08:43:44 PST 2024 ON: 19.99 +20.0 19.98 -12.8 30.7 01 0A 0027 1328 Alarm State:  0
Tue Feb 27 08:42:42 PST 2024 ON: 20.00 +20.0 19.99 -12.8 30.6 06 0A 0031 131E Alarm State:  0
Tue Feb 27 08:41:41 PST 2024 ON: 19.99 +20.0 19.98 -12.8 30.7 06 0A 0009 130C Alarm State:  0
Tue Feb 27 08:40:39 PST 2024 ON: 20.00 +20.0 20.00 -12.8 30.6 06 09 0014 131D Alarm State:  0
Tue Feb 27 08:39:38 PST 2024 ON: 20.00 +20.0 19.99 -12.8 30.5 06 0A 001E 1413 Alarm State:  0
Tue Feb 27 08:38:36 PST 2024 ON: 19.99 +20.0 20.01 -12.8 30.6 06 09 0029 1419 Alarm State:  0
Tue Feb 27 08:37:35 PST 2024 ON: 20.00 +20.0 19.99 -12.8 30.6 06 0A 0000 1312 Alarm State:  0
Tue Feb 27 08:36:33 PST 2024 ON: 20.00 +20.0 20.00 -12.8 30.7 06 09 000B 1303 Alarm State:  0
Tue Feb 27 08:35:32 PST 2024 ON: 20.00 +20.0 19.99 -12.8 30.6 06 0A 0015 130D Alarm State:  0
Tue Feb 27 08:34:30 PST 2024 ON: 19.99 +20.0 20.01 -12.8 30.6 03 09 001A 1420 Alarm State:  0
Tue Feb 27 08:33:29 PST 2024 ON: 19.99 +20.0 20.02 -12.8 30.5 06 09 0024 140F Alarm State:  0
Tue Feb 27 08:32:27 PST 2024 ON: 19.99 +20.0 20.00 -12.8 30.6 06 09 002F 131B Alarm State:  0
Tue Feb 27 08:31:26 PST 2024 ON: 19.99 +20.0 19.98 -12.8 30.6 06 0A 0006 1214 Alarm State:  0
Tue Feb 27 08:30:24 PST 2024 ON: 20.01 +20.0 20.00 -12.8 30.6 06 09 000F 131B Alarm State:  0
Tue Feb 27 08:29:23 PST 2024 ON: 20.01 +20.0 20.03 -12.8 30.6 06 08 0030 1417 Alarm State:  0
Tue Feb 27 08:28:21 PST 2024 ON: 19.99 +20.0 20.02 -12.8 30.5 06 09 0002 150A Alarm State:  0
Tue Feb 27 08:27:20 PST 2024 ON: 19.99 +20.0 20.00 -12.8 30.5 06 0A 000C 140F Alarm State:  0
Tue Feb 27 08:26:18 PST 2024 ON: 19.99 +20.0 20.00 -12.9 30.6 06 09 0017 1321 Alarm State:  0
Tue Feb 27 08:25:17 PST 2024 ON: 20.00 +20.0 19.98 -12.8 30.6 06 0A 0021 1230 Alarm State:  0
Tue Feb 27 08:24:15 PST 2024 ON: 20.00 +20.0 19.99 -12.8 30.6 06 0A 002C 1309 Alarm State:  0
Tue Feb 27 08:23:14 PST 2024 ON: 20.00 +20.0 20.01 -12.8 30.5 06 09 0001 1407 Alarm State:  0
Tue Feb 27 08:22:12 PST 2024 ON: 20.00 +20.0 20.01 -12.8 30.6 06 09 000C 1421 Alarm State:  0
Tue Feb 27 08:21:11 PST 2024 ON: 19.99 +20.0 20.00 -12.8 30.6 06 0A 0016 140E Alarm State:  0
Tue Feb 27 08:20:09 PST 2024 ON: 19.99 +20.0 19.98 -12.8 30.6 06 0A 0021 1314 Alarm State:  0
Tue Feb 27 08:19:08 PST 2024 ON: 19.99 +20.0 19.99 -12.8 30.5 06 09 002B 1225 Alarm State:  0
Tue Feb 27 08:18:06 PST 2024 ON: 20.00 +20.0 20.00 -12.9 30.5 06 09 0032 1306 Alarm State:  0
Tue Feb 27 08:16:55 PST 2024 ON: 20.00 +20.0 20.00 -12.9 30.4 06 0A 0013 140A Alarm State:  0
Tue Feb 27 08:15:53 PST 2024 ON: 19.99 +20.0 20.01 -12.9 30.4 06 09 001C 1426 Alarm State:  0
Tue Feb 27 08:14:52 PST 2024 ON: 19.99 +20.0 19.98 -12.8 30.5 06 0B 0026 1407 Alarm State:  0
Tue Feb 27 08:13:50 PST 2024 ON: 20.00 +20.0 20.00 -12.9 30.6 06 09 0031 1311 Alarm State:  0
Tue Feb 27 08:12:49 PST 2024 ON: 19.99 +20.0 20.00 -12.9 30.6 06 09 0008 131C Alarm State:  0
Tue Feb 27 08:11:47 PST 2024 ON: 20.00 +20.0 20.00 -12.9 30.6 06 0A 000B 1413 Alarm State:  0
Tue Feb 27 08:10:46 PST 2024 ON: 19.99 +20.0 19.99 -12.8 30.6 06 0A 0015 141B Alarm State:  0
Tue Feb 27 08:09:44 PST 2024 ON: 19.99 +20.0 19.98 -12.8 30.6 06 0A 0020 1313 Alarm State:  0
Tue Feb 27 08:08:43 PST 2024 ON: 19.99 +20.0 19.98 -12.8 30.5 06 0A 002A 1210 Alarm State:  0
Tue Feb 27 08:07:41 PST 2024 ON: 20.00 +20.0 19.99 -12.8 30.6 06 0A 0002 131B Alarm State:  0
Tue Feb 27 08:06:40 PST 2024 ON: 20.00 +20.0 20.02 -12.9 30.5 06 09 000A 1506 Alarm State:  0
Tue Feb 27 08:05:38 PST 2024 ON: 19.99 +20.0 19.99 -12.8 30.5 06 0A 0015 140C Alarm State:  0
Tue Feb 27 08:04:37 PST 2024 ON: 20.00 +20.0 20.00 -12.8 30.5 06 09 001F 1319 Alarm State:  0
Tue Feb 27 08:03:35 PST 2024 ON: 19.99 +20.0 19.99 -12.8 30.4 06 0A 002A 131C Alarm State:  0
Tue Feb 27 08:02:24 PST 2024 ON: 20.00 +20.0 20.00 -12.8 30.5 06 09 000B 1302 Alarm State:  0
Tue Feb 27 08:01:22 PST 2024 ON: 19.99 +20.0 20.00 -12.9 30.5 06 09 0015 130D Alarm State:  0
Tue Feb 27 08:00:21 PST 2024 ON: 19.99 +20.0 20.00 -12.8 30.5 06 09 0020 122F Alarm State:  0
Tue Feb 27 07:59:19 PST 2024 ON: 20.00 +20.0 19.99 -12.8 30.6 06 0A 002A 1317 Alarm State:  0
Tue Feb 27 07:58:18 PST 2024 ON: 20.00 +20.0 19.99 -12.8 30.5 06 0A 0002 1406 Alarm State:  0
Tue Feb 27 07:57:16 PST 2024 ON: 20.00 +20.0 19.99 -12.8 30.5 06 0A 000C 1327 Alarm State:  0
Tue Feb 27 07:56:15 PST 2024 ON: 19.99 +20.0 20.01 -12.8 30.5 06 09 0017 1404 Alarm State:  0
Tue Feb 27 07:55:13 PST 2024 ON: 19.99 +20.0 20.02 -12.8 30.5 0B 08 0022 130E Alarm State:  0
Tue Feb 27 07:54:12 PST 2024 ON: 20.00 +20.0 19.99 -12.8 30.6 06 09 002C 1225 Alarm State:  0
Tue Feb 27 07:53:10 PST 2024 ON: 20.00 +20.0 19.99 -12.8 30.5 06 0A 0002 131C Alarm State:  0
Tue Feb 27 07:52:09 PST 2024 ON: 19.99 +20.0 20.01 -12.8 30.6 06 09 0004 1424 Alarm State:  0
Tue Feb 27 07:51:07 PST 2024 ON: 19.99 +20.0 20.00 -12.8 30.5 06 0A 000F 1410 Alarm State:  0
Tue Feb 27 07:50:06 PST 2024 ON: 20.00 +20.0 20.00 -12.8 30.6 06 09 0019 1329 Alarm State:  0
Tue Feb 27 07:49:04 PST 2024 ON: 20.00 +20.0 19.99 -12.8 30.6 06 0A 0024 131B Alarm State:  0
Tue Feb 27 07:47:53 PST 2024 ON: 20.00 +20.0 19.99 -12.8 30.6 06 0A 0005 1320 Alarm State:  0
Tue Feb 27 07:46:51 PST 2024 ON: 19.99 +20.0 19.98 -12.9 30.5 06 0B 000F 1405 Alarm State:  0
Tue Feb 27 07:45:50 PST 2024 ON: 20.00 +20.0 19.99 -12.9 30.5 06 0A 001A 1317 Alarm State:  0
Tue Feb 27 07:44:48 PST 2024 ON: 20.00 +20.0 19.99 -12.8 30.5 06 0A 0024 130C Alarm State:  0
Tue Feb 27 07:43:47 PST 2024 ON: 20.00 +20.0 20.00 -12.9 30.6 06 09 002F 131A Alarm State:  0
Tue Feb 27 07:42:45 PST 2024 ON: 20.00 +20.0 19.99 -12.9 30.5 06 0A 0006 131F Alarm State:  0
Tue Feb 27 07:41:44 PST 2024 ON: 19.99 +20.0 20.02 -12.8 30.5 06 09 0011 140E Alarm State:  0
Tue Feb 27 07:40:42 PST 2024 ON: 20.00 +20.0 19.98 -12.8 30.5 06 0A 001B 131D Alarm State:  0
Tue Feb 27 07:39:41 PST 2024 ON: 19.99 +20.0 19.99 -12.8 30.5 06 0A 0026 1303 Alarm State:  0
Tue Feb 27 07:38:39 PST 2024 ON: 20.00 +20.0 19.97 -12.8 30.6 06 0A 0030 1222 Alarm State:  0
Tue Feb 27 07:37:38 PST 2024 ON: 20.00 +20.0 20.00 -12.8 30.6 06 09 0031 1325 Alarm State:  0
Tue Feb 27 07:36:36 PST 2024 ON: 19.99 +20.0 19.98 -12.8 30.5 06 0B 0006 1425 Alarm State:  0
Tue Feb 27 07:35:35 PST 2024 ON: 19.99 +20.0 20.00 -12.8 30.5 06 0A 0011 1409 Alarm State:  0
Tue Feb 27 07:34:33 PST 2024 ON: 19.99 +20.0 20.00 -12.8 30.5 06 09 001B 1322 Alarm State:  0
Tue Feb 27 07:33:32 PST 2024 ON: 19.99 +20.0 19.98 -12.8 30.6 06 0A 0026 122E Alarm State:  0
Tue Feb 27 07:32:30 PST 2024 ON: 20.00 +20.0 20.01 -12.8 30.5 06 09 0031 1406 Alarm State:  0
Tue Feb 27 07:31:29 PST 2024 ON: 19.99 +20.0 20.00 -12.8 30.6 06 09 0008 1328 Alarm State:  0
Tue Feb 27 07:30:27 PST 2024 ON: 19.99 +20.0 20.00 -12.8 30.5 06 09 0013 1326 Alarm State:  0
Tue Feb 27 07:29:26 PST 2024 ON: 19.99 +20.0 19.99 -12.8 30.5 06 0A 001D 1310 Alarm State:  0
Tue Feb 27 07:28:24 PST 2024 ON: 20.00 +20.0 20.01 -12.8 30.6 06 09 0028 1322 Alarm State:  0
Tue Feb 27 07:27:23 PST 2024 ON: 19.99 +20.0 20.01 -12.8 30.6 06 09 0032 1322 Alarm State:  0
Tue Feb 27 07:26:21 PST 2024 ON: 20.00 +20.0 20.00 -12.8 30.5 06 0A 000A 1405 Alarm State:  0
Tue Feb 27 07:25:20 PST 2024 ON: 19.99 +20.0 19.99 -12.8 30.6 06 0A 0014 131A Alarm State:  0
Tue Feb 27 07:24:18 PST 2024 ON: 19.99 +20.0 19.98 -12.8 30.6 06 0A 001F 1220 Alarm State:  0
Tue Feb 27 07:23:17 PST 2024 ON: 20.00 +20.0 20.00 -12.8 30.5 06 09 0029 1316 Alarm State:  0
Tue Feb 27 07:22:15 PST 2024 ON: 19.99 +20.0 20.00 -12.8 30.6 06 0A 0030 141D Alarm State:  0
Tue Feb 27 07:21:14 PST 2024 ON: 19.99 +20.0 20.00 -12.8 30.6 06 09 0007 1320 Alarm State:  0
Tue Feb 27 07:20:12 PST 2024 ON: 19.99 +20.0 19.99 -12.8 30.6 06 0A 0012 1319 Alarm State:  0
Tue Feb 27 07:19:11 PST 2024 ON: 19.99 +20.0 20.00 -12.8 30.5 03 09 001C 131D Alarm State:  0
Tue Feb 27 07:18:09 PST 2024 ON: 19.99 +20.0 19.99 -12.8 30.6 06 0A 0027 131B Alarm State:  0
Tue Feb 27 07:17:08 PST 2024 ON: 20.00 +20.0 20.00 -12.8 30.5 06 09 0031 130B Alarm State:  0
Tue Feb 27 07:16:06 PST 2024 ON: 20.00 +20.0 20.01 -12.8 30.6 06 09 0009 141E Alarm State:  0
Tue Feb 27 07:15:05 PST 2024 ON: 19.99 +20.0 19.99 -12.8 30.6 01 0A 0013 1323 Alarm State:  0
Tue Feb 27 07:14:03 PST 2024 ON: 20.00 +20.0 20.01 -12.8 30.5 06 09 001E 1325 Alarm State:  0
Tue Feb 27 07:13:02 PST 2024 ON: 20.00 +20.0 20.00 -12.8 30.5 06 09 0028 130E Alarm State:  0
Tue Feb 27 07:12:00 PST 2024 ON: 20.00 +20.0 20.01 -12.8 30.5 06 09 001B 1409 Alarm State:  0
Tue Feb 27 07:10:59 PST 2024 ON: 19.99 +20.0 19.98 -12.8 30.5 06 0B 0025 1404 Alarm State:  0
Tue Feb 27 07:09:57 PST 2024 ON: 20.00 +20.0 20.00 -12.8 30.5 06 09 0030 131C Alarm State:  0
Tue Feb 27 07:08:56 PST 2024 ON: 19.99 +20.0 19.99 -12.8 30.6 06 0A 0032 1416 Alarm State:  0
Tue Feb 27 07:07:54 PST 2024 ON: 20.00 +20.0 19.98 -12.8 30.5 06 0A 000A 130C Alarm State:  0
Tue Feb 27 07:06:53 PST 2024 ON: 19.99 +20.0 19.99 -12.9 30.5 06 0A 0002 1400 Alarm State:  0
Tue Feb 27 07:05:51 PST 2024 ON: 20.00 +20.0 20.01 -12.8 30.5 06 09 002E 1417 Alarm State:  0
Tue Feb 27 07:04:50 PST 2024 ON: 20.00 +20.0 20.01 -12.8 30.5 06 09 0005 1408 Alarm State:  0
Tue Feb 27 07:03:48 PST 2024 ON: 19.99 +20.0 19.98 -12.8 30.6 06 0A 0010 1306 Alarm State:  0
Tue Feb 27 07:02:47 PST 2024 ON: 19.99 +20.0 19.99 -12.8 30.5 06 09 001A 122D Alarm State:  0
Tue Feb 27 07:01:45 PST 2024 ON: 19.99 +20.0 19.99 -12.8 30.5 06 0A 0023 1316 Alarm State:  0
Tue Feb 27 07:00:44 PST 2024 ON: 20.00 +20.0 20.01 -12.8 30.5 06 09 001D 1414 Alarm State:  0
Tue Feb 27 06:59:42 PST 2024 ON: 19.99 +20.0 20.01 -12.8 30.6 06 0A 0028 1503 Alarm State:  0
Tue Feb 27 06:58:41 PST 2024 ON: 19.99 +20.0 20.01 -12.8 30.5 06 09 0032 140E Alarm State:  0
Tue Feb 27 06:57:39 PST 2024 ON: 20.00 +20.0 19.99 -12.9 30.5 06 0A 000A 130C Alarm State:  0
Tue Feb 27 06:56:38 PST 2024 ON: 19.99 +20.0 19.99 -12.8 30.5 06 09 0014 1221 Alarm State:  0
Tue Feb 27 06:55:36 PST 2024 ON: 20.00 +20.0 20.00 -12.8 30.6 01 0A 001F 1405 Alarm State:  0
Tue Feb 27 06:54:35 PST 2024 ON: 19.99 +20.0 20.00 -12.9 30.4 06 0A 0029 140A Alarm State:  0
Tue Feb 27 06:53:33 PST 2024 ON: 20.00 +20.0 20.00 -12.8 30.5 06 09 0001 1310 Alarm State:  0
Tue Feb 27 06:52:31 PST 2024 ON: 20.00 +20.0 20.00 -12.8 30.5 06 09 000B 131E Alarm State:  0
Tue Feb 27 06:51:30 PST 2024 ON: 19.99 +20.0 19.99 -12.8 30.5 06 0A 0016 1316 Alarm State:  0
Tue Feb 27 06:50:28 PST 2024 ON: 20.00 +20.0 20.04 -12.9 30.5 06 08 0018 141C Alarm State:  0
Tue Feb 27 06:49:27 PST 2024 ON: 19.99 +20.0 20.00 -12.8 30.5 06 0A 0023 1417 Alarm State:  0
Tue Feb 27 06:48:25 PST 2024 ON: 19.99 +20.0 19.99 -12.8 30.5 06 0A 002D 130C Alarm State:  0
Tue Feb 27 06:47:24 PST 2024 ON: 19.99 +20.0 19.99 -12.8 30.4 06 09 0005 122B Alarm State:  0
Tue Feb 27 06:46:22 PST 2024 ON: 20.00 +20.0 20.00 -12.9 30.5 03 09 000F 1302 Alarm State:  0
Tue Feb 27 06:45:21 PST 2024 ON: 20.00 +20.0 20.01 -12.9 30.5 06 09 001A 1411 Alarm State:  0
Tue Feb 27 06:44:19 PST 2024 ON: 20.00 +20.0 20.00 -12.8 30.5 06 09 0024 131C Alarm State:  0
Tue Feb 27 06:43:18 PST 2024 ON: 19.99 +20.0 20.00 -12.8 30.6 06 09 0029 1331 Alarm State:  0
Tue Feb 27 06:42:16 PST 2024 ON: 20.00 +20.0 20.00 -12.8 30.6 06 09 0000 1310 Alarm State:  0
Tue Feb 27 06:41:15 PST 2024 ON: 19.99 +20.0 19.99 -12.8 30.5 06 0A 000B 1403 Alarm State:  0
Tue Feb 27 06:40:13 PST 2024 ON: 19.99 +20.0 19.98 -12.8 30.5 06 0A 0015 1312 Alarm State:  0
Tue Feb 27 06:39:12 PST 2024 ON: 19.99 +20.0 19.98 -12.8 30.6 06 0A 0020 1224 Alarm State:  0
Tue Feb 27 06:38:10 PST 2024 ON: 20.01 +20.0 20.02 -12.8 30.6 06 08 000E 131E Alarm State:  0
Tue Feb 27 06:37:09 PST 2024 ON: 19.99 +20.0 19.99 -12.8 30.5 03 0A 0015 1331 Alarm State:  0
Tue Feb 27 06:36:07 PST 2024 ON: 19.99 +20.0 20.01 -12.8 30.6 06 09 001F 1403 Alarm State:  0
Tue Feb 27 06:35:06 PST 2024 ON: 19.99 +20.0 19.99 -12.8 30.5 06 09 002A 1229 Alarm State:  0
Tue Feb 27 06:34:04 PST 2024 ON: 19.99 +20.0 19.99 -12.8 30.5 06 0A 0001 1321 Alarm State:  0
Tue Feb 27 06:33:03 PST 2024 ON: 19.99 +20.0 19.99 -12.8 30.6 06 0A 000C 132E Alarm State:  0
Tue Feb 27 06:32:01 PST 2024 ON: 20.00 +20.0 19.98 -12.8 30.5 06 0A 0016 1307 Alarm State:  0
Tue Feb 27 06:31:00 PST 2024 ON: 19.99 +20.0 19.99 -12.8 30.5 06 0A 0021 1330 Alarm State:  0
Tue Feb 27 06:29:58 PST 2024 ON: 19.99 +20.0 19.99 -12.8 30.5 06 0A 002B 1303 Alarm State:  0
Tue Feb 27 06:28:57 PST 2024 ON: 20.00 +20.0 19.98 -12.8 30.5 06 0A 0003 1219 Alarm State:  0
Tue Feb 27 06:27:55 PST 2024 ON: 20.00 +20.0 20.01 -12.8 30.5 06 09 000D 1404 Alarm State:  0
Tue Feb 27 06:26:54 PST 2024 ON: 19.99 +20.0 20.00 -12.8 30.5 06 0A 0018 140C Alarm State:  0
Tue Feb 27 06:25:52 PST 2024 ON: 20.00 +20.0 20.00 -12.8 30.5 06 09 0022 132B Alarm State:  0
Tue Feb 27 06:24:51 PST 2024 ON: 20.00 +20.0 20.01 -12.8 30.6 06 09 002D 1323 Alarm State:  0
Tue Feb 27 06:23:49 PST 2024 ON: 19.99 +20.0 20.00 -12.8 30.5 06 09 0004 130E Alarm State:  0
Tue Feb 27 06:22:48 PST 2024 ON: 20.00 +20.0 20.00 -12.8 30.6 06 09 000F 1323 Alarm State:  0
Tue Feb 27 06:21:46 PST 2024 ON: 19.99 +20.0 20.00 -12.8 30.5 06 0A 0019 1401 Alarm State:  0
Tue Feb 27 06:20:45 PST 2024 ON: 19.99 +20.0 19.98 -12.8 30.5 06 0A 0024 131A Alarm State:  0
Tue Feb 27 06:19:43 PST 2024 ON: 20.00 +20.0 20.00 -12.8 30.5 06 09 002E 130B Alarm State:  0
Tue Feb 27 06:18:42 PST 2024 ON: 20.00 +20.0 20.00 -12.8 30.6 06 0A 0006 1402 Alarm State:  0
Tue Feb 27 06:17:40 PST 2024 ON: 19.99 +20.0 20.01 -12.8 30.6 06 09 0010 1415 Alarm State:  0
Tue Feb 27 06:16:39 PST 2024 ON: 20.00 +20.0 19.99 -12.8 30.6 06 0A 001B 1325 Alarm State:  0
Tue Feb 27 06:15:37 PST 2024 ON: 19.99 +20.0 19.99 -12.8 30.7 06 0A 0025 1316 Alarm State:  0
Tue Feb 27 06:14:36 PST 2024 ON: 20.00 +20.0 20.01 -12.8 30.6 06 09 0030 1301 Alarm State:  0
Tue Feb 27 06:13:34 PST 2024 ON: 20.01 +20.0 20.00 -12.8 30.5 06 09 0031 1323 Alarm State:  0
Tue Feb 27 06:12:33 PST 2024 ON: 20.00 +20.0 20.01 -12.8 30.5 06 09 0000 1419 Alarm State:  0
Tue Feb 27 06:11:31 PST 2024 ON: 20.00 +20.0 20.01 -12.8 30.6 06 09 0009 140D Alarm State:  0
Tue Feb 27 06:10:30 PST 2024 ON: 19.99 +20.0 19.99 -12.8 30.5 06 0A 0013 1306 Alarm State:  0
Tue Feb 27 06:09:28 PST 2024 ON: 19.99 +20.0 19.99 -12.8 30.6 06 0A 001E 1309 Alarm State:  0
Tue Feb 27 06:08:27 PST 2024 ON: 20.00 +20.0 20.01 -12.8 30.6 06 09 0028 1303 Alarm State:  0
Tue Feb 27 06:07:25 PST 2024 ON: 20.00 +20.0 20.01 -12.8 30.6 06 09 0000 1319 Alarm State:  0
Tue Feb 27 06:06:24 PST 2024 ON: 20.00 +20.0 20.00 -12.8 30.6 06 0A 0002 140F Alarm State:  0
Tue Feb 27 06:05:22 PST 2024 ON: 19.99 +20.0 20.00 -12.8 30.5 06 09 000D 1329 Alarm State:  0
Tue Feb 27 06:04:21 PST 2024 ON: 19.99 +20.0 19.99 -12.8 30.4 06 0A 0017 1310 Alarm State:  0
Tue Feb 27 06:03:19 PST 2024 ON: 19.99 +20.0 19.97 -12.8 30.6 06 0A 0022 1204 Alarm State:  0
Tue Feb 27 06:02:18 PST 2024 ON: 19.99 +20.0 19.98 -12.8 30.5 06 0A 002C 121C Alarm State:  0
Tue Feb 27 06:01:16 PST 2024 ON: 20.00 +20.0 20.00 -12.8 30.5 06 0A 0000 1400 Alarm State:  0
Tue Feb 27 06:00:15 PST 2024 ON: 19.99 +20.0 20.00 -12.9 30.5 06 0A 000A 1430 Alarm State:  0
Tue Feb 27 05:59:13 PST 2024 ON: 19.99 +20.0 19.99 -12.8 30.6 06 0A 0015 140E Alarm State:  0
Tue Feb 27 05:58:12 PST 2024 ON: 19.99 +20.0 19.99 -12.8 30.6 06 0A 001F 1307 Alarm State:  0
Tue Feb 27 05:57:10 PST 2024 ON: 19.99 +20.0 19.98 -12.9 30.6 06 09 002A 112D Alarm State:  0
Tue Feb 27 05:56:09 PST 2024 ON: 19.99 +20.0 19.98 -12.8 30.6 06 0A 0001 1204 Alarm State:  0
Tue Feb 27 05:55:07 PST 2024 ON: 20.00 +20.0 20.00 -12.9 30.6 03 09 000C 1305 Alarm State:  0
Tue Feb 27 05:54:06 PST 2024 ON: 20.00 +20.0 20.02 -12.8 30.6 06 09 002D 1419 Alarm State:  0
Tue Feb 27 05:53:04 PST 2024 ON: 19.99 +20.0 20.01 -12.8 30.5 06 09 0005 141A Alarm State:  0
Tue Feb 27 05:52:03 PST 2024 ON: 19.99 +20.0 19.99 -12.8 30.5 06 0A 000F 132C Alarm State:  0
Tue Feb 27 05:51:01 PST 2024 ON: 19.99 +20.0 20.00 -12.8 30.5 06 09 001A 1228 Alarm State:  0
Tue Feb 27 05:50:00 PST 2024 ON: 20.00 +20.0 20.00 -12.9 30.5 06 09 0024 1228 Alarm State:  0
Tue Feb 27 05:48:58 PST 2024 ON: 19.99 +20.0 20.00 -12.8 30.4 06 09 002F 1315 Alarm State:  0
Tue Feb 27 05:47:57 PST 2024 ON: 20.00 +20.0 19.99 -12.8 30.5 06 0A 0002 140D Alarm State:  0
Tue Feb 27 05:46:55 PST 2024 ON: 19.99 +20.0 20.01 -12.8 30.5 06 09 000D 1427 Alarm State:  0
Tue Feb 27 05:45:54 PST 2024 ON: 19.99 +20.0 20.00 -12.8 30.5 06 09 0017 1328 Alarm State:  0
Tue Feb 27 05:44:52 PST 2024 ON: 19.99 +20.0 19.98 -12.8 30.5 06 0A 0022 121C Alarm State:  0
Tue Feb 27 05:43:51 PST 2024 ON: 20.00 +20.0 19.99 -12.8 30.5 06 0A 0024 131C Alarm State:  0
Tue Feb 27 05:42:49 PST 2024 ON: 19.99 +20.0 19.99 -12.8 30.5 06 0A 002F 1314 Alarm State:  0
Tue Feb 27 05:41:47 PST 2024 ON: 20.00 +20.0 20.01 -12.8 30.5 06 09 002D 141C Alarm State:  0
Tue Feb 27 05:40:46 PST 2024 ON: 19.99 +20.0 20.01 -12.8 30.5 06 09 0005 1418 Alarm State:  0
Tue Feb 27 05:39:44 PST 2024 ON: 19.99 +20.0 20.00 -12.8 30.6 06 09 000F 1315 Alarm State:  0
Tue Feb 27 05:38:43 PST 2024 ON: 19.99 +20.0 19.99 -12.8 30.7 06 0A 001A 130D Alarm State:  0
Tue Feb 27 05:37:41 PST 2024 ON: 20.00 +20.0 19.99 -12.8 30.6 06 09 0024 120C Alarm State:  0
Tue Feb 27 05:36:40 PST 2024 ON: 20.00 +20.0 20.00 -12.8 30.6 06 09 0027 131F Alarm State:  0
Tue Feb 27 05:35:38 PST 2024 ON: 19.99 +20.0 20.00 -12.8 30.6 06 0A 0031 1423 Alarm State:  0
Tue Feb 27 05:34:37 PST 2024 ON: 19.99 +20.0 19.99 -12.8 30.5 06 0A 0009 1317 Alarm State:  0
Tue Feb 27 05:33:35 PST 2024 ON: 20.00 +20.0 19.99 -12.8 30.5 06 09 0013 120E Alarm State:  0
Tue Feb 27 05:32:34 PST 2024 ON: 20.00 +20.0 19.98 -12.8 30.5 06 0A 001E 1315 Alarm State:  0
Tue Feb 27 05:31:32 PST 2024 ON: 19.99 +20.0 19.99 -12.8 30.5 06 0A 0022 140D Alarm State:  0
Tue Feb 27 05:30:31 PST 2024 ON: 19.99 +20.0 20.00 -12.8 30.5 06 0A 002D 140F Alarm State:  0
Tue Feb 27 05:29:29 PST 2024 ON: 19.99 +20.0 19.99 -12.8 30.6 06 0A 0004 1314 Alarm State:  0
Tue Feb 27 05:28:28 PST 2024 ON: 19.99 +20.0 20.00 -12.9 30.5 06 09 000F 1220 Alarm State:  0
Tue Feb 27 05:27:26 PST 2024 ON: 20.00 +20.0 19.97 -12.8 30.5 06 0A 0019 1123 Alarm State:  0
Tue Feb 27 05:26:25 PST 2024 ON: 20.00 +20.0 20.01 -12.8 30.5 06 09 001E 130D Alarm State:  0
Tue Feb 27 05:25:23 PST 2024 ON: 20.00 +20.0 20.00 -12.8 30.6 06 0A 000A 1401 Alarm State:  0
Tue Feb 27 05:24:22 PST 2024 ON: 19.99 +20.0 20.00 -12.8 30.5 06 0A 0015 1423 Alarm State:  0
Tue Feb 27 05:23:20 PST 2024 ON: 19.99 +20.0 20.01 -12.8 30.6 06 09 001F 140A Alarm State:  0
Tue Feb 27 05:22:19 PST 2024 ON: 19.99 +20.0 19.98 -12.8 30.6 06 0A 002A 1306 Alarm State:  0
Tue Feb 27 05:21:17 PST 2024 ON: 20.00 +20.0 19.99 -12.8 30.5 06 09 0001 1217 Alarm State:  0
Tue Feb 27 05:20:16 PST 2024 ON: 20.00 +20.0 19.99 -12.8 30.5 06 0A 000C 131E Alarm State:  0
Tue Feb 27 05:19:14 PST 2024 ON: 19.99 +20.0 20.00 -12.8 30.6 06 0A 0016 140C Alarm State:  0
Tue Feb 27 05:18:13 PST 2024 ON: 20.00 +20.0 19.98 -12.8 30.6 06 0A 0021 1319 Alarm State:  0
Tue Feb 27 05:17:11 PST 2024 ON: 20.00 +20.0 20.01 -12.8 30.6 06 09 002B 1325 Alarm State:  0
Tue Feb 27 05:16:10 PST 2024 ON: 19.99 +20.0 20.00 -12.8 30.6 06 09 0003 1322 Alarm State:  0
Tue Feb 27 05:15:08 PST 2024 ON: 19.99 +20.0 20.00 -12.8 30.5 06 0A 000D 1404 Alarm State:  0
Tue Feb 27 05:14:07 PST 2024 ON: 19.98 +20.0 19.98 -12.8 30.5 06 0A 0018 1322 Alarm State:  0
Tue Feb 27 05:13:05 PST 2024 ON: 20.00 +20.0 19.99 -12.8 30.5 06 0A 0022 1313 Alarm State:  0
Tue Feb 27 05:12:04 PST 2024 ON: 19.99 +20.0 19.98 -12.8 30.5 06 0A 002D 130F Alarm State:  0
Tue Feb 27 05:11:02 PST 2024 ON: 19.99 +20.0 19.99 -12.9 30.6 06 0A 0004 130C Alarm State:  0
Tue Feb 27 05:10:01 PST 2024 ON: 19.99 +20.0 20.01 -12.8 30.6 06 09 0001 1413 Alarm State:  0
Tue Feb 27 05:08:59 PST 2024 ON: 19.99 +20.0 20.00 -12.8 30.5 06 0A 000B 1424 Alarm State:  0
Tue Feb 27 05:07:58 PST 2024 ON: 19.99 +20.0 19.99 -12.8 30.5 00 0A 0016 1326 Alarm State:  0
Tue Feb 27 05:06:56 PST 2024 ON: 19.99 +20.0 20.00 -12.9 30.5 06 09 0020 1301 Alarm State:  0
Tue Feb 27 05:05:55 PST 2024 ON: 19.99 +20.0 19.99 -12.8 30.5 06 0A 002B 1310 Alarm State:  0
Tue Feb 27 05:04:53 PST 2024 ON: 20.00 +20.0 20.00 -12.8 30.5 06 0A 0002 1402 Alarm State:  0
Tue Feb 27 05:03:52 PST 2024 ON: 19.99 +20.0 19.98 -12.8 30.5 06 0A 000D 131A Alarm State:  0
Tue Feb 27 05:02:50 PST 2024 ON: 20.00 +20.0 20.00 -12.8 30.6 06 09 0017 1319 Alarm State:  0
Tue Feb 27 05:01:49 PST 2024 ON: 19.99 +20.0 19.99 -12.8 30.5 06 0A 0022 132A Alarm State:  0
Tue Feb 27 05:00:47 PST 2024 ON: 19.99 +20.0 20.00 -12.8 30.6 06 09 002C 122B Alarm State:  0
Tue Feb 27 04:59:46 PST 2024 ON: 20.00 +20.0 20.00 -12.9 30.6 06 0A 0019 1411 Alarm State:  0
Tue Feb 27 04:58:44 PST 2024 ON: 19.99 +20.0 20.01 -12.9 30.5 06 09 0023 1412 Alarm State:  0
Tue Feb 27 04:57:43 PST 2024 ON: 19.98 +20.0 19.97 -12.9 30.5 06 0B 002E 1306 Alarm State:  0
Tue Feb 27 04:56:41 PST 2024 ON: 20.00 +20.0 19.97 -12.9 30.5 06 0A 0005 1216 Alarm State:  0
Tue Feb 27 04:55:40 PST 2024 ON: 20.00 +20.0 20.01 -12.8 30.6 06 09 000C 1327 Alarm State:  0
Tue Feb 27 04:54:38 PST 2024 ON: 19.99 +20.0 19.97 -12.8 30.6 06 0B 0016 1327 Alarm State:  0
Tue Feb 27 04:53:37 PST 2024 ON: 19.99 +20.0 19.99 -12.8 30.6 06 0A 0021 130C Alarm State:  0
Tue Feb 27 04:52:35 PST 2024 ON: 20.00 +20.0 20.01 -12.8 30.6 06 09 002B 1314 Alarm State:  0
Tue Feb 27 04:51:34 PST 2024 ON: 20.00 +20.0 20.00 -12.8 30.7 06 0A 000A 1425 Alarm State:  0
Tue Feb 27 04:50:32 PST 2024 ON: 19.99 +20.0 20.00 -12.8 30.6 06 0A 0014 1426 Alarm State:  0
Tue Feb 27 04:49:31 PST 2024 ON: 19.99 +20.0 19.99 -12.8 30.6 06 0A 001F 132A Alarm State:  0
Tue Feb 27 04:48:29 PST 2024 ON: 20.00 +20.0 19.99 -12.8 30.6 06 0A 0029 1317 Alarm State:  0
Tue Feb 27 04:47:28 PST 2024 ON: 19.99 +20.0 19.99 -12.8 30.6 06 0A 0001 131A Alarm State:  0
Tue Feb 27 04:46:26 PST 2024 ON: 19.99 +20.0 20.01 -12.8 30.6 06 08 000C 122A Alarm State:  0
Tue Feb 27 04:45:25 PST 2024 ON: 20.00 +20.0 20.00 -12.8 30.6 06 09 0016 130C Alarm State:  0
Tue Feb 27 04:44:23 PST 2024 ON: 19.99 +20.0 20.00 -12.8 30.7 06 0A 0021 1417 Alarm State:  0
Tue Feb 27 04:43:22 PST 2024 ON: 19.99 +20.0 20.00 -12.8 30.6 06 09 002B 1328 Alarm State:  0
Tue Feb 27 04:42:20 PST 2024 ON: 19.99 +20.0 19.99 -12.8 30.7 06 0A 0003 1316 Alarm State:  0
Tue Feb 27 04:41:18 PST 2024 ON: 20.00 +20.0 19.99 -12.8 30.7 06 0A 000D 131F Alarm State:  0
Tue Feb 27 04:40:07 PST 2024 ON: 20.00 +20.0 20.01 -12.8 30.6 06 09 0021 1402 Alarm State:  0
Tue Feb 27 04:39:06 PST 2024 ON: 19.99 +20.0 19.99 -12.8 30.6 06 0A 002C 131C Alarm State:  0
Tue Feb 27 04:38:04 PST 2024 ON: 20.00 +20.0 20.00 -12.8 30.6 06 0A 0003 1401 Alarm State:  0
Tue Feb 27 04:37:03 PST 2024 ON: 19.99 +20.0 19.99 -12.7 30.6 06 0A 000E 1325 Alarm State:  0
Tue Feb 27 04:36:01 PST 2024 ON: 19.99 +20.0 19.98 -12.8 30.6 06 0A 0019 1305 Alarm State:  0
Tue Feb 27 04:35:00 PST 2024 ON: 20.00 +20.0 19.99 -12.8 30.6 06 0A 0023 1307 Alarm State:  0
Tue Feb 27 04:33:58 PST 2024 ON: 20.00 +20.0 19.99 -12.8 30.7 06 0A 002C 140E Alarm State:  0
Tue Feb 27 04:32:57 PST 2024 ON: 19.99 +20.0 20.00 -12.8 30.6 06 0A 0001 140F Alarm State:  0
Tue Feb 27 04:31:55 PST 2024 ON: 19.99 +20.0 20.00 -12.8 30.6 06 09 000C 130F Alarm State:  0
Tue Feb 27 04:30:54 PST 2024 ON: 20.00 +20.0 20.01 -12.8 30.6 06 08 0016 121A Alarm State:  0
Tue Feb 27 04:29:52 PST 2024 ON: 20.00 +20.0 20.00 -12.8 30.7 06 09 0021 1325 Alarm State:  0
Tue Feb 27 04:28:51 PST 2024 ON: 20.00 +20.0 20.00 -12.8 30.6 06 0A 002B 141D Alarm State:  0
Tue Feb 27 04:27:49 PST 2024 ON: 19.99 +20.0 19.99 -12.8 30.6 06 0A 0003 132F Alarm State:  0
Tue Feb 27 04:26:48 PST 2024 ON: 19.99 +20.0 19.99 -12.8 30.6 06 0A 000D 1308 Alarm State:  0
Tue Feb 27 04:25:46 PST 2024 ON: 20.00 +20.0 20.00 -12.8 30.6 06 09 0018 1222 Alarm State:  0
Tue Feb 27 04:24:35 PST 2024 ON: 20.00 +20.0 20.00 -12.8 30.6 06 09 002C 132C Alarm State:  0
Tue Feb 27 04:23:33 PST 2024 ON: 20.00 +20.0 19.99 -12.8 30.7 06 0A 0103 130D Alarm State:  0
Tue Feb 27 04:22:32 PST 2024 ON: 20.00 +20.0 19.99 -12.8 30.6 06 0A 0024 1422 Alarm State:  0
Tue Feb 27 04:21:30 PST 2024 ON: 19.99 +20.0 20.01 -12.8 30.6 06 09 002E 141B Alarm State:  0
Tue Feb 27 04:20:29 PST 2024 ON: 19.99 +20.0 20.00 -12.8 30.6 06 09 0006 131D Alarm State:  0
Tue Feb 27 04:19:27 PST 2024 ON: 19.99 +20.0 20.00 -12.8 30.7 06 09 0010 131C Alarm State:  0
Tue Feb 27 04:18:26 PST 2024 ON: 20.00 +20.0 19.99 -12.8 30.6 06 0A 001B 1407 Alarm State:  0
Tue Feb 27 04:17:24 PST 2024 ON: 20.00 +20.0 20.02 -12.8 30.6 06 08 0025 1328 Alarm State:  0
Tue Feb 27 04:16:23 PST 2024 ON: 20.00 +20.0 19.99 -12.8 30.6 06 0A 0030 132F Alarm State:  0
Tue Feb 27 04:15:21 PST 2024 ON: 20.00 +20.0 20.00 -12.8 30.7 06 09 0007 1314 Alarm State:  0
Tue Feb 27 04:14:20 PST 2024 ON: 20.00 +20.0 19.99 -12.8 30.6 06 0A 0012 1329 Alarm State:  0
Tue Feb 27 04:13:18 PST 2024 ON: 20.01 +20.0 20.02 -12.8 30.7 06 08 0014 1326 Alarm State:  0
Tue Feb 27 04:12:17 PST 2024 ON: 20.00 +20.0 20.01 -12.8 30.7 06 09 001D 1414 Alarm State:  0
Tue Feb 27 04:11:15 PST 2024 ON: 19.99 +20.0 20.01 -12.8 30.7 08 09 0027 1417 Alarm State:  0
Tue Feb 27 04:10:14 PST 2024 ON: 19.99 +20.0 20.00 -12.8 30.7 06 09 0032 132E Alarm State:  0
Tue Feb 27 04:09:12 PST 2024 ON: 20.00 +20.0 19.99 -12.8 30.6 06 0A 0009 1327 Alarm State:  0
Tue Feb 27 04:08:11 PST 2024 ON: 19.99 +20.0 20.00 -12.8 30.6 06 09 0014 130C Alarm State:  0
Tue Feb 27 04:07:09 PST 2024 ON: 19.99 +20.0 19.97 -12.8 30.7 06 0A 001E 1230 Alarm State:  0
Tue Feb 27 04:06:08 PST 2024 ON: 19.99 +20.0 20.00 -12.8 30.6 06 09 0029 1319 Alarm State:  0
Tue Feb 27 04:05:06 PST 2024 ON: 20.00 +20.0 19.99 -12.8 30.6 06 0A 0001 1321 Alarm State:  0
Tue Feb 27 04:04:05 PST 2024 ON: 19.99 +20.0 20.01 -12.8 30.7 06 09 000B 1401 Alarm State:  0
Tue Feb 27 04:03:03 PST 2024 ON: 20.00 +20.0 19.99 -12.8 30.7 06 0A 0016 1317 Alarm State:  0
Tue Feb 27 04:02:02 PST 2024 ON: 20.00 +20.0 20.01 -12.8 30.6 06 09 0020 1316 Alarm State:  0
Tue Feb 27 04:01:00 PST 2024 ON: 19.99 +20.0 20.01 -12.8 30.6 08 09 002B 130B Alarm State:  0
Tue Feb 27 03:59:58 PST 2024 ON: 20.00 +20.0 20.00 -12.8 30.7 03 09 0002 1324 Alarm State:  0
Tue Feb 27 03:58:57 PST 2024 ON: 20.00 +20.0 20.00 -12.8 30.7 06 09 000D 1325 Alarm State:  0
Tue Feb 27 03:57:55 PST 2024 ON: 19.99 +20.0 20.00 -12.8 30.7 06 09 0017 1326 Alarm State:  0
Tue Feb 27 03:56:54 PST 2024 ON: 20.00 +20.0 20.03 -12.8 30.6 06 08 0022 1403 Alarm State:  0
Tue Feb 27 03:55:52 PST 2024 ON: 19.99 +20.0 19.98 -12.8 30.7 06 0A 002C 1325 Alarm State:  0
Tue Feb 27 03:54:51 PST 2024 ON: 19.99 +20.0 20.00 -12.8 30.6 06 09 0004 1322 Alarm State:  0
Tue Feb 27 03:53:49 PST 2024 ON: 20.00 +20.0 19.98 -12.8 30.7 06 0A 000E 122B Alarm State:  0
Tue Feb 27 03:52:48 PST 2024 ON: 20.00 +20.0 19.99 -12.8 30.7 06 09 0019 1203 Alarm State:  0
Tue Feb 27 03:51:46 PST 2024 ON: 20.00 +20.0 20.01 -12.8 30.7 06 09 0021 1317 Alarm State:  0
Tue Feb 27 03:50:45 PST 2024 ON: 20.00 +20.0 19.99 -12.8 30.6 06 0A 002C 1424 Alarm State:  0
Tue Feb 27 03:49:43 PST 2024 ON: 19.99 +20.0 20.00 -12.8 30.6 06 09 0003 132F Alarm State:  0
Tue Feb 27 03:48:42 PST 2024 ON: 19.99 +20.0 20.00 -12.7 30.7 01 09 000E 1223 Alarm State:  0
Tue Feb 27 03:47:40 PST 2024 ON: 19.99 +20.0 19.98 -12.7 30.7 01 0A 0018 1229 Alarm State:  0
Tue Feb 27 03:46:39 PST 2024 ON: 20.00 +20.0 20.00 -12.8 30.6 06 09 0021 1322 Alarm State:  0
Tue Feb 27 03:45:37 PST 2024 ON: 19.99 +20.0 19.99 -12.8 30.7 06 0A 002B 140C Alarm State:  0
Tue Feb 27 03:44:36 PST 2024 ON: 19.99 +20.0 20.00 -12.8 30.7 06 09 0003 130A Alarm State:  0
Tue Feb 27 03:43:34 PST 2024 ON: 20.00 +20.0 20.01 -12.8 30.7 06 08 000D 1227 Alarm State:  0
Tue Feb 27 03:42:33 PST 2024 ON: 19.99 +20.0 19.98 -12.7 30.7 06 0B 0012 1413 Alarm State:  0
Tue Feb 27 03:41:31 PST 2024 ON: 19.99 +20.0 20.00 -12.8 30.6 06 0A 001C 1410 Alarm State:  0
Tue Feb 27 03:40:30 PST 2024 ON: 19.99 +20.0 20.00 -12.7 30.6 01 09 0027 132A Alarm State:  0
Tue Feb 27 03:39:28 PST 2024 ON: 19.99 +20.0 19.99 -12.8 30.7 06 0A 0031 1305 Alarm State:  0
Tue Feb 27 03:38:27 PST 2024 ON: 20.00 +20.0 19.98 -12.8 30.6 06 0A 0009 1215 Alarm State:  0
Tue Feb 27 03:37:25 PST 2024 ON: 20.00 +20.0 19.99 -12.8 30.8 06 0A 0013 130D Alarm State:  0
Tue Feb 27 03:36:24 PST 2024 ON: 19.99 +20.0 20.00 -12.8 30.7 06 0A 001E 140C Alarm State:  0
Tue Feb 27 03:35:22 PST 2024 ON: 19.99 +20.0 19.99 -12.8 30.7 06 0A 0028 132F Alarm State:  0
Tue Feb 27 03:34:11 PST 2024  Alarm State: 0
Tue Feb 27 03:34:11 PST 2024 Chiller did not report ON, got this reading: 
Tue Feb 27 03:33:09 PST 2024 ON: 20.00 +20.0 19.99 -12.8 30.6 06 0A 0014 1311 Alarm State:  0
Tue Feb 27 03:32:08 PST 2024 ON: 19.99 +20.0 20.01 -12.8 30.6 06 09 0011 1414 Alarm State:  0
Tue Feb 27 03:31:06 PST 2024 ON: 19.98 +20.0 19.98 -12.8 30.8 06 0A 001B 1319 Alarm State:  0
Tue Feb 27 03:30:05 PST 2024 ON: 20.00 +20.0 19.99 -12.7 30.7 06 09 0026 120F Alarm State:  0
Tue Feb 27 03:29:03 PST 2024 ON: 20.01 +20.0 20.01 -12.8 30.8 06 09 001A 131D Alarm State:  0
Tue Feb 27 03:28:02 PST 2024 ON: 19.99 +20.0 20.01 -12.8 30.7 06 09 0019 1418 Alarm State:  0
Tue Feb 27 03:27:00 PST 2024 ON: 19.99 +20.0 19.99 -12.8 30.7 06 0A 0023 1326 Alarm State:  0
Tue Feb 27 03:25:59 PST 2024 ON: 19.99 +20.0 19.99 -12.8 30.7 06 0A 002E 1310 Alarm State:  0
Tue Feb 27 03:24:57 PST 2024 ON: 20.00 +20.0 20.01 -12.8 30.6 06 09 0005 131A Alarm State:  0
Tue Feb 27 03:23:56 PST 2024 ON: 20.00 +20.0 19.98 -12.8 30.7 06 0A 0010 1303 Alarm State:  0
Tue Feb 27 03:22:54 PST 2024 ON: 20.00 +20.0 20.00 -12.8 30.6 06 0A 001A 1417 Alarm State:  0
Tue Feb 27 03:21:53 PST 2024 ON: 19.99 +20.0 19.99 -12.8 30.7 06 0A 0025 1329 Alarm State:  0
Tue Feb 27 03:20:51 PST 2024 ON: 19.99 +20.0 19.99 -12.8 30.7 06 0A 002F 1304 Alarm State:  0
Tue Feb 27 03:19:50 PST 2024 ON: 20.00 +20.0 19.99 -12.8 30.7 06 09 0007 1218 Alarm State:  0
Tue Feb 27 03:18:48 PST 2024 ON: 20.00 +20.0 20.01 -12.8 30.7 06 08 0011 1227 Alarm State:  0
Tue Feb 27 03:17:47 PST 2024 ON: 19.99 +20.0 20.01 -12.8 30.7 06 09 001C 140B Alarm State:  0
Tue Feb 27 03:16:45 PST 2024 ON: 20.00 +20.0 20.00 -12.8 30.7 06 0A 0026 1405 Alarm State:  0
Tue Feb 27 03:15:44 PST 2024 ON: 19.99 +20.0 20.01 -12.7 30.7 06 09 0031 131F Alarm State:  0
Tue Feb 27 03:14:42 PST 2024 ON: 19.99 +20.0 19.99 -12.8 30.6 06 0A 0008 130E Alarm State:  0
Tue Feb 27 03:13:41 PST 2024 ON: 20.00 +20.0 20.00 -12.8 30.7 03 09 0013 1301 Alarm State:  0
Tue Feb 27 03:12:39 PST 2024 ON: 19.99 +20.0 19.99 -12.8 30.7 06 0A 001D 1323 Alarm State:  0
Tue Feb 27 03:11:38 PST 2024 ON: 19.99 +20.0 20.00 -12.7 30.6 06 09 0028 1229 Alarm State:  0
Tue Feb 27 03:10:36 PST 2024 ON: 20.00 +20.0 20.00 -12.7 30.7 06 09 0024 1218 Alarm State:  0
Tue Feb 27 03:09:35 PST 2024 ON: 20.00 +20.0 19.99 -12.8 30.7 06 0A 0005 1323 Alarm State:  0
Tue Feb 27 03:08:33 PST 2024 ON: 20.00 +20.0 20.01 -12.8 30.7 06 0A 0032 1504 Alarm State:  0
Tue Feb 27 03:07:32 PST 2024 ON: 19.99 +20.0 20.00 -12.7 30.7 06 0A 000A 140E Alarm State:  0
Tue Feb 27 03:06:30 PST 2024 ON: 19.99 +20.0 20.02 -12.8 30.7 03 08 0014 131B Alarm State:  0
Tue Feb 27 03:05:29 PST 2024 ON: 19.99 +20.0 19.99 -12.8 30.7 06 09 001F 1227 Alarm State:  0
Tue Feb 27 03:04:27 PST 2024 ON: 20.00 +20.0 20.00 -12.8 30.7 01 09 0029 1327 Alarm State:  0
Tue Feb 27 03:03:26 PST 2024 ON: 19.99 +20.0 20.00 -12.7 30.8 06 0A 0001 1404 Alarm State:  0
Tue Feb 27 03:02:24 PST 2024 ON: 20.00 +20.0 20.01 -12.8 30.7 06 09 000B 1311 Alarm State:  0
Tue Feb 27 03:01:23 PST 2024 ON: 20.00 +20.0 19.99 -12.8 30.7 06 0A 0016 1308 Alarm State:  0
Tue Feb 27 03:00:21 PST 2024 ON: 20.00 +20.0 20.01 -12.8 30.7 06 09 0020 1412 Alarm State:  0
Tue Feb 27 02:59:20 PST 2024 ON: 19.99 +20.0 20.00 -12.8 30.7 03 09 002B 1316 Alarm State:  0
Tue Feb 27 02:58:18 PST 2024 ON: 20.00 +20.0 20.00 -12.8 30.7 06 09 0002 121D Alarm State:  0
Tue Feb 27 02:57:17 PST 2024 ON: 20.01 +20.0 20.01 -12.8 30.7 06 09 0103 1328 Alarm State:  0
Tue Feb 27 02:56:15 PST 2024 ON: 19.99 +20.0 19.99 -12.7 30.7 06 0A 0001 1330 Alarm State:  0
Tue Feb 27 02:55:14 PST 2024 ON: 19.99 +20.0 19.98 -12.8 30.7 06 0A 000C 1320 Alarm State:  0
Tue Feb 27 02:54:12 PST 2024 ON: 20.00 +20.0 19.99 -12.8 30.6 06 0A 0016 1317 Alarm State:  0
Tue Feb 27 02:53:11 PST 2024 ON: 19.99 +20.0 19.98 -12.8 30.7 06 0A 0021 1229 Alarm State:  0
Tue Feb 27 02:52:09 PST 2024 ON: 20.00 +20.0 20.01 -12.8 30.7 06 09 002B 1325 Alarm State:  0
Tue Feb 27 02:51:08 PST 2024 ON: 20.00 +20.0 20.00 -12.8 30.6 06 09 0003 1326 Alarm State:  0
Tue Feb 27 02:50:06 PST 2024 ON: 20.01 +20.0 20.01 -12.7 30.7 06 09 000D 1401 Alarm State:  0
Tue Feb 27 02:49:05 PST 2024 ON: 19.99 +20.0 19.99 -12.8 30.7 06 0A 0014 1405 Alarm State:  0
Tue Feb 27 02:48:03 PST 2024 ON: 19.99 +20.0 19.99 -12.7 30.7 06 09 001E 122C Alarm State:  0
Tue Feb 27 02:47:02 PST 2024 ON: 20.00 +20.0 20.00 -12.8 30.7 06 09 0029 1317 Alarm State:  0
Tue Feb 27 02:46:00 PST 2024 ON: 20.00 +20.0 20.00 -12.8 30.7 06 0A 0000 1405 Alarm State:  0
Tue Feb 27 02:44:59 PST 2024 ON: 19.99 +20.0 19.99 -12.8 30.8 06 0A 000B 1407 Alarm State:  0
Tue Feb 27 02:43:57 PST 2024 ON: 19.99 +20.0 20.00 -12.8 30.7 06 09 0015 131C Alarm State:  0
Tue Feb 27 02:42:56 PST 2024 ON: 19.99 +20.0 19.99 -12.8 30.6 06 09 0020 121E Alarm State:  0
Tue Feb 27 02:41:54 PST 2024 ON: 20.00 +20.0 20.01 -12.8 30.6 06 09 002A 1403 Alarm State:  0
Tue Feb 27 02:40:52 PST 2024 ON: 19.99 +20.0 19.98 -12.8 30.7 06 0A 0002 1324 Alarm State:  0
Tue Feb 27 02:39:51 PST 2024 ON: 19.99 +20.0 19.99 -12.8 30.6 06 0A 000C 1324 Alarm State:  0
Tue Feb 27 02:38:49 PST 2024 ON: 20.00 +20.0 19.99 -12.8 30.7 06 09 0017 1224 Alarm State:  0
Tue Feb 27 02:37:48 PST 2024 ON: 20.00 +20.0 20.00 -12.8 30.7 06 09 0021 1305 Alarm State:  0
Tue Feb 27 02:36:46 PST 2024 ON: 20.00 +20.0 20.01 -12.8 30.7 06 09 0026 141A Alarm State:  0
Tue Feb 27 02:35:45 PST 2024 ON: 19.99 +20.0 19.99 -12.8 30.6 06 0A 0030 131F Alarm State:  0
Tue Feb 27 02:34:43 PST 2024 ON: 20.00 +20.0 19.99 -12.8 30.6 06 0A 0008 1302 Alarm State:  0
Tue Feb 27 02:33:42 PST 2024 ON: 20.00 +20.0 20.00 -12.8 30.6 06 0A 0031 1416 Alarm State:  0
Tue Feb 27 02:32:40 PST 2024 ON: 19.99 +20.0 20.00 -12.8 30.6 06 09 0009 131C Alarm State:  0
Tue Feb 27 02:31:39 PST 2024 ON: 19.99 +20.0 20.00 -12.8 30.7 06 09 0013 130D Alarm State:  0
Tue Feb 27 02:30:37 PST 2024 ON: 20.00 +20.0 19.99 -12.8 30.7 06 0A 001E 1400 Alarm State:  0
Tue Feb 27 02:29:36 PST 2024 ON: 19.99 +20.0 20.00 -12.8 30.6 06 0A 0027 1414 Alarm State:  0
Tue Feb 27 02:28:34 PST 2024 ON: 19.98 +20.0 20.00 -12.8 30.5 01 09 0031 131B Alarm State:  0
Tue Feb 27 02:27:33 PST 2024 ON: 19.99 +20.0 20.01 -12.8 30.5 06 08 0009 120F Alarm State:  0
Tue Feb 27 02:26:31 PST 2024 ON: 20.00 +20.0 20.00 -12.9 30.5 06 09 0013 120F Alarm State:  0
Tue Feb 27 02:25:30 PST 2024 ON: 20.00 +20.0 20.01 -12.8 30.5 06 09 0012 1322 Alarm State:  0
Tue Feb 27 02:24:28 PST 2024 ON: 19.99 +20.0 20.01 -12.8 30.5 06 09 0010 132A Alarm State:  0
Tue Feb 27 02:23:27 PST 2024 ON: 20.00 +20.0 19.99 -12.8 30.5 06 09 001B 1220 Alarm State:  0
Tue Feb 27 02:22:25 PST 2024 ON: 19.99 +20.0 20.00 -12.8 30.5 06 09 0025 131E Alarm State:  0
Tue Feb 27 02:21:24 PST 2024 ON: 19.99 +20.0 19.99 -12.8 30.5 03 0A 0030 1326 Alarm State:  0
Tue Feb 27 02:20:22 PST 2024 ON: 19.99 +20.0 20.00 -12.8 30.5 06 09 0007 1324 Alarm State:  0
Tue Feb 27 02:19:21 PST 2024 ON: 20.00 +20.0 19.99 -12.8 30.6 06 09 0012 1228 Alarm State:  0
Tue Feb 27 02:18:19 PST 2024 ON: 20.00 +20.0 19.99 -12.8 30.6 06 0A 001C 1304 Alarm State:  0
Tue Feb 27 02:17:18 PST 2024 ON: 19.99 +20.0 19.98 -12.8 30.7 06 0A 0027 130E Alarm State:  0
Tue Feb 27 02:16:16 PST 2024 ON: 19.99 +20.0 20.00 -12.8 30.6 06 09 0029 1330 Alarm State:  0
Tue Feb 27 02:15:15 PST 2024 ON: 19.99 +20.0 19.99 -12.8 30.6 06 0A 0001 1411 Alarm State:  0
Tue Feb 27 02:14:13 PST 2024 ON: 19.98 +20.0 19.99 -12.8 30.5 06 0A 000B 1306 Alarm State:  0
Tue Feb 27 02:13:12 PST 2024 ON: 19.99 +20.0 19.98 -12.8 30.6 06 09 0016 112C Alarm State:  0
Tue Feb 27 02:12:10 PST 2024 ON: 20.00 +20.0 20.00 -12.8 30.6 06 09 0020 1303 Alarm State:  0
Tue Feb 27 02:11:09 PST 2024 ON: 20.00 +20.0 20.00 -12.8 30.6 06 0A 002B 1400 Alarm State:  0
Tue Feb 27 02:10:07 PST 2024 ON: 19.99 +20.0 19.98 -12.8 30.6 06 0A 0002 1305 Alarm State:  0
Tue Feb 27 02:09:06 PST 2024 ON: 20.00 +20.0 19.98 -12.8 30.7 06 0A 000D 120B Alarm State:  0
Tue Feb 27 02:08:04 PST 2024 ON: 19.99 +20.0 19.97 -12.8 30.6 06 0A 0017 121C Alarm State:  0
Tue Feb 27 02:07:03 PST 2024 ON: 20.00 +20.0 20.01 -12.8 30.6 06 09 0012 1325 Alarm State:  0
Tue Feb 27 02:06:01 PST 2024 ON: 19.99 +20.0 19.99 -12.8 30.6 06 0A 001C 1405 Alarm State:  0
Tue Feb 27 02:05:00 PST 2024 ON: 20.00 +20.0 20.01 -12.8 30.6 06 09 0027 130F Alarm State:  0
Tue Feb 27 02:03:58 PST 2024 ON: 20.00 +20.0 19.99 -12.8 30.6 06 09 0031 1212 Alarm State:  0
Tue Feb 27 02:02:57 PST 2024 ON: 20.00 +20.0 19.99 -12.8 30.6 06 0A 0009 1305 Alarm State:  0
Tue Feb 27 02:01:55 PST 2024 ON: 20.00 +20.0 20.02 -12.7 30.7 06 08 0013 1310 Alarm State:  0
Tue Feb 27 02:00:54 PST 2024 ON: 19.99 +20.0 19.98 -12.8 30.6 06 0A 001E 132B Alarm State:  0
Tue Feb 27 01:59:52 PST 2024 ON: 19.99 +20.0 19.99 -12.8 30.7 06 0A 0028 1316 Alarm State:  0
Tue Feb 27 01:58:51 PST 2024 ON: 19.99 +20.0 19.98 -12.8 30.5 06 0A 0000 1220 Alarm State:  0
Tue Feb 27 01:57:49 PST 2024 ON: 20.00 +20.0 20.00 -12.8 30.5 06 09 000A 1310 Alarm State:  0
Tue Feb 27 01:56:48 PST 2024 ON: 19.99 +20.0 20.01 -12.8 30.7 06 09 0015 131E Alarm State:  0
Tue Feb 27 01:55:46 PST 2024 ON: 19.99 +20.0 20.00 -12.8 30.6 06 09 001F 130D Alarm State:  0
Tue Feb 27 01:54:45 PST 2024 ON: 20.00 +20.0 20.00 -12.8 30.6 06 09 002A 1228 Alarm State:  0
Tue Feb 27 01:53:43 PST 2024 ON: 20.00 +20.0 19.98 -12.8 30.6 06 0A 0001 1301 Alarm State:  0
Tue Feb 27 01:52:42 PST 2024 ON: 20.00 +20.0 20.01 -12.8 30.5 06 08 000C 121D Alarm State:  0
Tue Feb 27 01:51:40 PST 2024 ON: 20.00 +20.0 20.01 -12.8 30.6 06 09 0016 1325 Alarm State:  0
Tue Feb 27 01:50:39 PST 2024 ON: 19.99 +20.0 20.00 -12.8 30.7 06 09 0021 131A Alarm State:  0
Tue Feb 27 01:49:37 PST 2024 ON: 19.99 +20.0 19.98 -12.8 30.7 06 0A 002B 120F Alarm State:  0
Tue Feb 27 01:48:36 PST 2024 ON: 20.00 +20.0 20.00 -12.8 30.7 06 09 002E 1225 Alarm State:  0
Tue Feb 27 01:47:34 PST 2024 ON: 20.00 +20.0 19.99 -12.8 30.6 06 0A 0005 1327 Alarm State:  0
Tue Feb 27 01:46:33 PST 2024 ON: 20.00 +20.0 20.00 -12.8 30.7 06 09 0010 132D Alarm State:  0
Tue Feb 27 01:45:31 PST 2024 ON: 20.00 +20.0 20.01 -12.8 30.6 06 09 0014 1417 Alarm State:  0
Tue Feb 27 01:44:30 PST 2024 ON: 19.99 +20.0 19.99 -12.8 30.6 06 0A 001F 140F Alarm State:  0
Tue Feb 27 01:43:28 PST 2024 ON: 20.00 +20.0 19.99 -12.8 30.6 06 0A 0029 132C Alarm State:  0
Tue Feb 27 01:42:27 PST 2024 ON: 20.00 +20.0 20.01 -12.8 30.6 06 09 0001 1312 Alarm State:  0
Tue Feb 27 01:41:25 PST 2024 ON: 19.99 +20.0 19.99 -12.8 30.6 06 09 000B 120D Alarm State:  0
Tue Feb 27 01:40:23 PST 2024 ON: 20.00 +20.0 20.00 -12.8 30.6 06 09 0016 1221 Alarm State:  0
Tue Feb 27 01:39:22 PST 2024 ON: 20.00 +20.0 20.00 -12.8 30.7 06 09 0020 1313 Alarm State:  0
Tue Feb 27 01:38:20 PST 2024 ON: 19.99 +20.0 19.99 -12.9 30.6 06 0A 0017 1408 Alarm State:  0
Tue Feb 27 01:37:19 PST 2024 ON: 20.00 +20.0 20.01 -12.8 30.6 06 09 0021 1413 Alarm State:  0
Tue Feb 27 01:36:17 PST 2024 ON: 19.99 +20.0 20.00 -12.8 30.6 06 09 002C 1319 Alarm State:  0
Tue Feb 27 01:35:16 PST 2024 ON: 19.99 +20.0 19.97 -12.8 30.6 06 0A 0003 120E Alarm State:  0
Tue Feb 27 01:34:14 PST 2024 ON: 20.00 +20.0 19.99 -12.8 30.6 06 09 000E 1228 Alarm State:  0
Tue Feb 27 01:33:13 PST 2024 ON: 20.00 +20.0 20.02 -12.8 30.8 06 09 0025 1402 Alarm State:  0
Tue Feb 27 01:32:11 PST 2024 ON: 20.00 +20.0 19.99 -12.8 30.6 06 0A 002C 142F Alarm State:  0
Tue Feb 27 01:31:10 PST 2024 ON: 19.99 +20.0 20.00 -12.8 30.6 06 0A 0003 141A Alarm State:  0
Tue Feb 27 01:30:08 PST 2024 ON: 19.99 +20.0 19.99 -12.8 30.7 06 0A 000E 1331 Alarm State:  0
Tue Feb 27 01:29:07 PST 2024 ON: 19.99 +20.0 19.97 -12.8 30.6 06 0A 0018 1228 Alarm State:  0
Tue Feb 27 01:28:05 PST 2024 ON: 19.99 +20.0 19.99 -12.8 30.6 06 0A 0023 1309 Alarm State:  0
Tue Feb 27 01:27:04 PST 2024 ON: 20.00 +20.0 20.00 -12.8 30.6 06 09 002D 130B Alarm State:  0
Tue Feb 27 01:26:02 PST 2024 ON: 20.00 +20.0 20.00 -12.8 30.6 06 0A 0001 1414 Alarm State:  0
Tue Feb 27 01:25:01 PST 2024 ON: 19.99 +20.0 19.99 -12.8 30.7 06 0A 000B 130F Alarm State:  0
Tue Feb 27 01:23:59 PST 2024 ON: 20.00 +20.0 20.01 -12.8 30.7 06 09 000C 1411 Alarm State:  0
Tue Feb 27 01:22:58 PST 2024 ON: 19.99 +20.0 19.98 -12.8 30.6 06 0A 0016 1324 Alarm State:  0
Tue Feb 27 01:21:56 PST 2024 ON: 19.99 +20.0 19.98 -12.8 30.7 06 0A 0021 1230 Alarm State:  0
Tue Feb 27 01:20:55 PST 2024 ON: 19.99 +20.0 19.99 -12.7 30.7 06 09 002C 122D Alarm State:  0
Tue Feb 27 01:19:53 PST 2024 ON: 20.00 +20.0 20.00 -12.8 30.6 06 09 002C 1315 Alarm State:  0
Tue Feb 27 01:18:52 PST 2024 ON: 20.00 +20.0 20.00 -12.8 30.6 06 0A 0004 141E Alarm State:  0
Tue Feb 27 01:17:50 PST 2024 ON: 19.99 +20.0 19.99 -12.8 30.7 06 0A 000E 1405 Alarm State:  0
Tue Feb 27 01:16:49 PST 2024 ON: 19.99 +20.0 19.98 -12.7 30.6 06 0A 0019 122B Alarm State:  0
Tue Feb 27 01:15:47 PST 2024 ON: 20.00 +20.0 20.00 -12.8 30.6 06 09 0023 1313 Alarm State:  0
Tue Feb 27 01:14:46 PST 2024 ON: 19.99 +20.0 19.99 -12.8 30.7 06 0A 002E 130D Alarm State:  0
Tue Feb 27 01:13:34 PST 2024 ON: 19.99 +20.0 19.99 -12.8 30.7 06 0A 0009 1312 Alarm State:  0
Tue Feb 27 01:12:33 PST 2024 ON: 19.99 +20.0 20.00 -12.8 30.6 06 09 0013 1311 Alarm State:  0
Tue Feb 27 01:11:31 PST 2024 ON: 20.00 +20.0 20.01 -12.8 30.6 03 09 002D 140C Alarm State:  0
Tue Feb 27 01:10:30 PST 2024 ON: 20.00 +20.0 20.01 -12.8 30.6 06 09 0004 1409 Alarm State:  0
Tue Feb 27 01:09:28 PST 2024 ON: 19.99 +20.0 20.00 -12.8 30.7 06 09 000F 131D Alarm State:  0
Tue Feb 27 01:08:27 PST 2024 ON: 19.99 +20.0 20.00 -12.8 30.7 06 09 0019 131A Alarm State:  0
Tue Feb 27 01:07:25 PST 2024 ON: 20.00 +20.0 20.00 -12.8 30.7 06 09 0024 132A Alarm State:  0
Tue Feb 27 01:06:24 PST 2024 ON: 19.99 +20.0 20.00 -12.8 30.7 06 0A 002E 1400 Alarm State:  0
Tue Feb 27 01:05:22 PST 2024 ON: 20.00 +20.0 20.01 -12.7 30.6 06 09 0006 1320 Alarm State:  0
Tue Feb 27 01:04:21 PST 2024 ON: 20.00 +20.0 20.00 -12.8 30.7 06 0A 0008 1416 Alarm State:  0
Tue Feb 27 01:03:19 PST 2024 ON: 20.00 +20.0 20.02 -12.8 30.7 06 09 0013 140B Alarm State:  0
Tue Feb 27 01:02:18 PST 2024 ON: 19.99 +20.0 20.00 -12.8 30.7 06 09 001D 1322 Alarm State:  0
Tue Feb 27 01:01:16 PST 2024 ON: 20.00 +20.0 20.01 -12.7 30.6 08 09 0028 131F Alarm State:  0
Tue Feb 27 01:00:15 PST 2024 ON: 20.00 +20.0 20.00 -12.8 30.7 06 09 0032 1218 Alarm State:  0
Tue Feb 27 00:59:13 PST 2024 ON: 20.00 +20.0 20.01 -12.8 30.7 06 09 000A 1315 Alarm State:  0
Tue Feb 27 00:58:12 PST 2024 ON: 20.00 +20.0 19.99 -12.8 30.7 06 0A 0015 1316 Alarm State:  0
Tue Feb 27 00:57:00 PST 2024 ON: 19.99 +20.0 20.00 -12.8 30.7 06 0A 0029 1410 Alarm State:  0
Tue Feb 27 00:55:59 PST 2024 ON: 19.99 +20.0 20.00 -12.8 30.7 01 09 0000 1321 Alarm State:  0
Tue Feb 27 00:54:57 PST 2024 ON: 20.00 +20.0 20.01 -12.8 30.6 06 09 000B 140E Alarm State:  0
Tue Feb 27 00:53:56 PST 2024 ON: 19.99 +20.0 20.00 -12.8 30.7 06 09 0015 1329 Alarm State:  0
Tue Feb 27 00:52:54 PST 2024 ON: 20.00 +20.0 20.01 -12.8 30.7 06 09 0020 1404 Alarm State:  0
Tue Feb 27 00:51:53 PST 2024 ON: 20.00 +20.0 20.01 -12.7 30.7 01 09 002A 1419 Alarm State:  0
Tue Feb 27 00:50:51 PST 2024 ON: 19.99 +20.0 20.00 -12.8 30.7 06 09 0002 130F Alarm State:  0
Tue Feb 27 00:49:50 PST 2024 ON: 20.00 +20.0 20.00 -12.8 30.6 06 09 000C 1307 Alarm State:  0
Tue Feb 27 00:48:48 PST 2024 ON: 19.99 +20.0 19.99 -12.8 30.6 06 09 0017 122D Alarm State:  0
Tue Feb 27 00:47:47 PST 2024 ON: 20.00 +20.0 20.01 -12.8 30.7 06 09 0021 1309 Alarm State:  0
Tue Feb 27 00:46:45 PST 2024 ON: 19.99 +20.0 19.96 -12.8 30.6 01 0B 002C 1211 Alarm State:  0
Tue Feb 27 00:45:44 PST 2024 ON: 20.00 +20.0 20.02 -12.8 30.6 06 08 0024 1321 Alarm State:  0
Tue Feb 27 00:44:42 PST 2024 ON: 19.99 +20.0 20.00 -12.8 30.7 06 0A 002F 1400 Alarm State:  0
Tue Feb 27 00:43:41 PST 2024 ON: 19.99 +20.0 20.00 -12.8 30.7 06 09 0006 131B Alarm State:  0
Tue Feb 27 00:42:39 PST 2024 ON: 20.00 +20.0 19.99 -12.8 30.7 06 0A 0011 1304 Alarm State:  0
Tue Feb 27 00:41:38 PST 2024 ON: 19.99 +20.0 19.97 -12.8 30.6 06 0A 001C 1216 Alarm State:  0
Tue Feb 27 00:40:36 PST 2024 ON: 20.01 +20.0 19.99 -12.8 30.7 06 09 011E 121B Alarm State:  0
Tue Feb 27 00:39:35 PST 2024 ON: 20.00 +20.0 20.00 -12.8 30.7 06 0A 0016 1407 Alarm State:  0
Tue Feb 27 00:38:33 PST 2024 ON: 19.99 +20.0 19.99 -12.8 30.6 06 0A 0020 1418 Alarm State:  0
Tue Feb 27 00:37:32 PST 2024 ON: 19.99 +20.0 19.99 -12.8 30.6 06 0A 002B 1320 Alarm State:  0
Tue Feb 27 00:36:30 PST 2024 ON: 19.99 +20.0 20.01 -12.8 30.6 06 09 0002 1330 Alarm State:  0
Tue Feb 27 00:35:29 PST 2024 ON: 19.99 +20.0 19.99 -12.8 30.7 03 0A 000D 1322 Alarm State:  0
Tue Feb 27 00:34:27 PST 2024 ON: 20.00 +20.0 20.00 -12.8 30.7 06 09 0017 130E Alarm State:  0
Tue Feb 27 00:33:26 PST 2024 ON: 20.00 +20.0 20.00 -12.8 30.6 06 0A 0018 1411 Alarm State:  0
Tue Feb 27 00:32:24 PST 2024 ON: 19.99 +20.0 20.01 -12.8 30.7 06 09 0022 141A Alarm State:  0
Tue Feb 27 00:31:23 PST 2024 ON: 19.99 +20.0 20.00 -12.8 30.8 06 09 002D 130E Alarm State:  0
Tue Feb 27 00:30:21 PST 2024 ON: 20.00 +20.0 20.00 -12.8 30.7 06 09 0004 1308 Alarm State:  0
Tue Feb 27 00:29:20 PST 2024 ON: 19.99 +20.0 20.01 -12.8 30.6 06 09 000F 132A Alarm State:  0
Tue Feb 27 00:28:18 PST 2024 ON: 19.99 +20.0 19.98 -12.8 30.8 06 0A 0019 1306 Alarm State:  0
Tue Feb 27 00:27:17 PST 2024 ON: 20.00 +20.0 19.99 -12.8 30.8 06 09 0024 1220 Alarm State:  0
Tue Feb 27 00:26:15 PST 2024 ON: 19.99 +20.0 20.00 -12.8 30.7 06 09 002E 1320 Alarm State:  0
Tue Feb 27 00:25:14 PST 2024 ON: 20.00 +20.0 20.00 -12.8 30.7 06 09 0006 130B Alarm State:  0
Tue Feb 27 00:24:12 PST 2024 ON: 20.00 +20.0 20.00 -12.8 30.7 06 09 0010 1320 Alarm State:  0
Tue Feb 27 00:23:11 PST 2024 ON: 19.99 +20.0 20.00 -12.8 30.6 06 09 001B 1329 Alarm State:  0
Tue Feb 27 00:22:09 PST 2024 ON: 19.99 +20.0 20.01 -12.9 30.6 06 09 0025 1322 Alarm State:  0
Tue Feb 27 00:21:08 PST 2024 ON: 20.00 +20.0 20.02 -12.8 30.7 06 08 0030 1324 Alarm State:  0
Tue Feb 27 00:20:06 PST 2024 ON: 20.00 +20.0 19.98 -12.8 30.7 06 0A 0007 1313 Alarm State:  0
Tue Feb 27 00:19:05 PST 2024 ON: 19.99 +20.0 19.97 -12.8 30.7 06 0B 0012 130D Alarm State:  0
Tue Feb 27 00:18:03 PST 2024 ON: 20.00 +20.0 19.99 -12.8 30.7 06 09 001C 1224 Alarm State:  0
Tue Feb 27 00:17:02 PST 2024 ON: 20.00 +20.0 19.99 -12.8 30.7 06 0A 0027 1301 Alarm State:  0
Tue Feb 27 00:16:00 PST 2024 ON: 20.00 +20.0 20.01 -12.8 30.7 06 09 0031 1320 Alarm State:  0
Tue Feb 27 00:14:59 PST 2024 ON: 19.99 +20.0 19.99 -12.8 30.7 06 0A 0009 1328 Alarm State:  0
Tue Feb 27 00:13:57 PST 2024 ON: 19.99 +20.0 19.99 -12.8 30.7 06 0A 0013 130D Alarm State:  0
Tue Feb 27 00:12:56 PST 2024 ON: 20.00 +20.0 20.00 -12.8 30.6 06 09 001E 1226 Alarm State:  0
Tue Feb 27 00:11:54 PST 2024 ON: 20.00 +20.0 20.00 -12.8 30.7 06 09 0022 130C Alarm State:  0
Tue Feb 27 00:10:53 PST 2024 ON: 19.99 +20.0 19.98 -12.8 30.7 00 0A 002D 130C Alarm State:  0
Tue Feb 27 00:09:51 PST 2024 ON: 19.99 +20.0 20.01 -12.8 30.8 06 09 0004 1323 Alarm State:  0
Tue Feb 27 00:08:49 PST 2024 ON: 20.00 +20.0 20.00 -12.8 30.7 06 09 000F 1313 Alarm State:  0
Tue Feb 27 00:07:48 PST 2024 ON: 20.00 +20.0 20.00 -12.8 30.8 06 09 0019 1313 Alarm State:  0
Tue Feb 27 00:06:46 PST 2024 ON: 19.99 +20.0 20.01 -12.8 30.7 06 09 0020 140E Alarm State:  0
Tue Feb 27 00:05:45 PST 2024 ON: 19.99 +20.0 19.99 -12.8 30.7 06 0A 002A 132E Alarm State:  0
Tue Feb 27 00:04:43 PST 2024 ON: 19.99 +20.0 19.99 -12.8 30.7 06 0A 0002 1326 Alarm State:  0
Tue Feb 27 00:03:42 PST 2024 ON: 19.99 +20.0 19.99 -12.8 30.8 06 0A 000C 1315 Alarm State:  0
Tue Feb 27 00:02:40 PST 2024 ON: 20.00 +20.0 19.99 -12.8 30.8 06 0A 0017 1315 Alarm State:  0
Tue Feb 27 00:01:39 PST 2024 ON: 19.99 +20.0 19.99 -12.8 30.7 06 09 0021 1228 Alarm State:  0
Tue Feb 27 00:00:37 PST 2024 ON: 20.00 +20.0 20.01 -12.8 30.7 06 09 002C 1313 Alarm State:  0
Mon Feb 26 23:59:36 PST 2024 ON: 19.99 +20.0 19.98 -12.8 30.7 06 0B 0003 1419 Alarm State:  0
Mon Feb 26 23:58:34 PST 2024 ON: 20.00 +20.0 20.00 -12.8 30.7 06 09 000E 1317 Alarm State:  0
Mon Feb 26 23:57:33 PST 2024 ON: 19.99 +20.0 19.98 -12.8 30.8 06 0A 0018 1228 Alarm State:  0
Mon Feb 26 23:56:31 PST 2024 ON: 20.00 +20.0 19.98 -12.8 30.7 06 0A 0023 1221 Alarm State:  0
Mon Feb 26 23:55:30 PST 2024 ON: 20.00 +20.0 20.01 -12.8 30.6 06 09 0021 1406 Alarm State:  0
Mon Feb 26 23:54:28 PST 2024 ON: 20.00 +20.0 20.01 -12.8 30.6 06 09 002C 1405 Alarm State:  0
Mon Feb 26 23:53:27 PST 2024 ON: 20.00 +20.0 20.00 -12.8 30.6 06 09 0003 1328 Alarm State:  0
Mon Feb 26 23:52:25 PST 2024 ON: 19.99 +20.0 19.97 -12.8 30.7 06 0A 000E 1224 Alarm State:  0
Mon Feb 26 23:51:24 PST 2024 ON: 20.00 +20.0 19.99 -12.8 30.7 06 09 0018 1213 Alarm State:  0
Mon Feb 26 23:50:22 PST 2024 ON: 20.00 +20.0 20.00 -12.8 30.7 06 09 0023 1320 Alarm State:  0
Mon Feb 26 23:49:21 PST 2024 ON: 19.99 +20.0 20.01 -12.8 30.7 06 09 002B 141C Alarm State:  0
Mon Feb 26 23:48:19 PST 2024 ON: 19.99 +20.0 20.00 -12.8 30.7 06 09 0003 132F Alarm State:  0
Mon Feb 26 23:47:18 PST 2024 ON: 19.99 +20.0 19.98 -12.8 30.7 06 0A 000D 1228 Alarm State:  0
Mon Feb 26 23:46:16 PST 2024 ON: 19.99 +20.0 19.98 -12.8 30.7 06 0A 0018 1221 Alarm State:  0
Mon Feb 26 23:45:15 PST 2024 ON: 20.00 +20.0 19.97 -12.8 30.7 06 0A 0022 1214 Alarm State:  0
Mon Feb 26 23:44:13 PST 2024 ON: 20.00 +20.0 20.01 -12.8 30.7 06 09 0015 1319 Alarm State:  0
Mon Feb 26 23:43:12 PST 2024 ON: 19.99 +20.0 19.99 -12.8 30.7 06 0A 001F 1327 Alarm State:  0
Mon Feb 26 23:42:10 PST 2024 ON: 20.00 +20.0 20.01 -12.8 30.7 08 09 002A 131B Alarm State:  0
Mon Feb 26 23:40:59 PST 2024 ON: 19.99 +20.0 19.99 -12.8 30.7 06 0A 000B 1301 Alarm State:  0
Mon Feb 26 23:39:57 PST 2024 ON: 20.00 +20.0 19.98 -12.8 30.7 06 0A 0016 1217 Alarm State:  0
Mon Feb 26 23:38:56 PST 2024 ON: 20.00 +20.0 20.00 -12.8 30.7 06 09 0020 1312 Alarm State:  0
Mon Feb 26 23:37:54 PST 2024 ON: 19.99 +20.0 19.97 -12.8 30.7 06 0B 002B 1325 Alarm State:  0
Mon Feb 26 23:36:53 PST 2024 ON: 19.99 +20.0 20.00 -12.8 30.7 06 09 0002 131E Alarm State:  0
Mon Feb 26 23:35:51 PST 2024 ON: 20.00 +20.0 20.00 -12.8 30.8 06 09 000D 1309 Alarm State:  0
Mon Feb 26 23:34:50 PST 2024 ON: 19.99 +20.0 19.99 -12.8 30.7 06 0A 0017 131C Alarm State:  0
Mon Feb 26 23:33:48 PST 2024 ON: 19.99 +20.0 19.99 -12.8 30.8 06 0A 0022 1310 Alarm State:  0
Mon Feb 26 23:32:47 PST 2024 ON: 20.00 +20.0 19.99 -12.8 30.7 06 0A 002C 1311 Alarm State:  0
Mon Feb 26 23:31:45 PST 2024 ON: 19.99 +20.0 19.98 -12.8 30.7 06 0A 0004 131C Alarm State:  0
Mon Feb 26 23:30:44 PST 2024 ON: 19.99 +20.0 19.99 -12.8 30.6 06 0A 000E 130B Alarm State:  0
Mon Feb 26 23:29:42 PST 2024 ON: 20.00 +20.0 20.00 -12.8 30.7 06 09 0019 1225 Alarm State:  0
Mon Feb 26 23:28:41 PST 2024 ON: 20.00 +20.0 20.00 -12.8 30.6 06 09 0023 1223 Alarm State:  0
Mon Feb 26 23:27:39 PST 2024 ON: 20.00 +20.0 20.00 -12.8 30.7 06 0A 001E 140B Alarm State:  0
Mon Feb 26 23:26:38 PST 2024 ON: 19.99 +20.0 20.01 -12.8 30.7 06 09 0028 140C Alarm State:  0
Mon Feb 26 23:25:36 PST 2024 ON: 19.99 +20.0 20.00 -12.8 30.7 06 09 0000 1322 Alarm State:  0
Mon Feb 26 23:24:35 PST 2024 ON: 20.00 +20.0 19.98 -12.8 30.7 06 0A 000A 1223 Alarm State:  0
Mon Feb 26 23:23:33 PST 2024 ON: 20.00 +20.0 19.99 -12.8 30.7 06 09 0015 121B Alarm State:  0
Mon Feb 26 23:22:32 PST 2024 ON: 20.00 +20.0 20.00 -12.8 30.7 06 09 001D 1325 Alarm State:  0
Mon Feb 26 23:21:30 PST 2024 ON: 20.00 +20.0 20.00 -12.8 30.7 06 0A 0024 140C Alarm State:  0
Mon Feb 26 23:20:29 PST 2024 ON: 19.99 +20.0 19.99 -12.8 30.8 06 0A 002E 1311 Alarm State:  0
Mon Feb 26 23:19:27 PST 2024 ON: 20.00 +20.0 19.99 -12.8 30.8 06 09 0006 120D Alarm State:  0
Mon Feb 26 23:18:26 PST 2024 ON: 20.00 +20.0 19.98 -12.8 30.7 06 0A 000C 1227 Alarm State:  0
Mon Feb 26 23:17:24 PST 2024 ON: 20.01 +20.0 20.01 -12.8 30.7 06 09 0017 131C Alarm State:  0
Mon Feb 26 23:16:23 PST 2024 ON: 19.99 +20.0 20.00 -12.7 30.7 06 0A 0007 141A Alarm State:  0
Mon Feb 26 23:15:21 PST 2024 ON: 19.99 +20.0 19.98 -12.8 30.6 06 0B 0012 141A Alarm State:  0
Mon Feb 26 23:14:10 PST 2024 ON: 19.99 +20.0 20.00 -12.8 30.7 01 09 0026 1307 Alarm State:  0
Mon Feb 26 23:13:08 PST 2024 ON: 20.00 +20.0 19.99 -12.8 30.7 06 09 0031 1217 Alarm State:  0
Mon Feb 26 23:12:07 PST 2024 ON: 20.00 +20.0 19.99 -12.8 30.7 01 09 0006 122C Alarm State:  0
Mon Feb 26 23:11:05 PST 2024 ON: 20.01 +20.0 20.01 -12.8 30.8 0B 09 000B 140C Alarm State:  0
Mon Feb 26 23:10:04 PST 2024 ON: 20.00 +20.0 19.99 -12.8 30.8 06 0A 000B 1419 Alarm State:  0
Mon Feb 26 23:09:02 PST 2024 ON: 20.00 +20.0 20.00 -12.8 30.7 06 0A 0016 1409 Alarm State:  0
Mon Feb 26 23:08:01 PST 2024 ON: 19.99 +20.0 20.00 -12.8 30.7 06 0A 0020 1412 Alarm State:  0
Mon Feb 26 23:06:59 PST 2024 ON: 19.99 +20.0 20.00 -12.8 30.7 06 09 002B 1306 Alarm State:  0
Mon Feb 26 23:05:58 PST 2024 ON: 19.99 +20.0 19.97 -12.8 30.8 06 0A 0002 112D Alarm State:  0
Mon Feb 26 23:04:56 PST 2024 ON: 20.00 +20.0 19.99 -12.8 30.7 03 09 000D 120C Alarm State:  0
Mon Feb 26 23:03:55 PST 2024 ON: 20.00 +20.0 19.99 -12.8 30.8 06 0A 002A 1320 Alarm State:  0
Mon Feb 26 23:02:53 PST 2024 ON: 20.00 +20.0 20.01 -12.8 30.8 06 0A 0018 150C Alarm State:  0
Mon Feb 26 23:01:52 PST 2024 ON: 19.99 +20.0 20.01 -12.8 30.8 06 0A 0020 1505 Alarm State:  0
Mon Feb 26 23:00:50 PST 2024 ON: 19.99 +20.0 19.99 -12.8 30.7 06 0A 002B 1331 Alarm State:  0
Mon Feb 26 22:59:49 PST 2024 ON: 19.99 +20.0 19.99 -12.8 30.7 06 09 0002 1226 Alarm State:  0
Mon Feb 26 22:58:47 PST 2024 ON: 20.00 +20.0 19.99 -12.8 30.7 06 0A 000D 1315 Alarm State:  0
Mon Feb 26 22:57:46 PST 2024 ON: 19.99 +20.0 20.00 -12.8 30.7 06 0A 000F 140B Alarm State:  0
Mon Feb 26 22:56:44 PST 2024 ON: 20.00 +20.0 19.98 -12.8 30.7 06 0A 001A 131D Alarm State:  0
Mon Feb 26 22:55:43 PST 2024 ON: 19.99 +20.0 20.00 -12.8 30.8 06 09 0024 1318 Alarm State:  0
Mon Feb 26 22:54:41 PST 2024 ON: 20.00 +20.0 19.98 -12.8 30.7 06 0A 002F 1216 Alarm State:  0
Mon Feb 26 22:53:40 PST 2024 ON: 20.00 +20.0 19.98 -12.8 30.8 06 0A 0006 1308 Alarm State:  0
Mon Feb 26 22:52:38 PST 2024 ON: 20.00 +20.0 20.01 -12.8 30.7 06 09 0007 131C Alarm State:  0
Mon Feb 26 22:51:37 PST 2024 ON: 20.00 +20.0 20.00 -12.7 30.8 06 09 0012 1326 Alarm State:  0
Mon Feb 26 22:50:35 PST 2024 ON: 19.99 +20.0 20.01 -12.8 30.7 06 09 001C 1407 Alarm State:  0
Mon Feb 26 22:49:34 PST 2024 ON: 20.00 +20.0 20.00 -12.8 30.7 06 09 0027 131F Alarm State:  0
Mon Feb 26 22:48:32 PST 2024 ON: 19.99 +20.0 19.99 -12.8 30.7 06 0A 0031 1318 Alarm State:  0
Mon Feb 26 22:47:31 PST 2024 ON: 20.00 +20.0 20.00 -12.8 30.7 06 09 0009 130A Alarm State:  0
Mon Feb 26 22:46:29 PST 2024 ON: 19.99 +20.0 19.98 -12.8 30.7 06 0A 0013 1221 Alarm State:  0
Mon Feb 26 22:45:28 PST 2024 ON: 20.00 +20.0 19.99 -12.7 30.8 06 0A 0016 1320 Alarm State:  0
Mon Feb 26 22:44:26 PST 2024 ON: 19.99 +20.0 20.01 -12.8 30.7 06 09 0020 1416 Alarm State:  0
Mon Feb 26 22:43:25 PST 2024 ON: 19.99 +20.0 19.99 -12.8 30.8 06 0A 002B 1318 Alarm State:  0
Mon Feb 26 22:42:23 PST 2024 ON: 19.98 +20.0 20.01 -12.7 30.8 06 09 0002 1305 Alarm State:  0
Mon Feb 26 22:41:22 PST 2024 ON: 20.00 +20.0 19.99 -12.8 30.7 06 09 000D 120F Alarm State:  0
Mon Feb 26 22:40:20 PST 2024 ON: 20.00 +20.0 19.98 -12.8 30.8 06 0A 0017 1311 Alarm State:  0
Mon Feb 26 22:39:19 PST 2024 ON: 19.99 +20.0 19.99 -12.8 30.7 06 0A 0022 1312 Alarm State:  0
Mon Feb 26 22:38:17 PST 2024 ON: 19.99 +20.0 19.99 -12.8 30.8 06 09 002C 1227 Alarm State:  0
Mon Feb 26 22:37:15 PST 2024 ON: 19.99 +20.0 19.99 -12.8 30.7 06 09 0004 1228 Alarm State:  0
Mon Feb 26 22:36:14 PST 2024 ON: 20.00 +20.0 19.99 -12.8 30.8 06 0A 000E 1312 Alarm State:  0
Mon Feb 26 22:35:12 PST 2024 ON: 19.99 +20.0 20.00 -12.8 30.8 06 0A 000D 140D Alarm State:  0
Mon Feb 26 22:34:11 PST 2024 ON: 19.99 +20.0 20.00 -12.8 30.8 06 09 0017 132A Alarm State:  0
Mon Feb 26 22:33:09 PST 2024 ON: 19.99 +20.0 19.98 -12.7 30.8 06 0A 0022 1224 Alarm State:  0
Mon Feb 26 22:32:08 PST 2024 ON: 20.00 +20.0 19.98 -12.8 30.8 06 0A 002C 121B Alarm State:  0
Mon Feb 26 22:31:06 PST 2024 ON: 20.00 +20.0 20.00 -12.8 30.7 06 09 0004 1316 Alarm State:  0
Mon Feb 26 22:30:05 PST 2024 ON: 19.99 +20.0 20.01 -12.8 30.9 06 09 0000 1414 Alarm State:  0
Mon Feb 26 22:29:03 PST 2024 ON: 19.99 +20.0 19.99 -12.8 30.8 06 0A 000B 1312 Alarm State:  0
Mon Feb 26 22:28:02 PST 2024 ON: 20.00 +20.0 20.00 -12.7 30.8 06 0A 0015 1406 Alarm State:  0
Mon Feb 26 22:27:00 PST 2024 ON: 20.00 +20.0 19.99 -12.8 30.8 06 0A 0020 130C Alarm State:  0
Mon Feb 26 22:25:59 PST 2024 ON: 19.99 +20.0 19.98 -12.7 30.8 06 0A 002A 1207 Alarm State:  0
Mon Feb 26 22:24:57 PST 2024 ON: 20.00 +20.0 20.00 -12.8 30.7 06 09 0029 1314 Alarm State:  0
Mon Feb 26 22:23:56 PST 2024 ON: 19.99 +20.0 20.01 -12.8 30.7 06 09 0000 140E Alarm State:  0
Mon Feb 26 22:22:54 PST 2024 ON: 19.99 +20.0 20.01 -12.7 30.7 06 09 000B 1419 Alarm State:  0
Mon Feb 26 22:21:53 PST 2024 ON: 19.99 +20.0 19.99 -12.8 30.7 06 0A 0015 1324 Alarm State:  0
Mon Feb 26 22:20:51 PST 2024 ON: 19.99 +20.0 20.00 -12.7 30.7 06 09 0020 1327 Alarm State:  0
Mon Feb 26 22:19:50 PST 2024 ON: 19.99 +20.0 20.00 -12.7 30.7 06 09 002A 1316 Alarm State:  0
Mon Feb 26 22:18:48 PST 2024 ON: 19.99 +20.0 19.98 -12.8 30.8 06 0A 0002 1221 Alarm State:  0
Mon Feb 26 22:17:47 PST 2024 ON: 20.00 +20.0 20.00 -12.7 30.8 06 09 000C 121E Alarm State:  0
Mon Feb 26 22:16:45 PST 2024 ON: 20.00 +20.0 19.99 -12.8 30.8 01 0A 0017 1325 Alarm State:  0
Mon Feb 26 22:15:44 PST 2024 ON: 20.00 +20.0 19.99 -12.8 30.8 06 0A 0021 1322 Alarm State:  0
Mon Feb 26 22:14:42 PST 2024 ON: 19.99 +20.0 20.01 -12.8 30.8 06 09 002C 1401 Alarm State:  0
Mon Feb 26 22:13:41 PST 2024 ON: 20.00 +20.0 19.99 -12.8 30.7 06 0A 0003 1320 Alarm State:  0
Mon Feb 26 22:12:39 PST 2024 ON: 20.00 +20.0 19.99 -12.7 30.7 06 09 000E 1228 Alarm State:  0
Mon Feb 26 22:11:38 PST 2024 ON: 20.00 +20.0 19.99 -12.8 30.8 06 0A 0018 1314 Alarm State:  0
Mon Feb 26 22:10:36 PST 2024 ON: 19.99 +20.0 20.01 -12.7 30.7 06 09 0023 1320 Alarm State:  0
Mon Feb 26 22:09:35 PST 2024 ON: 20.00 +20.0 20.01 -12.8 30.8 06 09 002D 1327 Alarm State:  0
Mon Feb 26 22:08:33 PST 2024 ON: 20.00 +20.0 19.98 -12.8 30.8 06 0A 0005 1316 Alarm State:  0
Mon Feb 26 22:07:32 PST 2024 ON: 20.00 +20.0 19.99 -12.8 30.7 06 0A 000F 1313 Alarm State:  0
Mon Feb 26 22:06:30 PST 2024 ON: 20.00 +20.0 20.01 -12.8 30.7 06 09 001A 1410 Alarm State:  0
Mon Feb 26 22:05:29 PST 2024 ON: 19.99 +20.0 20.01 -12.8 30.9 06 09 0024 1327 Alarm State:  0
Mon Feb 26 22:04:27 PST 2024 ON: 19.99 +20.0 20.00 -12.8 30.8 06 09 002F 1324 Alarm State:  0
Mon Feb 26 22:03:26 PST 2024 ON: 20.00 +20.0 19.99 -12.8 30.7 06 09 0006 122B Alarm State:  0
Mon Feb 26 22:02:24 PST 2024 ON: 20.00 +20.0 20.00 -12.8 30.8 06 09 0011 130A Alarm State:  0
Mon Feb 26 22:01:23 PST 2024 ON: 20.00 +20.0 20.01 -12.8 30.8 06 09 001B 1323 Alarm State:  0
Mon Feb 26 22:00:21 PST 2024 ON: 20.00 +20.0 20.01 -12.8 30.7 06 09 0026 140A Alarm State:  0
Mon Feb 26 21:59:20 PST 2024 ON: 19.99 +20.0 20.00 -12.8 30.8 06 09 0030 131D Alarm State:  0
Mon Feb 26 21:58:18 PST 2024 ON: 20.00 +20.0 20.01 -12.7 30.9 06 09 0008 1323 Alarm State:  0
Mon Feb 26 21:57:17 PST 2024 ON: 19.99 +20.0 20.00 -12.8 30.8 06 09 0012 1318 Alarm State:  0
Mon Feb 26 21:56:15 PST 2024 ON: 20.00 +20.0 20.00 -12.8 30.8 06 09 001D 1318 Alarm State:  0
Mon Feb 26 21:55:14 PST 2024 ON: 19.99 +20.0 19.97 -12.8 30.8 06 0A 0027 122D Alarm State:  0
Mon Feb 26 21:54:12 PST 2024 ON: 20.00 +20.0 20.00 -12.8 30.8 06 09 0032 130B Alarm State:  0
Mon Feb 26 21:53:11 PST 2024 ON: 19.99 +20.0 19.98 -12.8 30.8 06 0A 0009 130C Alarm State:  0
Mon Feb 26 21:52:09 PST 2024 ON: 20.00 +20.0 20.00 -12.8 30.8 06 09 0014 1312 Alarm State:  0
Mon Feb 26 21:51:08 PST 2024 ON: 19.99 +20.0 20.00 -12.8 30.8 06 09 001E 1330 Alarm State:  0
Mon Feb 26 21:50:06 PST 2024 ON: 19.99 +20.0 20.01 -12.8 30.8 06 09 0029 132D Alarm State:  0
Mon Feb 26 21:49:05 PST 2024 ON: 19.99 +20.0 19.99 -12.8 30.7 06 0A 0000 1324 Alarm State:  0
Mon Feb 26 21:48:03 PST 2024 ON: 19.99 +20.0 19.99 -12.8 30.7 06 0A 000B 130C Alarm State:  0
Mon Feb 26 21:47:02 PST 2024 ON: 19.99 +20.0 19.98 -12.8 30.7 06 0A 0015 1217 Alarm State:  0
Mon Feb 26 21:46:00 PST 2024 ON: 19.99 +20.0 20.01 -12.8 30.8 06 09 0020 130E Alarm State:  0
Mon Feb 26 21:44:59 PST 2024 ON: 20.00 +20.0 20.01 -12.8 30.8 06 09 002B 131F Alarm State:  0
Mon Feb 26 21:43:57 PST 2024 ON: 19.99 +20.0 19.99 -12.8 30.8 06 0A 0002 1403 Alarm State:  0
Mon Feb 26 21:42:55 PST 2024 ON: 19.99 +20.0 20.00 -12.8 30.8 06 09 000D 132D Alarm State:  0
Mon Feb 26 21:41:54 PST 2024 ON: 20.00 +20.0 20.00 -12.8 30.8 06 09 0017 1328 Alarm State:  0
Mon Feb 26 21:40:52 PST 2024 ON: 20.00 +20.0 19.99 -12.7 30.9 06 0A 0022 1325 Alarm State:  0
Mon Feb 26 21:39:51 PST 2024 ON: 20.00 +20.0 19.99 -12.8 30.8 06 0A 002C 1308 Alarm State:  0
Mon Feb 26 21:38:49 PST 2024 ON: 19.99 +20.0 20.00 -12.8 30.9 06 09 0004 131B Alarm State:  0
Mon Feb 26 21:37:48 PST 2024 ON: 19.99 +20.0 19.99 -12.7 30.8 06 0A 000E 1324 Alarm State:  0
Mon Feb 26 21:36:46 PST 2024 ON: 19.99 +20.0 20.00 -12.8 30.8 06 09 0019 1315 Alarm State:  0
Mon Feb 26 21:35:45 PST 2024 ON: 20.00 +20.0 20.00 -12.8 30.8 06 09 0023 122A Alarm State:  0
Mon Feb 26 21:34:43 PST 2024 ON: 20.00 +20.0 20.01 -12.8 30.8 06 09 002E 1311 Alarm State:  0
Mon Feb 26 21:33:42 PST 2024 ON: 20.00 +20.0 20.00 -12.7 30.8 06 09 0005 1326 Alarm State:  0
Mon Feb 26 21:32:40 PST 2024 ON: 19.99 +20.0 19.98 -12.7 30.9 06 0A 0010 131F Alarm State:  0
Mon Feb 26 21:31:29 PST 2024 ON: 20.00 +20.0 19.99 -12.8 30.8 06 0A 0024 1322 Alarm State:  0
Mon Feb 26 21:30:28 PST 2024 ON: 19.99 +20.0 19.98 -12.8 30.8 06 0A 002F 1315 Alarm State:  0
Mon Feb 26 21:29:26 PST 2024 ON: 20.00 +20.0 19.99 -12.8 30.9 06 0A 0006 1321 Alarm State:  0
Mon Feb 26 21:28:24 PST 2024 ON: 19.99 +20.0 19.98 -12.8 30.9 06 0A 0011 1322 Alarm State:  0
Mon Feb 26 21:27:23 PST 2024 ON: 19.98 +20.0 19.99 -12.7 30.9 06 0A 001B 132C Alarm State:  0
Mon Feb 26 21:26:21 PST 2024 ON: 20.00 +20.0 20.01 -12.7 30.9 06 09 0022 1330 Alarm State:  0
Mon Feb 26 21:25:20 PST 2024 ON: 19.99 +20.0 19.99 -12.7 30.8 06 0A 002C 1327 Alarm State:  0
Mon Feb 26 21:24:18 PST 2024 ON: 19.99 +20.0 20.02 -12.8 30.8 06 09 0004 1416 Alarm State:  0
Mon Feb 26 21:23:17 PST 2024 ON: 19.99 +20.0 20.00 -12.7 30.9 06 09 000E 1321 Alarm State:  0
Mon Feb 26 21:22:15 PST 2024 ON: 19.99 +20.0 19.97 -12.8 30.8 06 0A 0019 1215 Alarm State:  0
Mon Feb 26 21:21:14 PST 2024 ON: 20.00 +20.0 19.99 -12.8 30.7 06 0A 0023 1317 Alarm State:  0
Mon Feb 26 21:20:12 PST 2024 ON: 19.99 +20.0 20.00 -12.8 30.9 06 0A 002E 1406 Alarm State:  0
Mon Feb 26 21:19:11 PST 2024 ON: 19.99 +20.0 19.99 -12.7 30.9 06 0A 0005 132B Alarm State:  0
Mon Feb 26 21:18:09 PST 2024 ON: 20.00 +20.0 19.99 -12.7 30.9 06 0A 0010 131D Alarm State:  0
Mon Feb 26 21:17:08 PST 2024 ON: 20.00 +20.0 20.00 -12.7 30.9 06 09 001A 130D Alarm State:  0
Mon Feb 26 21:16:06 PST 2024 ON: 19.99 +20.0 20.02 -12.8 30.9 06 09 0025 1412 Alarm State:  0
Mon Feb 26 21:15:05 PST 2024 ON: 20.00 +20.0 19.99 -12.7 30.9 06 0A 002F 130B Alarm State:  0
Mon Feb 26 21:14:03 PST 2024 ON: 19.99 +20.0 19.98 -12.7 30.8 06 0A 0007 1313 Alarm State:  0
Mon Feb 26 21:13:02 PST 2024 ON: 20.00 +20.0 19.99 -12.8 30.7 06 09 0011 122C Alarm State:  0
Mon Feb 26 21:12:00 PST 2024 ON: 20.00 +20.0 20.01 -12.7 30.8 06 09 001C 1329 Alarm State:  0
Mon Feb 26 21:10:59 PST 2024 ON: 20.00 +20.0 19.99 -12.7 30.9 06 0A 0026 131E Alarm State:  0
Mon Feb 26 21:09:57 PST 2024 ON: 19.99 +20.0 19.99 -12.7 30.9 06 0A 0031 1310 Alarm State:  0
Mon Feb 26 21:08:56 PST 2024 ON: 19.99 +20.0 19.99 -12.7 30.8 06 0A 0008 1324 Alarm State:  0
Mon Feb 26 21:07:54 PST 2024 ON: 19.99 +20.0 20.00 -12.7 30.8 06 09 0013 1325 Alarm State:  0
Mon Feb 26 21:06:53 PST 2024 ON: 19.99 +20.0 19.99 -12.7 30.8 06 0A 001D 1320 Alarm State:  0
Mon Feb 26 21:05:51 PST 2024 ON: 20.00 +20.0 20.01 -12.7 30.8 06 09 0028 1304 Alarm State:  0
Mon Feb 26 21:04:50 PST 2024 ON: 19.99 +20.0 20.00 -12.7 30.7 06 09 0032 1313 Alarm State:  0
Mon Feb 26 21:03:48 PST 2024 ON: 20.00 +20.0 20.00 -12.7 30.9 00 09 000A 1313 Alarm State:  0
Mon Feb 26 21:02:47 PST 2024 ON: 20.00 +20.0 20.01 -12.7 30.8 06 09 0014 1326 Alarm State:  0
Mon Feb 26 21:01:45 PST 2024 ON: 19.99 +20.0 20.00 -12.7 30.8 06 09 001F 132F Alarm State:  0
Mon Feb 26 21:00:44 PST 2024 ON: 19.99 +20.0 19.98 -12.7 30.8 06 0A 0029 1317 Alarm State:  0
Mon Feb 26 20:59:42 PST 2024 ON: 20.00 +20.0 19.98 -12.7 30.8 01 0A 0001 121D Alarm State:  0
Mon Feb 26 20:58:41 PST 2024 ON: 19.99 +20.0 19.98 -12.7 30.8 06 0A 000B 122F Alarm State:  0
Mon Feb 26 20:57:39 PST 2024 ON: 20.00 +20.0 20.00 -12.7 30.9 06 09 0016 131A Alarm State:  0
Mon Feb 26 20:56:38 PST 2024 ON: 20.00 +20.0 20.00 -12.7 30.9 06 0A 001A 1400 Alarm State:  0
Mon Feb 26 20:55:36 PST 2024 ON: 20.00 +20.0 19.98 -12.7 30.9 06 0A 0025 131C Alarm State:  0
Mon Feb 26 20:54:35 PST 2024 ON: 19.99 +20.0 19.98 -12.7 30.8 06 0A 002F 131D Alarm State:  0
Mon Feb 26 20:53:33 PST 2024 ON: 19.99 +20.0 19.98 -12.7 30.7 06 0A 0007 1305 Alarm State:  0
Mon Feb 26 20:52:32 PST 2024 ON: 19.99 +20.0 19.99 -12.8 30.8 06 09 0011 122B Alarm State:  0
Mon Feb 26 20:51:30 PST 2024 ON: 20.00 +20.0 20.00 -12.8 30.8 06 09 001C 1308 Alarm State:  0
Mon Feb 26 20:50:29 PST 2024 ON: 20.00 +20.0 20.00 -12.7 30.9 06 0A 0026 141C Alarm State:  0
Mon Feb 26 20:49:27 PST 2024 ON: 19.99 +20.0 20.01 -12.8 30.8 06 09 0031 131E Alarm State:  0
Mon Feb 26 20:48:26 PST 2024 ON: 19.99 +20.0 19.99 -12.8 30.9 06 0A 0008 1320 Alarm State:  0
Mon Feb 26 20:47:24 PST 2024 ON: 19.99 +20.0 19.99 -12.8 30.8 06 09 0013 1222 Alarm State:  0
Mon Feb 26 20:46:23 PST 2024 ON: 19.99 +20.0 19.99 -12.8 30.8 06 09 001D 120B Alarm State:  0
Mon Feb 26 20:45:21 PST 2024 ON: 20.00 +20.0 20.01 -12.7 30.8 06 09 0028 1304 Alarm State:  0
Mon Feb 26 20:44:20 PST 2024 ON: 19.99 +20.0 19.99 -12.7 30.8 06 0A 0032 1327 Alarm State:  0
Mon Feb 26 20:43:18 PST 2024 ON: 19.99 +20.0 20.00 -12.7 30.8 06 09 000A 130D Alarm State:  0
Mon Feb 26 20:42:17 PST 2024 ON: 19.99 +20.0 19.99 -12.7 30.7 06 09 0014 1231 Alarm State:  0
Mon Feb 26 20:41:15 PST 2024 ON: 19.99 +20.0 19.98 -12.8 30.8 06 0A 001F 1227 Alarm State:  0
Mon Feb 26 20:40:14 PST 2024 ON: 19.99 +20.0 19.99 -12.8 30.7 06 09 0029 1220 Alarm State:  0
Mon Feb 26 20:39:12 PST 2024 ON: 20.00 +20.0 19.99 -12.8 30.8 06 0A 0001 1300 Alarm State:  0
Mon Feb 26 20:38:11 PST 2024 ON: 19.99 +20.0 19.99 -12.7 30.8 01 0A 0030 1323 Alarm State:  0
Mon Feb 26 20:37:09 PST 2024 ON: 19.99 +20.0 20.00 -12.8 30.9 06 09 0008 1317 Alarm State:  0
Mon Feb 26 20:36:07 PST 2024 ON: 20.00 +20.0 20.02 -12.7 30.8 06 09 0012 1405 Alarm State:  0
Mon Feb 26 20:35:06 PST 2024 ON: 19.99 +20.0 19.99 -12.8 30.8 06 0A 001D 1303 Alarm State:  0
Mon Feb 26 20:34:04 PST 2024 ON: 20.00 +20.0 20.00 -12.7 30.8 06 09 0027 1303 Alarm State:  0
Mon Feb 26 20:33:03 PST 2024 ON: 19.99 +20.0 19.99 -12.8 30.8 06 0A 0032 1320 Alarm State:  0
Mon Feb 26 20:32:01 PST 2024 ON: 19.99 +20.0 20.00 -12.8 30.7 06 09 0009 1324 Alarm State:  0
Mon Feb 26 20:31:00 PST 2024 ON: 19.99 +20.0 19.99 -12.7 30.9 06 09 0014 1218 Alarm State:  0
Mon Feb 26 20:29:58 PST 2024 ON: 20.00 +20.0 19.99 -12.7 30.9 06 09 001E 1217 Alarm State:  0
Mon Feb 26 20:28:57 PST 2024 ON: 19.99 +20.0 19.98 -12.8 30.9 06 0A 0029 1226 Alarm State:  0
Mon Feb 26 20:27:55 PST 2024 ON: 20.00 +20.0 20.00 -12.7 30.9 06 09 0000 131E Alarm State:  0
Mon Feb 26 20:26:54 PST 2024 ON: 19.99 +20.0 19.98 -12.7 30.8 06 0B 000B 1403 Alarm State:  0
Mon Feb 26 20:25:52 PST 2024 ON: 19.99 +20.0 19.99 -12.8 30.8 06 09 0016 1231 Alarm State:  0
Mon Feb 26 20:24:51 PST 2024 ON: 19.99 +20.0 19.98 -12.8 30.8 06 0A 0020 1226 Alarm State:  0
Mon Feb 26 20:23:49 PST 2024 ON: 20.00 +20.0 20.00 -12.7 30.8 06 09 002B 1225 Alarm State:  0
Mon Feb 26 20:22:48 PST 2024 ON: 19.99 +20.0 20.01 -12.8 30.8 06 09 0002 1329 Alarm State:  0
Mon Feb 26 20:21:46 PST 2024 ON: 19.99 +20.0 19.98 -12.7 30.8 06 0A 000D 132F Alarm State:  0
Mon Feb 26 20:20:35 PST 2024 ON: 20.00 +20.0 20.01 -12.7 30.8 06 09 0021 1322 Alarm State:  0
Mon Feb 26 20:19:34 PST 2024 ON: 20.00 +20.0 20.01 -12.7 30.8 06 09 002B 1324 Alarm State:  0
Mon Feb 26 20:18:32 PST 2024 ON: 19.99 +20.0 19.98 -12.7 30.8 06 0A 0003 1305 Alarm State:  0
Mon Feb 26 20:17:31 PST 2024 ON: 19.99 +20.0 19.98 -12.7 30.9 06 0A 000D 121C Alarm State:  0
Mon Feb 26 20:16:29 PST 2024 ON: 20.00 +20.0 19.98 -12.7 30.8 06 0A 0014 130D Alarm State:  0
Mon Feb 26 20:15:28 PST 2024 ON: 19.99 +20.0 19.99 -12.8 30.8 06 0A 001E 1323 Alarm State:  0
Mon Feb 26 20:14:26 PST 2024 ON: 20.00 +20.0 20.02 -12.8 30.8 00 08 0025 131B Alarm State:  0
Mon Feb 26 20:13:24 PST 2024 ON: 19.99 +20.0 20.01 -12.8 30.8 06 09 0023 142F Alarm State:  0
Mon Feb 26 20:12:23 PST 2024 ON: 19.99 +20.0 20.00 -12.8 30.8 06 09 002E 1329 Alarm State:  0
Mon Feb 26 20:11:21 PST 2024 ON: 19.99 +20.0 20.00 -12.8 30.8 06 09 0005 121E Alarm State:  0
Mon Feb 26 20:10:20 PST 2024 ON: 20.00 +20.0 19.98 -12.7 30.8 06 0A 0010 120A Alarm State:  0
Mon Feb 26 20:09:18 PST 2024 ON: 19.99 +20.0 19.99 -12.7 30.8 06 0A 001A 131C Alarm State:  0
Mon Feb 26 20:08:17 PST 2024 ON: 19.99 +20.0 19.99 -12.8 30.8 06 0A 0025 1324 Alarm State:  0
Mon Feb 26 20:07:15 PST 2024 ON: 19.99 +20.0 19.98 -12.7 30.8 06 0A 002F 121D Alarm State:  0
Mon Feb 26 20:06:14 PST 2024 ON: 19.99 +20.0 19.98 -12.8 30.8 06 0A 0007 1224 Alarm State:  0
Mon Feb 26 20:05:12 PST 2024 ON: 20.00 +20.0 19.99 -12.8 30.7 03 0A 0011 1308 Alarm State:  0
Mon Feb 26 20:04:11 PST 2024 ON: 19.99 +20.0 19.99 -12.8 30.8 06 09 001C 122E Alarm State:  0
Mon Feb 26 20:03:09 PST 2024 ON: 20.00 +20.0 20.01 -12.8 30.8 06 09 0024 1409 Alarm State:  0
Mon Feb 26 20:02:08 PST 2024 ON: 19.99 +20.0 19.99 -12.7 30.8 01 0A 002F 1315 Alarm State:  0
Mon Feb 26 20:01:06 PST 2024 ON: 19.99 +20.0 19.99 -12.8 30.8 06 09 0007 122D Alarm State:  0
Mon Feb 26 20:00:05 PST 2024 ON: 20.00 +20.0 20.00 -12.8 30.8 06 09 0011 1311 Alarm State:  0
Mon Feb 26 19:59:03 PST 2024 ON: 19.99 +20.0 19.98 -12.8 30.8 06 0A 001B 1222 Alarm State:  0
Mon Feb 26 19:58:02 PST 2024 ON: 19.99 +20.0 19.98 -12.7 30.7 06 0A 0026 1227 Alarm State:  0
Mon Feb 26 19:57:00 PST 2024 ON: 20.00 +20.0 19.98 -12.8 30.7 03 0A 0031 1219 Alarm State:  0
Mon Feb 26 19:55:59 PST 2024 ON: 20.00 +20.0 20.01 -12.8 30.8 06 09 0000 1315 Alarm State:  0
Mon Feb 26 19:54:57 PST 2024 ON: 20.00 +20.0 19.99 -12.8 30.9 06 0A 000B 1313 Alarm State:  0
Mon Feb 26 19:53:56 PST 2024 ON: 19.99 +20.0 20.00 -12.8 30.8 06 09 0015 1315 Alarm State:  0
Mon Feb 26 19:52:54 PST 2024 ON: 20.00 +20.0 20.00 -12.7 30.8 06 09 0020 1306 Alarm State:  0
Mon Feb 26 19:51:53 PST 2024 ON: 20.00 +20.0 20.00 -12.8 30.7 06 09 002A 1227 Alarm State:  0
Mon Feb 26 19:50:51 PST 2024 ON: 20.00 +20.0 20.01 -12.8 30.8 08 09 002F 1401 Alarm State:  0
Mon Feb 26 19:49:50 PST 2024 ON: 19.99 +20.0 19.99 -12.7 30.8 06 0A 0006 130E Alarm State:  0
Mon Feb 26 19:48:48 PST 2024 ON: 20.00 +20.0 20.01 -12.7 30.9 06 08 0011 1228 Alarm State:  0
Mon Feb 26 19:47:47 PST 2024 ON: 20.00 +20.0 20.00 -12.8 30.8 06 09 001B 1312 Alarm State:  0
Mon Feb 26 19:46:45 PST 2024 ON: 20.00 +20.0 20.00 -12.7 30.8 06 09 0026 131C Alarm State:  0
Mon Feb 26 19:45:44 PST 2024 ON: 19.99 +20.0 20.00 -12.7 30.8 06 09 0030 1309 Alarm State:  0
Mon Feb 26 19:44:42 PST 2024 ON: 19.99 +20.0 19.99 -12.7 30.8 06 0A 0008 1319 Alarm State:  0
Mon Feb 26 19:43:41 PST 2024 ON: 20.00 +20.0 20.00 -12.7 30.8 06 0A 0012 1405 Alarm State:  0
Mon Feb 26 19:42:39 PST 2024 ON: 19.99 +20.0 19.99 -12.7 30.7 06 0A 0019 1405 Alarm State:  0
Mon Feb 26 19:41:38 PST 2024 ON: 19.99 +20.0 20.00 -12.7 30.9 06 09 0023 1319 Alarm State:  0
Mon Feb 26 19:40:36 PST 2024 ON: 19.99 +20.0 20.00 -12.7 30.8 06 09 002E 122C Alarm State:  0
Mon Feb 26 19:39:35 PST 2024 ON: 19.99 +20.0 19.97 -12.7 30.9 06 0A 0005 1121 Alarm State:  0
Mon Feb 26 19:38:33 PST 2024 ON: 19.99 +20.0 20.02 -12.7 31.0 06 08 0010 1206 Alarm State:  0
Mon Feb 26 19:37:32 PST 2024 ON: 20.00 +20.0 19.99 -12.7 30.8 06 0A 001A 1310 Alarm State:  0
Mon Feb 26 19:36:30 PST 2024 ON: 19.99 +20.0 20.01 -12.7 30.9 06 09 0025 1423 Alarm State:  0
Mon Feb 26 19:35:19 PST 2024 ON: 19.99 +20.0 20.01 -12.7 30.8 06 09 0006 140C Alarm State:  0
Mon Feb 26 19:34:17 PST 2024 ON: 19.99 +20.0 19.98 -12.7 30.8 06 0A 0011 1300 Alarm State:  0
Mon Feb 26 19:33:16 PST 2024 ON: 19.99 +20.0 19.97 -12.7 30.8 06 0A 001B 1127 Alarm State:  0
Mon Feb 26 19:32:14 PST 2024 ON: 20.00 +20.0 19.99 -12.7 30.8 06 09 0026 1213 Alarm State:  0
Mon Feb 26 19:31:13 PST 2024 ON: 20.00 +20.0 20.00 -12.7 30.9 06 09 0030 1325 Alarm State:  0
Mon Feb 26 19:30:11 PST 2024 ON: 19.99 +20.0 19.99 -12.7 30.9 06 0A 0008 1330 Alarm State:  0
Mon Feb 26 19:29:10 PST 2024 ON: 19.99 +20.0 19.98 -12.7 30.9 06 0A 0012 1225 Alarm State:  0
Mon Feb 26 19:28:08 PST 2024 ON: 20.00 +20.0 19.97 -12.7 30.9 06 0A 001D 120D Alarm State:  0
Mon Feb 26 19:27:07 PST 2024 ON: 20.00 +20.0 19.99 -12.7 30.9 06 0A 0027 1309 Alarm State:  0
Mon Feb 26 19:26:05 PST 2024 ON: 20.00 +20.0 19.99 -12.7 30.9 06 0A 0032 140C Alarm State:  0
Mon Feb 26 19:25:04 PST 2024 ON: 19.99 +20.0 20.00 -12.7 30.9 06 09 0009 132D Alarm State:  0
Mon Feb 26 19:24:02 PST 2024 ON: 19.99 +20.0 19.99 -12.7 30.9 06 09 0014 1221 Alarm State:  0
Mon Feb 26 19:23:01 PST 2024 ON: 20.00 +20.0 20.00 -12.7 30.9 06 09 001E 1207 Alarm State:  0
Mon Feb 26 19:21:59 PST 2024 ON: 20.00 +20.0 19.99 -12.7 30.8 06 0A 0025 131A Alarm State:  0
Mon Feb 26 19:20:58 PST 2024 ON: 20.00 +20.0 20.01 -12.7 30.9 01 09 002F 1420 Alarm State:  0
Mon Feb 26 19:19:56 PST 2024 ON: 19.99 +20.0 19.99 -12.7 30.9 06 0A 0007 131E Alarm State:  0
Mon Feb 26 19:18:55 PST 2024 ON: 19.99 +20.0 19.98 -12.7 30.9 06 0A 0011 1213 Alarm State:  0
Mon Feb 26 19:17:53 PST 2024 ON: 19.99 +20.0 20.00 -12.7 30.9 06 09 001A 1310 Alarm State:  0
Mon Feb 26 19:16:52 PST 2024 ON: 20.00 +20.0 19.99 -12.7 30.9 06 0A 0024 1324 Alarm State:  0
Mon Feb 26 19:15:50 PST 2024 ON: 20.00 +20.0 20.02 -12.7 30.9 06 08 002F 1318 Alarm State:  0
Mon Feb 26 19:14:49 PST 2024 ON: 19.99 +20.0 20.01 -12.7 30.8 06 09 0000 1414 Alarm State:  0
Mon Feb 26 19:13:47 PST 2024 ON: 19.99 +20.0 19.99 -12.7 30.9 06 0A 000B 1316 Alarm State:  0
Mon Feb 26 19:12:46 PST 2024 ON: 20.00 +20.0 19.98 -12.7 30.8 06 0A 0015 1217 Alarm State:  0
Mon Feb 26 19:11:44 PST 2024 ON: 19.99 +20.0 19.99 -12.7 30.9 06 09 0020 1222 Alarm State:  0
Mon Feb 26 19:10:43 PST 2024 ON: 20.01 +20.0 20.00 -12.7 30.9 06 09 0026 1304 Alarm State:  0
Mon Feb 26 19:09:41 PST 2024 ON: 19.99 +20.0 20.00 -12.7 30.9 06 0A 0005 1405 Alarm State:  0
Mon Feb 26 19:08:40 PST 2024 ON: 19.98 +20.0 20.01 -12.7 30.9 06 09 000F 1412 Alarm State:  0
Mon Feb 26 19:07:38 PST 2024 ON: 19.98 +20.0 19.98 -12.7 30.8 01 0A 001A 1306 Alarm State:  0
Mon Feb 26 19:06:37 PST 2024 ON: 19.98 +20.0 19.97 -12.7 30.9 06 0A 0024 112D Alarm State:  0
Mon Feb 26 19:05:35 PST 2024 ON: 20.00 +20.0 19.98 -12.7 30.8 06 09 002F 111F Alarm State:  0
Mon Feb 26 19:04:34 PST 2024 ON: 20.01 +20.0 20.00 -12.7 30.9 06 09 002B 130A Alarm State:  0
Mon Feb 26 19:03:32 PST 2024 ON: 20.00 +20.0 20.00 -12.7 30.9 06 0A 001D 141B Alarm State:  0
Mon Feb 26 19:02:31 PST 2024 ON: 19.99 +20.0 19.99 -12.7 30.9 06 0A 0027 1402 Alarm State:  0
Mon Feb 26 19:01:29 PST 2024 ON: 19.99 +20.0 19.98 -12.8 30.9 06 0A 0032 1300 Alarm State:  0
Mon Feb 26 19:00:27 PST 2024 ON: 20.00 +20.0 19.98 -12.7 30.9 06 0A 0009 1228 Alarm State:  0
Mon Feb 26 18:59:26 PST 2024 ON: 19.99 +20.0 20.00 -12.7 30.9 06 09 0014 1317 Alarm State:  0
Mon Feb 26 18:58:24 PST 2024 ON: 19.99 +20.0 19.98 -12.7 30.9 06 0A 001E 1312 Alarm State:  0
Mon Feb 26 18:57:23 PST 2024 ON: 19.99 +20.0 19.99 -12.7 30.8 06 09 0029 122E Alarm State:  0
Mon Feb 26 18:56:21 PST 2024 ON: 20.00 +20.0 20.00 -12.7 30.9 06 09 0000 130A Alarm State:  0
Mon Feb 26 18:55:20 PST 2024 ON: 19.99 +20.0 19.98 -12.7 30.9 06 0A 000B 130A Alarm State:  0
Mon Feb 26 18:54:18 PST 2024 ON: 20.00 +20.0 20.00 -12.7 30.9 06 09 000F 131D Alarm State:  0
Mon Feb 26 18:53:17 PST 2024 ON: 19.99 +20.0 19.99 -12.7 30.9 06 0A 0018 1323 Alarm State:  0
Mon Feb 26 18:52:15 PST 2024 ON: 20.00 +20.0 20.02 -12.7 30.9 06 09 0014 1413 Alarm State:  0
Mon Feb 26 18:51:14 PST 2024 ON: 19.99 +20.0 19.99 -12.7 30.9 06 0A 001F 132F Alarm State:  0
Mon Feb 26 18:50:12 PST 2024 ON: 19.99 +20.0 19.98 -12.7 30.9 06 0A 0029 122A Alarm State:  0
Mon Feb 26 18:49:11 PST 2024 ON: 20.00 +20.0 20.01 -12.7 30.9 06 08 0001 121E Alarm State:  0
Mon Feb 26 18:48:09 PST 2024 ON: 20.00 +20.0 20.01 -12.7 30.8 06 09 000B 1315 Alarm State:  0
Mon Feb 26 18:47:08 PST 2024 ON: 19.99 +20.0 20.01 -12.7 30.9 06 09 0016 1408 Alarm State:  0
Mon Feb 26 18:46:06 PST 2024 ON: 20.00 +20.0 20.00 -12.7 30.9 06 09 0020 1327 Alarm State:  0
Mon Feb 26 18:45:05 PST 2024 ON: 19.99 +20.0 19.99 -12.7 30.9 06 0A 002B 1304 Alarm State:  0
Mon Feb 26 18:44:03 PST 2024 ON: 19.99 +20.0 19.99 -12.7 30.9 06 09 0002 122A Alarm State:  0
Mon Feb 26 18:43:02 PST 2024 ON: 19.99 +20.0 19.99 -12.7 31.0 06 0A 000D 1315 Alarm State:  0
Mon Feb 26 18:42:00 PST 2024 ON: 20.00 +20.0 20.01 -12.7 30.9 06 09 0017 1311 Alarm State:  0
Mon Feb 26 18:40:59 PST 2024 ON: 20.00 +20.0 20.00 -12.7 30.9 06 09 0022 131F Alarm State:  0
Mon Feb 26 18:39:57 PST 2024 ON: 19.99 +20.0 19.99 -12.7 30.9 06 0A 002C 1327 Alarm State:  0
Mon Feb 26 18:38:56 PST 2024 ON: 19.99 +20.0 19.98 -12.7 30.8 06 0A 0004 121B Alarm State:  0
Mon Feb 26 18:37:54 PST 2024 ON: 20.00 +20.0 19.98 -12.7 30.9 06 0A 000F 1302 Alarm State:  0
Mon Feb 26 18:36:53 PST 2024 ON: 19.99 +20.0 19.99 -12.7 30.9 06 0A 0019 1321 Alarm State:  0
Mon Feb 26 18:35:51 PST 2024 ON: 19.99 +20.0 19.97 -12.7 30.8 06 0A 0024 1215 Alarm State:  0
Mon Feb 26 18:34:50 PST 2024 ON: 20.00 +20.0 20.00 -12.7 30.8 06 09 002E 1222 Alarm State:  0
Mon Feb 26 18:33:48 PST 2024 ON: 20.00 +20.0 20.01 -12.7 30.9 06 09 0004 1303 Alarm State:  0
Mon Feb 26 18:32:47 PST 2024 ON: 20.00 +20.0 20.00 -12.7 30.9 06 0A 000A 1417 Alarm State:  0
Mon Feb 26 18:31:45 PST 2024 ON: 19.99 +20.0 20.02 -12.7 30.8 06 09 0015 1416 Alarm State:  0
Mon Feb 26 18:30:44 PST 2024 ON: 19.98 +20.0 19.98 -12.7 30.9 06 0A 001F 130B Alarm State:  0
Mon Feb 26 18:29:42 PST 2024 ON: 19.98 +20.0 20.00 -12.7 30.9 06 09 002A 122A Alarm State:  0
Mon Feb 26 18:28:41 PST 2024 ON: 20.00 +20.0 20.00 -12.7 30.9 06 09 0001 1219 Alarm State:  0
Mon Feb 26 18:27:39 PST 2024 ON: 20.00 +20.0 20.00 -12.7 30.9 06 09 000C 1223 Alarm State:  0
Mon Feb 26 18:26:38 PST 2024 ON: 20.00 +20.0 19.99 -12.7 30.9 06 0A 0016 1406 Alarm State:  0
Mon Feb 26 18:25:36 PST 2024 ON: 20.00 +20.0 20.01 -12.7 30.9 06 09 000F 1422 Alarm State:  0
Mon Feb 26 18:24:35 PST 2024 ON: 19.99 +20.0 19.99 -12.7 30.9 06 0A 0019 132B Alarm State:  0
Mon Feb 26 18:23:33 PST 2024 ON: 19.98 +20.0 19.98 -12.7 30.9 06 0A 0024 1225 Alarm State:  0
Mon Feb 26 18:22:32 PST 2024 ON: 20.00 +20.0 19.98 -12.7 30.9 06 0A 002E 1205 Alarm State:  0
Mon Feb 26 18:21:30 PST 2024 ON: 20.00 +20.0 20.00 -12.7 30.8 06 09 0006 1310 Alarm State:  0
Mon Feb 26 18:20:29 PST 2024 ON: 19.99 +20.0 20.00 -12.7 31.0 06 09 0010 1323 Alarm State:  0
Mon Feb 26 18:19:27 PST 2024 ON: 20.00 +20.0 20.00 -12.7 30.8 06 0A 0019 1408 Alarm State:  0
Mon Feb 26 18:18:26 PST 2024 ON: 19.99 +20.0 20.01 -12.7 30.9 06 09 0023 141A Alarm State:  0
Mon Feb 26 18:17:24 PST 2024 ON: 19.99 +20.0 19.99 -12.7 30.9 06 0A 002E 132A Alarm State:  0
Mon Feb 26 18:16:23 PST 2024 ON: 19.99 +20.0 19.99 -12.7 31.0 06 09 0005 122C Alarm State:  0
Mon Feb 26 18:15:21 PST 2024 ON: 19.99 +20.0 19.97 -12.7 30.9 06 0A 0010 1211 Alarm State:  0
Mon Feb 26 18:14:20 PST 2024 ON: 20.01 +20.0 19.99 -12.7 30.9 06 0A 0008 131D Alarm State:  0
Mon Feb 26 18:13:18 PST 2024 ON: 19.99 +20.0 20.01 -12.7 30.9 06 09 0028 142C Alarm State:  0
Mon Feb 26 18:12:17 PST 2024 ON: 19.99 +20.0 20.01 -12.7 30.9 06 09 0032 141C Alarm State:  0
Mon Feb 26 18:11:15 PST 2024 ON: 19.99 +20.0 20.00 -12.7 30.9 06 09 000A 131D Alarm State:  0
Mon Feb 26 18:10:14 PST 2024 ON: 19.99 +20.0 19.98 -12.7 30.9 06 0A 0014 121C Alarm State:  0
Mon Feb 26 18:09:12 PST 2024 ON: 20.00 +20.0 19.98 -12.7 30.9 06 0A 001F 130B Alarm State:  0
Mon Feb 26 18:08:11 PST 2024 ON: 20.00 +20.0 20.00 -12.7 30.9 06 09 0029 1311 Alarm State:  0
Mon Feb 26 18:07:09 PST 2024 ON: 20.00 +20.0 19.99 -12.7 30.9 06 09 0001 121D Alarm State:  0
Mon Feb 26 18:06:08 PST 2024 ON: 20.00 +20.0 20.00 -12.7 30.9 06 09 002C 1321 Alarm State:  0
Mon Feb 26 18:05:06 PST 2024 ON: 19.99 +20.0 19.99 -12.7 30.9 06 0A 0004 1314 Alarm State:  0
Mon Feb 26 18:04:04 PST 2024 ON: 20.00 +20.0 19.99 -12.7 31.0 06 0A 000E 1412 Alarm State:  0
Mon Feb 26 18:03:03 PST 2024 ON: 19.99 +20.0 20.00 -12.7 30.9 06 09 0019 132A Alarm State:  0
Mon Feb 26 18:02:01 PST 2024 ON: 19.98 +20.0 20.00 -12.7 31.0 06 09 0023 130B Alarm State:  0
Mon Feb 26 18:01:00 PST 2024 ON: 20.00 +20.0 19.99 -12.7 30.9 06 09 002E 121D Alarm State:  0
Mon Feb 26 17:59:58 PST 2024 ON: 20.00 +20.0 19.99 -12.7 30.9 06 09 0005 1216 Alarm State:  0
Mon Feb 26 17:58:57 PST 2024 ON: 20.00 +20.0 20.01 -12.7 30.9 06 09 0010 131F Alarm State:  0
Mon Feb 26 17:57:55 PST 2024 ON: 20.00 +20.0 20.00 -12.7 30.9 06 09 001A 131F Alarm State:  0
Mon Feb 26 17:56:54 PST 2024 ON: 19.99 +20.0 20.00 -12.7 30.8 06 09 0025 1324 Alarm State:  0
Mon Feb 26 17:55:52 PST 2024 ON: 19.99 +20.0 20.01 -12.7 30.9 06 09 002F 1303 Alarm State:  0
Mon Feb 26 17:54:51 PST 2024 ON: 20.00 +20.0 20.00 -12.7 30.8 06 09 0007 1227 Alarm State:  0
Mon Feb 26 17:53:49 PST 2024 ON: 20.00 +20.0 19.99 -12.7 30.9 06 0A 0011 130F Alarm State:  0
Mon Feb 26 17:52:48 PST 2024 ON: 19.99 +20.0 19.98 -12.7 30.9 06 0A 001C 130F Alarm State:  0
Mon Feb 26 17:51:46 PST 2024 ON: 20.00 +20.0 19.99 -12.7 30.8 06 0A 0026 1401 Alarm State:  0
Mon Feb 26 17:50:45 PST 2024 ON: 19.99 +20.0 20.00 -12.7 30.9 06 09 0031 131C Alarm State:  0
Mon Feb 26 17:49:43 PST 2024 ON: 19.99 +20.0 20.00 -12.7 30.9 06 09 0008 1223 Alarm State:  0
Mon Feb 26 17:48:42 PST 2024 ON: 20.00 +20.0 19.99 -12.7 30.9 06 09 0011 1211 Alarm State:  0
Mon Feb 26 17:47:40 PST 2024 ON: 20.00 +20.0 19.99 -12.7 30.9 06 0A 000D 130B Alarm State:  0
Mon Feb 26 17:46:39 PST 2024 ON: 20.00 +20.0 20.00 -12.7 30.8 06 0A 0018 140C Alarm State:  0
Mon Feb 26 17:45:37 PST 2024 ON: 19.99 +20.0 19.99 -12.7 30.9 06 0A 0022 132D Alarm State:  0
Mon Feb 26 17:44:36 PST 2024 ON: 19.99 +20.0 19.99 -12.7 30.9 06 09 002D 1221 Alarm State:  0
Mon Feb 26 17:43:34 PST 2024 ON: 20.00 +20.0 20.02 -12.7 30.9 06 08 0004 1311 Alarm State:  0
Mon Feb 26 17:42:33 PST 2024 ON: 20.00 +20.0 20.00 -12.7 31.0 06 09 000F 130C Alarm State:  0
Mon Feb 26 17:41:31 PST 2024 ON: 19.99 +20.0 19.98 -12.7 30.9 06 0A 0011 1318 Alarm State:  0
Mon Feb 26 17:40:30 PST 2024 ON: 19.99 +20.0 19.99 -12.7 30.9 06 0A 0014 1325 Alarm State:  0
Mon Feb 26 17:39:28 PST 2024 ON: 19.99 +20.0 19.99 -12.7 30.9 06 0A 001E 1312 Alarm State:  0
Mon Feb 26 17:38:27 PST 2024 ON: 20.00 +20.0 19.98 -12.7 30.8 06 0A 0029 1226 Alarm State:  0
Mon Feb 26 17:37:25 PST 2024 ON: 19.99 +20.0 19.98 -12.7 30.8 06 0A 0000 130C Alarm State:  0
Mon Feb 26 17:36:24 PST 2024 ON: 19.99 +20.0 20.00 -12.7 30.9 06 0A 0020 1403 Alarm State:  0
Mon Feb 26 17:35:22 PST 2024 ON: 19.99 +20.0 20.01 -12.7 30.9 06 09 002A 1404 Alarm State:  0
Mon Feb 26 17:34:21 PST 2024 ON: 19.98 +20.0 19.99 -12.7 30.9 06 09 0002 122A Alarm State:  0
Mon Feb 26 17:33:19 PST 2024 ON: 20.00 +20.0 20.00 -12.7 31.0 06 09 000C 1217 Alarm State:  0
Mon Feb 26 17:32:18 PST 2024 ON: 19.99 +20.0 19.99 -12.7 31.0 06 0A 0017 1312 Alarm State:  0
Mon Feb 26 17:31:16 PST 2024 ON: 20.00 +20.0 20.02 -12.7 31.0 06 09 000B 140C Alarm State:  0
Mon Feb 26 17:30:15 PST 2024 ON: 19.99 +20.0 20.01 -12.7 31.0 00 09 0016 1401 Alarm State:  0
Mon Feb 26 17:29:13 PST 2024 ON: 19.99 +20.0 20.00 -12.7 31.0 06 09 0021 1319 Alarm State:  0
Mon Feb 26 17:28:12 PST 2024 ON: 19.99 +20.0 19.98 -12.7 30.9 06 0A 002B 1309 Alarm State:  0
Mon Feb 26 17:27:10 PST 2024 ON: 19.99 +20.0 19.98 -12.7 31.0 06 09 0003 112F Alarm State:  0
Mon Feb 26 17:26:09 PST 2024 ON: 20.00 +20.0 20.00 -12.7 30.9 06 09 000D 1215 Alarm State:  0
Mon Feb 26 17:25:07 PST 2024 ON: 20.00 +20.0 20.01 -12.7 31.0 06 09 0006 1320 Alarm State:  0
Mon Feb 26 17:24:06 PST 2024 ON: 19.99 +20.0 19.99 -12.7 31.0 06 0A 0010 1414 Alarm State:  0
Mon Feb 26 17:23:04 PST 2024 ON: 19.98 +20.0 19.98 -12.7 31.0 06 0A 001B 1328 Alarm State:  0
Mon Feb 26 17:22:03 PST 2024 ON: 19.99 +20.0 19.98 -12.7 31.0 06 0A 0025 121D Alarm State:  0
Mon Feb 26 17:21:01 PST 2024 ON: 19.99 +20.0 19.99 -12.7 30.9 06 09 0030 1111 Alarm State:  0
Mon Feb 26 17:20:00 PST 2024 ON: 20.00 +20.0 19.99 -12.7 30.9 06 09 0007 1111 Alarm State:  0
Mon Feb 26 17:18:58 PST 2024 ON: 20.00 +20.0 20.00 -12.7 30.9 06 09 0012 121E Alarm State:  0
Mon Feb 26 17:17:57 PST 2024 ON: 20.00 +20.0 20.01 -12.7 31.0 00 09 001A 1409 Alarm State:  0
Mon Feb 26 17:16:55 PST 2024 ON: 19.99 +20.0 19.98 -12.7 30.9 06 0A 0025 132F Alarm State:  0
Mon Feb 26 17:15:54 PST 2024 ON: 19.99 +20.0 19.99 -12.7 30.9 06 0A 002F 1314 Alarm State:  0
Mon Feb 26 17:14:52 PST 2024 ON: 19.99 +20.0 19.99 -12.7 30.9 06 0A 0007 130C Alarm State:  0
Mon Feb 26 17:13:51 PST 2024 ON: 19.99 +20.0 19.98 -12.7 31.0 06 0A 0011 122B Alarm State:  0
Mon Feb 26 17:12:49 PST 2024 ON: 20.01 +20.0 20.00 -12.7 30.9 06 09 0016 1215 Alarm State:  0
Mon Feb 26 17:11:48 PST 2024 ON: 20.00 +20.0 20.00 -12.7 31.0 01 09 0031 131B Alarm State:  0
Mon Feb 26 17:10:46 PST 2024 ON: 19.98 +20.0 19.99 -12.7 30.9 06 0A 0009 1318 Alarm State:  0
Mon Feb 26 17:09:45 PST 2024 ON: 20.00 +20.0 19.99 -12.7 30.9 06 09 0013 1217 Alarm State:  0
Mon Feb 26 17:08:43 PST 2024 ON: 20.00 +20.0 19.98 -12.7 31.0 06 0A 001E 1302 Alarm State:  0
Mon Feb 26 17:07:42 PST 2024 ON: 20.00 +20.0 20.01 -12.7 31.0 03 09 0010 1416 Alarm State:  0
Mon Feb 26 17:06:40 PST 2024 ON: 19.99 +20.0 19.99 -12.7 31.0 06 0A 001B 1316 Alarm State:  0
Mon Feb 26 17:05:39 PST 2024 ON: 19.98 +20.0 19.98 -12.7 30.9 06 0A 0025 120B Alarm State:  0
Mon Feb 26 17:04:37 PST 2024 ON: 20.00 +20.0 19.99 -12.7 30.9 03 09 0030 120E Alarm State:  0
Mon Feb 26 17:03:35 PST 2024 ON: 20.00 +20.0 20.00 -12.7 30.9 06 09 0007 130A Alarm State:  0
Mon Feb 26 17:02:34 PST 2024 ON: 19.99 +20.0 20.00 -12.7 30.9 06 0A 0012 140F Alarm State:  0
Mon Feb 26 17:01:32 PST 2024 ON: 19.99 +20.0 20.00 -12.7 31.0 06 09 001C 1304 Alarm State:  0
Mon Feb 26 17:00:31 PST 2024 ON: 19.99 +20.0 19.98 -12.7 30.9 06 0A 0027 1206 Alarm State:  0
Mon Feb 26 16:59:29 PST 2024 ON: 20.00 +20.0 19.98 -12.7 31.1 06 0A 0031 1205 Alarm State:  0
Mon Feb 26 16:58:28 PST 2024 ON: 20.00 +20.0 20.02 -12.7 31.0 06 08 0005 131A Alarm State:  0
Mon Feb 26 16:57:26 PST 2024 ON: 19.99 +20.0 19.99 -12.7 30.9 06 0A 0028 1410 Alarm State:  0
Mon Feb 26 16:56:25 PST 2024 ON: 19.99 +20.0 20.00 -12.7 31.0 01 09 0000 1323 Alarm State:  0
Mon Feb 26 16:55:23 PST 2024 ON: 19.99 +20.0 20.00 -12.7 31.0 06 09 000A 1306 Alarm State:  0
Mon Feb 26 16:54:22 PST 2024 ON: 19.99 +20.0 19.98 -12.7 30.9 06 0A 0015 121B Alarm State:  0
Mon Feb 26 16:53:20 PST 2024 ON: 20.00 +20.0 19.99 -12.7 30.9 06 0A 001F 1319 Alarm State:  0
Mon Feb 26 16:52:19 PST 2024 ON: 19.99 +20.0 20.00 -12.7 31.0 06 09 002A 1227 Alarm State:  0
Mon Feb 26 16:51:17 PST 2024 ON: 19.99 +20.0 20.00 -12.7 31.0 06 09 0001 130B Alarm State:  0
Mon Feb 26 16:50:16 PST 2024 ON: 20.00 +20.0 19.99 -12.8 30.9 06 0A 000C 1317 Alarm State:  0
Mon Feb 26 16:49:14 PST 2024 ON: 19.99 +20.0 20.01 -12.7 31.0 06 09 0004 140F Alarm State:  0
Mon Feb 26 16:48:13 PST 2024 ON: 19.98 +20.0 20.00 -12.7 30.9 06 09 000F 1303 Alarm State:  0
Mon Feb 26 16:47:11 PST 2024 ON: 19.99 +20.0 19.98 -12.7 31.0 06 09 0019 112A Alarm State:  0
Mon Feb 26 16:46:10 PST 2024 ON: 20.00 +20.0 19.97 -12.7 31.0 06 0A 0024 1108 Alarm State:  0
Mon Feb 26 16:45:08 PST 2024 ON: 20.01 +20.0 19.99 -12.7 31.1 06 09 011C 121C Alarm State:  0
Mon Feb 26 16:44:07 PST 2024 ON: 20.01 +20.0 20.00 -12.7 31.0 06 0A 011E 1408 Alarm State:  0
Mon Feb 26 16:43:05 PST 2024 ON: 19.99 +20.0 20.00 -12.7 31.0 06 0A 0017 142C Alarm State:  0
Mon Feb 26 16:42:04 PST 2024 ON: 19.99 +20.0 20.01 -12.7 31.0 06 09 0022 132C Alarm State:  0
Mon Feb 26 16:41:02 PST 2024 ON: 19.99 +20.0 20.00 -12.7 31.0 06 09 002C 1231 Alarm State:  0
Mon Feb 26 16:40:01 PST 2024 ON: 20.00 +20.0 19.99 -12.7 31.1 06 09 0004 120B Alarm State:  0
Mon Feb 26 16:38:59 PST 2024 ON: 20.00 +20.0 20.00 -12.7 31.0 06 09 000E 1307 Alarm State:  0
Mon Feb 26 16:37:58 PST 2024 ON: 20.00 +20.0 20.00 -12.7 31.0 06 09 0019 131B Alarm State:  0
Mon Feb 26 16:36:56 PST 2024 ON: 19.99 +20.0 19.99 -12.7 31.0 06 0A 001D 1325 Alarm State:  0
Mon Feb 26 16:35:55 PST 2024 ON: 19.99 +20.0 19.98 -12.7 31.0 06 0A 0028 122D Alarm State:  0
Mon Feb 26 16:34:53 PST 2024 ON: 19.99 +20.0 19.99 -12.7 30.9 06 09 0032 1126 Alarm State:  0
Mon Feb 26 16:33:52 PST 2024 ON: 20.00 +20.0 19.97 -12.7 31.0 06 0A 000A 120B Alarm State:  0
Mon Feb 26 16:32:50 PST 2024 ON: 20.00 +20.0 19.99 -12.7 31.0 06 09 0014 1228 Alarm State:  0
Mon Feb 26 16:31:49 PST 2024 ON: 20.00 +20.0 19.99 -12.7 31.1 01 0A 001D 1312 Alarm State:  0
Mon Feb 26 16:30:47 PST 2024 ON: 19.99 +20.0 19.99 -12.7 31.0 06 0A 0027 1301 Alarm State:  0
Mon Feb 26 16:29:46 PST 2024 ON: 20.00 +20.0 19.99 -12.7 31.0 06 09 0032 1225 Alarm State:  0
Mon Feb 26 16:28:44 PST 2024 ON: 20.00 +20.0 20.00 -12.7 30.9 06 09 0009 1300 Alarm State:  0
Mon Feb 26 16:27:43 PST 2024 ON: 19.99 +20.0 19.99 -12.6 31.0 06 0A 0004 1318 Alarm State:  0
Mon Feb 26 16:26:41 PST 2024 ON: 19.99 +20.0 19.99 -12.6 31.0 01 0A 000E 1319 Alarm State:  0
Mon Feb 26 16:25:40 PST 2024 ON: 19.99 +20.0 20.00 -12.7 31.0 06 09 0019 132F Alarm State:  0
Mon Feb 26 16:24:38 PST 2024 ON: 19.99 +20.0 19.99 -12.7 31.0 06 09 0023 1224 Alarm State:  0
Mon Feb 26 16:23:37 PST 2024 ON: 20.00 +20.0 19.98 -12.7 31.0 06 0A 002E 121E Alarm State:  0
Mon Feb 26 16:22:35 PST 2024 ON: 19.99 +20.0 20.00 -12.7 31.0 06 09 0005 1229 Alarm State:  0
Mon Feb 26 16:21:34 PST 2024 ON: 20.00 +20.0 20.00 -12.7 31.0 06 09 0010 121B Alarm State:  0
Mon Feb 26 16:20:32 PST 2024 ON: 20.00 +20.0 20.00 -12.7 30.9 06 09 0016 1318 Alarm State:  0
Mon Feb 26 16:19:31 PST 2024 ON: 19.99 +20.0 19.98 -12.7 31.0 06 0A 0021 132F Alarm State:  0
Mon Feb 26 16:18:29 PST 2024 ON: 19.99 +20.0 19.99 -12.6 31.0 06 0A 002B 130E Alarm State:  0
Mon Feb 26 16:17:28 PST 2024 ON: 19.99 +20.0 19.99 -12.7 31.0 06 09 0003 1208 Alarm State:  0
Mon Feb 26 16:16:26 PST 2024 ON: 20.00 +20.0 19.99 -12.7 30.9 06 0A 0009 1312 Alarm State:  0
Mon Feb 26 16:15:25 PST 2024 ON: 20.00 +20.0 20.00 -12.7 30.9 06 09 0014 1322 Alarm State:  0
Mon Feb 26 16:14:23 PST 2024 ON: 19.99 +20.0 19.98 -12.7 30.9 06 0A 001F 1325 Alarm State:  0
Mon Feb 26 16:13:22 PST 2024 ON: 19.99 +20.0 20.00 -12.7 31.1 06 09 0029 122F Alarm State:  0
Mon Feb 26 16:12:20 PST 2024 ON: 19.99 +20.0 19.98 -12.7 31.0 06 0A 0001 1211 Alarm State:  0
Mon Feb 26 16:11:19 PST 2024 ON: 20.00 +20.0 19.99 -12.7 31.0 06 09 000B 1222 Alarm State:  0
Mon Feb 26 16:10:17 PST 2024 ON: 20.00 +20.0 20.00 -12.7 31.0 06 09 0016 132B Alarm State:  0
Mon Feb 26 16:09:16 PST 2024 ON: 19.99 +20.0 19.99 -12.7 31.0 06 0A 0020 1313 Alarm State:  0
Mon Feb 26 16:08:14 PST 2024 ON: 20.00 +20.0 19.98 -12.7 30.9 06 0A 002B 1229 Alarm State:  0
Mon Feb 26 16:07:13 PST 2024 ON: 19.99 +20.0 20.00 -12.7 30.9 06 09 0002 1228 Alarm State:  0
Mon Feb 26 16:06:11 PST 2024 ON: 20.00 +20.0 19.99 -12.7 31.0 06 09 000D 1225 Alarm State:  0
Mon Feb 26 16:05:10 PST 2024 ON: 20.00 +20.0 19.99 -12.7 31.0 06 09 0017 1224 Alarm State:  0
Mon Feb 26 16:04:08 PST 2024 ON: 20.00 +20.0 20.01 -12.7 30.9 06 09 001C 1323 Alarm State:  0
Mon Feb 26 16:03:07 PST 2024 ON: 19.99 +20.0 20.01 -12.7 30.9 06 09 0026 1317 Alarm State:  0
Mon Feb 26 16:02:05 PST 2024 ON: 20.00 +20.0 19.99 -12.7 31.0 06 09 0031 1227 Alarm State:  0
Mon Feb 26 16:01:03 PST 2024 ON: 19.99 +20.0 19.99 -12.7 31.0 06 09 0008 122B Alarm State:  0
Mon Feb 26 16:00:02 PST 2024 ON: 20.00 +20.0 20.00 -12.7 31.0 03 0A 002C 1401 Alarm State:  0
Mon Feb 26 15:59:00 PST 2024 ON: 19.99 +20.0 20.01 -12.7 31.0 06 09 0003 1416 Alarm State:  0
Mon Feb 26 15:57:59 PST 2024 ON: 19.98 +20.0 19.97 -12.7 30.9 06 0B 000E 130A Alarm State:  0
Mon Feb 26 15:56:57 PST 2024 ON: 20.00 +20.0 19.99 -12.7 31.1 06 09 0018 120E Alarm State:  0
Mon Feb 26 15:55:56 PST 2024 ON: 20.00 +20.0 20.00 -12.7 31.0 06 09 0023 131B Alarm State:  0
Mon Feb 26 15:54:54 PST 2024 ON: 19.98 +20.0 20.01 -12.7 31.0 06 09 002D 1311 Alarm State:  0
Mon Feb 26 15:53:53 PST 2024 ON: 20.00 +20.0 20.00 -12.7 31.0 06 09 0005 1304 Alarm State:  0
Mon Feb 26 15:52:51 PST 2024 ON: 19.99 +20.0 19.99 -12.7 31.0 06 0A 000F 1323 Alarm State:  0
Mon Feb 26 15:51:50 PST 2024 ON: 20.00 +20.0 20.01 -12.7 31.1 06 09 001A 131D Alarm State:  0
Mon Feb 26 15:50:48 PST 2024 ON: 19.99 +20.0 19.99 -12.7 31.0 06 09 0024 122E Alarm State:  0
Mon Feb 26 15:49:47 PST 2024 ON: 20.00 +20.0 19.99 -12.7 30.9 06 09 002F 1215 Alarm State:  0
Mon Feb 26 15:48:45 PST 2024 ON: 20.00 +20.0 19.99 -12.7 31.0 06 09 0006 1214 Alarm State:  0
Mon Feb 26 15:47:44 PST 2024 ON: 19.99 +20.0 20.00 -12.7 31.0 06 09 0003 1319 Alarm State:  0
Mon Feb 26 15:46:42 PST 2024 ON: 20.00 +20.0 20.01 -12.7 31.1 06 09 0009 1411 Alarm State:  0
Mon Feb 26 15:45:41 PST 2024 ON: 19.99 +20.0 19.99 -12.7 31.1 06 0A 0014 1405 Alarm State:  0
Mon Feb 26 15:44:39 PST 2024 ON: 20.00 +20.0 20.00 -12.7 30.9 06 09 001E 1300 Alarm State:  0
Mon Feb 26 15:43:38 PST 2024 ON: 19.99 +20.0 19.99 -12.7 31.0 06 09 0029 1228 Alarm State:  0
Mon Feb 26 15:42:36 PST 2024 ON: 19.99 +20.0 19.98 -12.6 30.9 06 0B 0000 1401 Alarm State:  0
Mon Feb 26 15:41:35 PST 2024 ON: 19.99 +20.0 20.01 -12.7 30.9 08 09 000B 141A Alarm State:  0
Mon Feb 26 15:40:33 PST 2024 ON: 20.00 +20.0 20.01 -12.7 30.9 06 09 0015 1323 Alarm State:  0
Mon Feb 26 15:39:32 PST 2024 ON: 19.99 +20.0 20.00 -12.7 31.0 06 09 0020 122B Alarm State:  0
Mon Feb 26 15:38:30 PST 2024 ON: 19.99 +20.0 19.97 -12.7 31.0 06 0A 002A 120B Alarm State:  0
Mon Feb 26 15:37:29 PST 2024 ON: 20.00 +20.0 20.01 -12.7 31.0 06 09 0002 1310 Alarm State:  0
Mon Feb 26 15:36:27 PST 2024 ON: 19.99 +20.0 19.99 -12.7 31.0 06 0A 000C 1402 Alarm State:  0
Mon Feb 26 15:35:26 PST 2024 ON: 19.99 +20.0 20.00 -12.7 31.1 06 09 0017 1314 Alarm State:  0
Mon Feb 26 15:34:24 PST 2024 ON: 19.99 +20.0 19.98 -12.7 31.0 06 0A 0021 1223 Alarm State:  0
Mon Feb 26 15:33:23 PST 2024 ON: 20.00 +20.0 20.01 -12.7 31.0 06 08 002C 1221 Alarm State:  0
Mon Feb 26 15:32:11 PST 2024 ON: 20.00 +20.0 19.98 -12.7 31.0 06 0A 000B 1221 Alarm State:  0
Mon Feb 26 15:31:10 PST 2024 ON: 19.99 +20.0 19.98 -12.7 31.0 06 0A 0016 1310 Alarm State:  0
Mon Feb 26 15:30:08 PST 2024 ON: 20.00 +20.0 19.99 -12.7 31.0 06 09 0020 121D Alarm State:  0
Mon Feb 26 15:29:07 PST 2024 ON: 19.99 +20.0 19.99 -12.7 30.9 06 09 002B 122A Alarm State:  0
Mon Feb 26 15:28:05 PST 2024 ON: 20.00 +20.0 19.99 -12.7 30.9 06 09 0002 1219 Alarm State:  0
Mon Feb 26 15:27:04 PST 2024 ON: 20.00 +20.0 20.00 -12.7 31.0 06 09 0009 1328 Alarm State:  0
Mon Feb 26 15:26:02 PST 2024 ON: 20.00 +20.0 20.01 -12.7 30.9 06 09 0013 1406 Alarm State:  0
Mon Feb 26 15:25:01 PST 2024 ON: 20.00 +20.0 20.00 -12.7 31.0 06 09 001E 1326 Alarm State:  0
Mon Feb 26 15:23:59 PST 2024 ON: 20.00 +20.0 19.99 -12.7 31.1 06 0A 0028 1313 Alarm State:  0
Mon Feb 26 15:22:58 PST 2024 ON: 20.00 +20.0 19.99 -12.7 31.1 06 0A 0000 1311 Alarm State:  0
Mon Feb 26 15:21:56 PST 2024 ON: 19.99 +20.0 20.00 -12.7 31.0 06 09 000A 1318 Alarm State:  0
Mon Feb 26 15:20:55 PST 2024 ON: 19.99 +20.0 19.99 -12.7 31.0 06 09 0015 1226 Alarm State:  0
Mon Feb 26 15:19:53 PST 2024 ON: 20.00 +20.0 19.99 -12.7 31.1 06 09 001F 121D Alarm State:  0
Mon Feb 26 15:18:52 PST 2024 ON: 20.00 +20.0 20.01 -12.7 31.0 06 09 002A 1401 Alarm State:  0
Mon Feb 26 15:17:50 PST 2024 ON: 19.99 +20.0 20.00 -12.7 31.0 06 09 0001 1318 Alarm State:  0
Mon Feb 26 15:16:49 PST 2024 ON: 19.99 +20.0 19.99 -12.7 31.0 06 09 000C 120C Alarm State:  0
Mon Feb 26 15:15:47 PST 2024 ON: 20.00 +20.0 19.99 -12.7 30.9 06 09 0016 1214 Alarm State:  0
Mon Feb 26 15:14:46 PST 2024 ON: 20.00 +20.0 20.00 -12.7 31.0 06 09 001B 131D Alarm State:  0
Mon Feb 26 15:13:44 PST 2024 ON: 20.00 +20.0 20.00 -12.7 31.0 06 09 0025 1308 Alarm State:  0
Mon Feb 26 15:12:43 PST 2024 ON: 20.00 +20.0 20.00 -12.7 31.0 06 09 0030 1228 Alarm State:  0
Mon Feb 26 15:11:41 PST 2024 ON: 19.99 +20.0 19.99 -12.7 31.0 06 09 0007 120A Alarm State:  0
Mon Feb 26 15:10:40 PST 2024 ON: 20.00 +20.0 20.01 -12.7 31.0 06 09 000E 1309 Alarm State:  0
Mon Feb 26 15:09:38 PST 2024 ON: 20.00 +20.0 19.99 -12.7 31.1 06 0A 000C 131E Alarm State:  0
Mon Feb 26 15:08:27 PST 2024 ON: 19.99 +20.0 19.98 -12.7 31.0 06 0A 0021 1224 Alarm State:  0
Mon Feb 26 15:07:25 PST 2024 ON: 19.99 +20.0 19.99 -12.7 31.0 06 0A 002B 130A Alarm State:  0
Mon Feb 26 15:06:24 PST 2024 ON: 19.99 +20.0 19.98 -12.8 31.0 06 0A 0003 121E Alarm State:  0
Mon Feb 26 15:05:22 PST 2024 ON: 20.00 +20.0 20.00 -12.7 31.1 06 09 000D 1306 Alarm State:  0
Mon Feb 26 15:04:21 PST 2024 ON: 19.99 +20.0 19.99 -12.7 31.0 06 0A 0016 131A Alarm State:  0
Mon Feb 26 15:03:19 PST 2024 ON: 19.99 +20.0 19.99 -12.7 31.0 06 09 0020 122D Alarm State:  0
Mon Feb 26 15:02:18 PST 2024 ON: 20.00 +20.0 19.98 -12.7 31.0 06 0A 002B 121D Alarm State:  0
Mon Feb 26 15:01:16 PST 2024 ON: 19.99 +20.0 20.01 -12.7 31.0 06 09 0000 1307 Alarm State:  0
Mon Feb 26 15:00:15 PST 2024 ON: 20.00 +20.0 19.99 -12.7 31.0 06 09 000B 121D Alarm State:  0
Mon Feb 26 14:59:13 PST 2024 ON: 20.00 +20.0 19.99 -12.7 30.9 03 0A 0015 1304 Alarm State:  0
Mon Feb 26 14:58:12 PST 2024 ON: 19.99 +20.0 19.99 -12.7 31.0 06 09 0020 1228 Alarm State:  0
Mon Feb 26 14:57:10 PST 2024 ON: 20.00 +20.0 19.99 -12.7 31.0 06 09 002A 121C Alarm State:  0
Mon Feb 26 14:56:09 PST 2024 ON: 19.99 +20.0 19.99 -12.7 30.9 06 09 0002 1223 Alarm State:  0
Mon Feb 26 14:55:07 PST 2024 ON: 20.00 +20.0 20.00 -12.7 31.0 06 09 000C 1313 Alarm State:  0
Mon Feb 26 14:54:06 PST 2024 ON: 19.99 +20.0 19.98 -12.7 30.9 06 0A 0017 1215 Alarm State:  0
Mon Feb 26 14:53:04 PST 2024 ON: 20.00 +20.0 20.00 -12.7 31.0 06 09 0021 1319 Alarm State:  0
Mon Feb 26 14:52:03 PST 2024 ON: 19.99 +20.0 19.98 -12.7 31.0 06 0A 002C 1305 Alarm State:  0
Mon Feb 26 14:51:01 PST 2024 ON: 19.98 +20.0 19.98 -12.7 30.9 06 09 0003 112C Alarm State:  0
Mon Feb 26 14:50:00 PST 2024 ON: 20.00 +20.0 19.99 -12.7 31.0 06 09 0008 1128 Alarm State:  0
Mon Feb 26 14:48:58 PST 2024 ON: 20.01 +20.0 19.99 -12.7 31.0 06 0A 0010 130B Alarm State:  0
Mon Feb 26 14:47:57 PST 2024 ON: 20.01 +20.0 20.01 -12.7 30.9 06 09 0101 140A Alarm State:  0
Mon Feb 26 14:46:55 PST 2024 ON: 19.99 +20.0 20.00 -12.7 31.0 06 09 0001 1323 Alarm State:  0
Mon Feb 26 14:45:54 PST 2024 ON: 19.99 +20.0 19.99 -12.7 31.0 06 0A 000C 1309 Alarm State:  0
Mon Feb 26 14:44:52 PST 2024 ON: 19.99 +20.0 19.99 -12.7 30.9 06 09 0016 1228 Alarm State:  0
Mon Feb 26 14:43:51 PST 2024 ON: 20.00 +20.0 19.99 -12.7 31.0 06 0A 0021 1305 Alarm State:  0
Mon Feb 26 14:42:49 PST 2024 ON: 19.99 +20.0 20.00 -12.7 31.1 06 09 002B 121C Alarm State:  0
Mon Feb 26 14:41:48 PST 2024 ON: 20.00 +20.0 19.99 -12.7 31.0 06 09 0003 1205 Alarm State:  0
Mon Feb 26 14:40:46 PST 2024 ON: 19.99 +20.0 19.98 -12.7 31.0 06 0A 000D 1216 Alarm State:  0
Mon Feb 26 14:39:45 PST 2024 ON: 20.00 +20.0 19.99 -12.7 31.1 06 0A 0018 1315 Alarm State:  0
Mon Feb 26 14:38:43 PST 2024 ON: 19.99 +20.0 20.00 -12.7 30.9 06 0A 001A 1411 Alarm State:  0
Mon Feb 26 14:37:42 PST 2024 ON: 19.99 +20.0 19.98 -12.7 31.0 06 0A 0025 1305 Alarm State:  0
Mon Feb 26 14:36:40 PST 2024 ON: 19.98 +20.0 19.97 -12.7 30.9 06 0A 002F 112C Alarm State:  0
Mon Feb 26 14:35:39 PST 2024 ON: 20.00 +20.0 19.99 -12.7 30.9 06 09 0007 1126 Alarm State:  0
Mon Feb 26 14:34:37 PST 2024 ON: 19.99 +20.0 19.98 -12.7 31.0 06 0A 0011 1212 Alarm State:  0
Mon Feb 26 14:33:35 PST 2024 ON: 19.99 +20.0 19.99 -12.7 31.1 06 0A 001C 130B Alarm State:  0
Mon Feb 26 14:32:34 PST 2024 ON: 20.00 +20.0 20.01 -12.7 31.0 06 09 0014 1411 Alarm State:  0
Mon Feb 26 14:31:32 PST 2024 ON: 19.99 +20.0 20.00 -12.7 31.0 06 0A 001F 1409 Alarm State:  0
Mon Feb 26 14:30:31 PST 2024 ON: 20.00 +20.0 19.99 -12.7 30.9 06 0A 002A 1315 Alarm State:  0
Mon Feb 26 14:29:29 PST 2024 ON: 19.99 +20.0 20.01 -12.7 31.1 00 08 0001 1218 Alarm State:  0
Mon Feb 26 14:28:28 PST 2024 ON: 20.00 +20.0 19.99 -12.7 31.0 00 09 000C 1211 Alarm State:  0
Mon Feb 26 14:27:26 PST 2024 ON: 20.00 +20.0 19.99 -12.7 31.0 06 0A 0016 1319 Alarm State:  0
Mon Feb 26 14:26:25 PST 2024 ON: 19.99 +20.0 19.97 -12.7 30.9 06 0A 0021 122D Alarm State:  0
Mon Feb 26 14:25:23 PST 2024 ON: 20.00 +20.0 19.99 -12.7 31.1 06 09 002B 121B Alarm State:  0
Mon Feb 26 14:24:22 PST 2024 ON: 20.00 +20.0 19.98 -12.7 31.0 06 0A 0030 1314 Alarm State:  0
Mon Feb 26 14:23:20 PST 2024 ON: 19.99 +20.0 20.02 -12.7 31.0 06 09 0007 1418 Alarm State:  0
Mon Feb 26 14:22:19 PST 2024 ON: 19.99 +20.0 20.00 -12.7 31.0 06 09 0012 130C Alarm State:  0
Mon Feb 26 14:21:17 PST 2024 ON: 19.99 +20.0 19.99 -12.7 31.1 06 09 001C 1201 Alarm State:  0
Mon Feb 26 14:20:16 PST 2024 ON: 20.00 +20.0 19.97 -12.7 31.0 06 0A 0027 1202 Alarm State:  0
Mon Feb 26 14:19:14 PST 2024 ON: 20.00 +20.0 20.00 -12.7 30.9 06 09 0031 1316 Alarm State:  0
Mon Feb 26 14:18:13 PST 2024 ON: 19.98 +20.0 19.98 -12.7 31.0 01 0A 0009 1302 Alarm State:  0
Mon Feb 26 14:17:11 PST 2024 ON: 19.99 +20.0 19.98 -12.7 31.0 06 0A 0013 120F Alarm State:  0
Mon Feb 26 14:16:10 PST 2024 ON: 20.00 +20.0 20.01 -12.7 31.0 06 09 001E 1302 Alarm State:  0
Mon Feb 26 14:15:08 PST 2024 ON: 19.99 +20.0 20.01 -12.7 31.0 06 09 0028 1314 Alarm State:  0
Mon Feb 26 14:14:07 PST 2024 ON: 20.00 +20.0 20.00 -12.7 31.0 06 09 0000 1312 Alarm State:  0
Mon Feb 26 14:13:05 PST 2024 ON: 20.00 +20.0 19.98 -12.7 30.9 06 0A 000A 131F Alarm State:  0
Mon Feb 26 14:12:04 PST 2024 ON: 19.99 +20.0 19.99 -12.7 30.9 06 0A 0015 1327 Alarm State:  0
Mon Feb 26 14:11:02 PST 2024 ON: 19.99 +20.0 19.99 -12.7 31.1 06 0A 001F 131E Alarm State:  0
Mon Feb 26 14:10:01 PST 2024 ON: 19.99 +20.0 19.97 -12.7 31.1 06 0A 002A 1226 Alarm State:  0
Mon Feb 26 14:08:59 PST 2024 ON: 20.00 +20.0 19.99 -12.7 31.0 03 0A 0001 1300 Alarm State:  0
Mon Feb 26 14:07:58 PST 2024 ON: 20.00 +20.0 19.99 -12.7 30.9 06 0A 000C 1310 Alarm State:  0
Mon Feb 26 14:06:56 PST 2024 ON: 19.99 +20.0 19.99 -12.7 31.0 06 0A 0016 1317 Alarm State:  0
Mon Feb 26 14:05:55 PST 2024 ON: 20.00 +20.0 19.99 -12.7 30.9 06 0A 0021 130D Alarm State:  0
Mon Feb 26 14:04:53 PST 2024 ON: 20.00 +20.0 20.01 -12.7 30.9 06 09 002B 1312 Alarm State:  0
Mon Feb 26 14:03:52 PST 2024 ON: 19.99 +20.0 20.00 -12.7 31.0 06 09 0003 1216 Alarm State:  0
Mon Feb 26 14:02:50 PST 2024 ON: 20.00 +20.0 19.99 -12.7 30.9 06 0A 0003 1300 Alarm State:  0
Mon Feb 26 14:01:49 PST 2024 ON: 20.00 +20.0 19.99 -12.7 30.9 06 0A 0029 140F Alarm State:  0
Mon Feb 26 14:00:47 PST 2024 ON: 19.99 +20.0 20.00 -12.7 31.0 06 0A 0000 1418 Alarm State:  0
Mon Feb 26 13:59:46 PST 2024 ON: 20.00 +20.0 19.98 -12.7 31.0 06 0A 000B 1314 Alarm State:  0
Mon Feb 26 13:58:44 PST 2024 ON: 19.99 +20.0 19.98 -12.7 30.9 06 0A 0015 122F Alarm State:  0
Mon Feb 26 13:57:33 PST 2024 ON: 19.99 +20.0 19.97 -12.7 31.0 06 0A 002A 111D Alarm State:  0
Mon Feb 26 13:56:31 PST 2024 ON: 20.00 +20.0 19.99 -12.7 30.9 06 09 0001 1227 Alarm State:  0
Mon Feb 26 13:55:30 PST 2024 ON: 20.00 +20.0 20.01 -12.7 30.9 06 09 000C 1402 Alarm State:  0
Mon Feb 26 13:54:28 PST 2024 ON: 19.99 +20.0 19.99 -12.7 31.0 06 0A 0016 1329 Alarm State:  0
Mon Feb 26 13:53:27 PST 2024 ON: 19.99 +20.0 19.99 -12.7 30.9 06 0A 0021 1302 Alarm State:  0
Mon Feb 26 13:52:25 PST 2024 ON: 19.99 +20.0 19.99 -12.6 31.0 06 0A 002B 131F Alarm State:  0
Mon Feb 26 13:51:24 PST 2024 ON: 20.00 +20.0 20.00 -12.7 30.9 06 09 0003 1309 Alarm State:  0
Mon Feb 26 13:50:22 PST 2024 ON: 19.99 +20.0 19.99 -12.7 31.0 06 0A 000D 1325 Alarm State:  0
Mon Feb 26 13:49:21 PST 2024 ON: 19.99 +20.0 19.99 -12.7 31.0 06 0A 0018 1303 Alarm State:  0
Mon Feb 26 13:48:19 PST 2024 ON: 19.99 +20.0 19.97 -12.7 31.0 06 0A 0022 120C Alarm State:  0
Mon Feb 26 13:47:18 PST 2024 ON: 20.00 +20.0 20.00 -12.7 31.0 06 09 0029 1315 Alarm State:  0
Mon Feb 26 13:46:16 PST 2024 ON: 20.00 +20.0 20.01 -12.7 31.0 06 09 0000 140D Alarm State:  0
Mon Feb 26 13:45:15 PST 2024 ON: 19.99 +20.0 19.99 -12.6 31.0 06 0A 000B 1401 Alarm State:  0
Mon Feb 26 13:44:13 PST 2024 ON: 20.00 +20.0 20.01 -12.7 31.0 06 09 0015 1314 Alarm State:  0
Mon Feb 26 13:43:12 PST 2024 ON: 19.99 +20.0 19.99 -12.6 31.0 06 0A 0020 1321 Alarm State:  0
Mon Feb 26 13:42:10 PST 2024 ON: 19.99 +20.0 20.00 -12.6 31.0 06 0A 002A 140D Alarm State:  0
Mon Feb 26 13:41:09 PST 2024 ON: 19.99 +20.0 20.01 -12.7 31.0 06 09 0002 1320 Alarm State:  0
Mon Feb 26 13:40:07 PST 2024 ON: 19.99 +20.0 19.99 -12.7 31.0 06 09 000C 122B Alarm State:  0
Mon Feb 26 13:39:06 PST 2024 ON: 19.99 +20.0 19.99 -12.7 30.9 06 09 0017 1222 Alarm State:  0
Mon Feb 26 13:38:04 PST 2024 ON: 20.00 +20.0 20.00 -12.6 31.0 06 09 0021 130D Alarm State:  0
Mon Feb 26 13:37:03 PST 2024 ON: 20.00 +20.0 20.00 -12.6 31.0 06 09 002C 1313 Alarm State:  0
Mon Feb 26 13:36:01 PST 2024 ON: 20.00 +20.0 19.99 -12.6 31.0 06 0A 0003 1415 Alarm State:  0
Mon Feb 26 13:35:00 PST 2024 ON: 19.99 +20.0 19.99 -12.7 30.9 03 0A 000E 1331 Alarm State:  0
Mon Feb 26 13:33:58 PST 2024 ON: 19.99 +20.0 19.98 -12.7 31.0 06 0A 0018 130E Alarm State:  0
Mon Feb 26 13:32:57 PST 2024 ON: 20.00 +20.0 19.98 -12.7 31.0 06 0A 0023 1303 Alarm State:  0
Mon Feb 26 13:31:55 PST 2024 ON: 20.00 +20.0 20.01 -12.6 31.0 06 09 002D 1409 Alarm State:  0
Mon Feb 26 13:30:54 PST 2024 ON: 19.99 +20.0 20.00 -12.7 31.0 06 09 0005 132B Alarm State:  0
Mon Feb 26 13:29:52 PST 2024 ON: 19.98 +20.0 19.99 -12.7 30.9 06 0A 000F 131C Alarm State:  0
Mon Feb 26 13:28:51 PST 2024 ON: 19.99 +20.0 19.97 -12.7 30.9 06 0A 001A 1210 Alarm State:  0
Mon Feb 26 13:27:49 PST 2024 ON: 19.99 +20.0 19.98 -12.7 31.0 06 0A 0024 1223 Alarm State:  0
Mon Feb 26 13:26:48 PST 2024 ON: 20.00 +20.0 19.98 -12.7 31.0 06 0A 002F 1204 Alarm State:  0
Mon Feb 26 13:25:46 PST 2024 ON: 20.01 +20.0 20.01 -12.7 30.9 06 09 0015 1318 Alarm State:  0
Mon Feb 26 13:24:45 PST 2024 ON: 19.99 +20.0 19.99 -12.7 30.9 06 0A 0014 1331 Alarm State:  0
Mon Feb 26 13:23:43 PST 2024 ON: 19.99 +20.0 20.00 -12.6 31.0 06 09 001E 132B Alarm State:  0
Mon Feb 26 13:22:42 PST 2024 ON: 19.99 +20.0 20.00 -12.7 31.0 06 09 0029 132E Alarm State:  0
Mon Feb 26 13:21:40 PST 2024 ON: 19.99 +20.0 20.00 -12.7 31.0 06 09 0000 131E Alarm State:  0
Mon Feb 26 13:20:29 PST 2024 ON: 19.98 +20.0 19.99 -12.7 31.0 06 0A 0015 1313 Alarm State:  0
Mon Feb 26 13:19:27 PST 2024 ON: 20.00 +20.0 19.99 -12.7 31.0 06 09 001F 1214 Alarm State:  0
Mon Feb 26 13:18:26 PST 2024 ON: 20.00 +20.0 20.00 -12.7 31.0 06 09 002A 1301 Alarm State:  0
Mon Feb 26 13:17:24 PST 2024 ON: 20.00 +20.0 20.00 -12.7 31.0 06 09 0001 1328 Alarm State:  0
Mon Feb 26 13:16:23 PST 2024 ON: 19.99 +20.0 19.99 -12.7 31.1 06 0A 000C 1408 Alarm State:  0
Mon Feb 26 13:15:21 PST 2024 ON: 19.99 +20.0 20.01 -12.7 31.0 06 09 0016 1325 Alarm State:  0
Mon Feb 26 13:14:20 PST 2024 ON: 19.99 +20.0 19.97 -12.7 31.0 06 0B 0021 1304 Alarm State:  0
Mon Feb 26 13:13:18 PST 2024 ON: 19.99 +20.0 19.98 -12.6 31.0 06 0A 002B 121C Alarm State:  0
Mon Feb 26 13:12:17 PST 2024 ON: 20.00 +20.0 19.99 -12.7 31.0 06 0A 0003 130D Alarm State:  0
Mon Feb 26 13:11:15 PST 2024 ON: 20.00 +20.0 20.01 -12.7 30.8 06 09 000B 140F Alarm State:  0
Mon Feb 26 13:10:14 PST 2024 ON: 19.99 +20.0 19.99 -12.7 30.9 06 0A 0016 131D Alarm State:  0
Mon Feb 26 13:09:12 PST 2024 ON: 20.00 +20.0 20.00 -12.7 31.0 06 09 0020 131E Alarm State:  0
Mon Feb 26 13:08:11 PST 2024 ON: 20.00 +20.0 20.01 -12.7 30.9 06 09 002B 1405 Alarm State:  0
Mon Feb 26 13:07:09 PST 2024 ON: 19.99 +20.0 19.99 -12.7 31.0 06 0A 0002 130A Alarm State:  0
Mon Feb 26 13:06:08 PST 2024 ON: 19.99 +20.0 19.99 -12.7 31.0 06 09 000D 1202 Alarm State:  0
Mon Feb 26 13:05:06 PST 2024 ON: 20.00 +20.0 20.00 -12.7 31.0 06 09 0017 1220 Alarm State:  0
Mon Feb 26 13:04:05 PST 2024 ON: 20.00 +20.0 20.03 -12.7 31.0 06 08 0027 140C Alarm State:  0
Mon Feb 26 13:03:03 PST 2024 ON: 19.99 +20.0 19.98 -12.7 30.9 06 0A 0031 1327 Alarm State:  0
Mon Feb 26 13:02:02 PST 2024 ON: 19.98 +20.0 20.01 -12.7 31.0 06 08 0009 121B Alarm State:  0
Mon Feb 26 13:01:00 PST 2024 ON: 20.00 +20.0 19.98 -12.7 31.0 06 09 0013 1116 Alarm State:  0
Mon Feb 26 12:59:59 PST 2024 ON: 19.99 +20.0 19.99 -12.7 31.0 06 09 001E 1209 Alarm State:  0
Mon Feb 26 12:58:57 PST 2024 ON: 20.01 +20.0 19.99 -12.7 31.0 06 0A 001A 130F Alarm State:  0
Mon Feb 26 12:57:56 PST 2024 ON: 20.00 +20.0 20.01 -12.7 30.9 0B 09 0001 1422 Alarm State:  0
Mon Feb 26 12:56:54 PST 2024 ON: 19.99 +20.0 20.01 -12.7 31.0 06 09 000B 1331 Alarm State:  0
Mon Feb 26 12:55:52 PST 2024 ON: 19.99 +20.0 19.98 -12.7 31.0 06 0A 0016 122B Alarm State:  0
Mon Feb 26 12:54:51 PST 2024 ON: 20.00 +20.0 19.99 -12.7 31.0 06 0A 0020 130B Alarm State:  0
Mon Feb 26 12:53:50 PST 2024 ON: 20.00 +20.0 19.99 -12.7 31.0 06 09 002B 1221 Alarm State:  0
Mon Feb 26 12:52:48 PST 2024 ON: 19.99 +20.0 19.98 -12.7 31.0 06 0A 0002 121B Alarm State:  0
Mon Feb 26 12:51:46 PST 2024 ON: 20.00 +20.0 19.98 -12.7 31.1 06 0A 000D 1213 Alarm State:  0
Mon Feb 26 12:50:45 PST 2024 ON: 20.00 +20.0 20.00 -12.7 31.0 06 09 0015 1308 Alarm State:  0
Mon Feb 26 12:49:43 PST 2024 ON: 19.99 +20.0 19.99 -12.7 31.0 06 0A 0020 130E Alarm State:  0
Mon Feb 26 12:48:42 PST 2024 ON: 19.99 +20.0 19.99 -12.7 31.1 06 09 002A 122B Alarm State:  0
Mon Feb 26 12:47:40 PST 2024 ON: 20.00 +20.0 19.98 -12.7 31.0 06 0A 0002 1222 Alarm State:  0
Mon Feb 26 12:46:39 PST 2024 ON: 19.99 +20.0 20.01 -12.7 31.0 06 09 000C 1316 Alarm State:  0
Mon Feb 26 12:45:37 PST 2024 ON: 20.00 +20.0 19.99 -12.7 31.0 06 09 0017 1216 Alarm State:  0
Mon Feb 26 12:44:36 PST 2024 ON: 19.99 +20.0 19.99 -12.7 31.0 06 09 0021 120B Alarm State:  0
Mon Feb 26 12:43:34 PST 2024 ON: 20.00 +20.0 19.98 -12.7 31.0 06 0A 002C 120D Alarm State:  0
Mon Feb 26 12:42:33 PST 2024 ON: 20.00 +20.0 19.99 -12.7 31.0 06 0A 002C 130D Alarm State:  0
Mon Feb 26 12:41:31 PST 2024 ON: 20.00 +20.0 20.00 -12.7 30.9 06 09 0002 131D Alarm State:  0
Mon Feb 26 12:40:30 PST 2024 ON: 19.99 +20.0 19.99 -12.7 31.0 06 0A 000C 1312 Alarm State:  0
Mon Feb 26 12:39:28 PST 2024 ON: 19.99 +20.0 19.98 -12.7 31.1 06 0A 0017 1218 Alarm State:  0
Mon Feb 26 12:38:27 PST 2024 ON: 20.01 +20.0 20.00 -12.7 31.0 06 09 0017 1322 Alarm State:  0
Mon Feb 26 12:37:15 PST 2024 ON: 20.00 +20.0 20.01 -12.7 31.0 06 09 001E 140B Alarm State:  0
Mon Feb 26 12:36:14 PST 2024 ON: 19.99 +20.0 19.98 -12.7 31.0 06 0A 0028 1316 Alarm State:  0
Mon Feb 26 12:35:12 PST 2024 ON: 20.00 +20.0 20.03 -12.6 30.9 06 08 0000 1409 Alarm State:  0
Mon Feb 26 12:34:11 PST 2024 ON: 19.99 +20.0 19.98 -12.7 31.0 06 0A 000A 1310 Alarm State:  0
Mon Feb 26 12:33:09 PST 2024 ON: 20.00 +20.0 19.99 -12.7 31.0 06 09 0015 121E Alarm State:  0
Mon Feb 26 12:32:08 PST 2024 ON: 20.00 +20.0 20.00 -12.7 31.0 06 09 001F 131A Alarm State:  0
Mon Feb 26 12:31:06 PST 2024 ON: 19.99 +20.0 20.00 -12.7 31.0 01 09 002A 1329 Alarm State:  0
Mon Feb 26 12:30:05 PST 2024 ON: 19.99 +20.0 19.99 -12.7 31.0 06 0A 0001 1311 Alarm State:  0
Mon Feb 26 12:29:03 PST 2024 ON: 19.98 +20.0 20.00 -12.7 31.0 06 09 000C 1326 Alarm State:  0
Mon Feb 26 12:28:02 PST 2024 ON: 19.99 +20.0 19.98 -12.7 31.0 06 0A 0016 122F Alarm State:  0
Mon Feb 26 12:26:51 PST 2024 ON: 20.00 +20.0 20.00 -12.7 31.0 06 09 002B 131A Alarm State:  0
Mon Feb 26 12:25:49 PST 2024 ON: 19.99 +20.0 19.99 -12.7 31.0 06 09 0002 122D Alarm State:  0
Mon Feb 26 12:24:48 PST 2024 ON: 20.01 +20.0 20.01 -12.7 31.0 06 09 0001 130A Alarm State:  0
Mon Feb 26 12:23:46 PST 2024 ON: 20.00 +20.0 20.01 -12.7 30.9 06 09 0009 1317 Alarm State:  0
Mon Feb 26 12:22:45 PST 2024 ON: 19.99 +20.0 19.99 -12.7 30.9 06 0A 0014 1309 Alarm State:  0
Mon Feb 26 12:21:43 PST 2024 ON: 20.00 +20.0 20.00 -12.7 31.0 06 09 001E 1316 Alarm State:  0
Mon Feb 26 12:20:42 PST 2024 ON: 19.99 +20.0 20.00 -12.7 31.0 06 0A 0029 1405 Alarm State:  0
Mon Feb 26 12:19:40 PST 2024 ON: 19.99 +20.0 19.98 -12.7 31.0 06 0A 0000 1306 Alarm State:  0
Mon Feb 26 12:18:39 PST 2024 ON: 20.00 +20.0 20.00 -12.7 30.9 06 09 000B 121E Alarm State:  0
Mon Feb 26 12:17:37 PST 2024 ON: 20.01 +20.0 19.98 -12.7 30.9 06 0A 0015 1308 Alarm State:  0
Mon Feb 26 12:16:36 PST 2024 ON: 19.99 +20.0 19.99 -12.7 30.9 06 0A 0010 140B Alarm State:  0
Mon Feb 26 12:15:34 PST 2024 ON: 19.99 +20.0 20.00 -12.7 31.0 06 09 001A 132C Alarm State:  0
Mon Feb 26 12:14:32 PST 2024 ON: 19.99 +20.0 19.98 -12.7 31.0 06 0A 0025 1222 Alarm State:  0
Mon Feb 26 12:13:31 PST 2024 ON: 20.00 +20.0 20.00 -12.7 31.0 06 09 002F 1307 Alarm State:  0
Mon Feb 26 12:12:29 PST 2024 ON: 19.99 +20.0 19.99 -12.7 31.0 06 0A 0007 1317 Alarm State:  0
Mon Feb 26 12:11:28 PST 2024 ON: 20.00 +20.0 20.00 -12.7 31.0 06 0A 0011 1403 Alarm State:  0
Mon Feb 26 12:10:26 PST 2024 ON: 20.00 +20.0 20.00 -12.7 31.0 06 09 001C 1325 Alarm State:  0
Mon Feb 26 12:09:25 PST 2024 ON: 20.00 +20.0 19.99 -12.7 31.0 06 0A 0026 131E Alarm State:  0
Mon Feb 26 12:08:23 PST 2024 ON: 19.99 +20.0 20.01 -12.7 31.0 06 09 0031 141B Alarm State:  0
Mon Feb 26 12:07:22 PST 2024 ON: 19.99 +20.0 20.00 -12.7 31.0 06 09 0008 1326 Alarm State:  0
Mon Feb 26 12:06:20 PST 2024 ON: 20.00 +20.0 19.99 -12.7 31.0 06 0A 0013 1310 Alarm State:  0
Mon Feb 26 12:05:19 PST 2024 ON: 20.00 +20.0 20.02 -12.7 30.9 06 08 001D 1302 Alarm State:  0
Mon Feb 26 12:04:17 PST 2024 ON: 20.00 +20.0 19.99 -12.7 30.9 06 0A 0028 131A Alarm State:  0
Mon Feb 26 12:03:16 PST 2024 ON: 20.00 +20.0 20.01 -12.6 30.9 06 09 0032 140A Alarm State:  0
Mon Feb 26 12:02:14 PST 2024 ON: 19.99 +20.0 20.01 -12.7 30.9 06 09 0008 1404 Alarm State:  0
Mon Feb 26 12:01:13 PST 2024 ON: 19.99 +20.0 20.00 -12.7 30.9 06 09 0012 1331 Alarm State:  0
Mon Feb 26 12:00:11 PST 2024 ON: 20.00 +20.0 20.02 -12.7 30.9 06 08 001D 1327 Alarm State:  0
Mon Feb 26 11:59:10 PST 2024 ON: 19.99 +20.0 19.98 -12.7 30.9 06 0A 0027 130D Alarm State:  0
Mon Feb 26 11:58:08 PST 2024 ON: 19.98 +20.0 19.99 -12.7 31.0 06 0A 0032 130A Alarm State:  0
Mon Feb 26 11:57:07 PST 2024 ON: 19.99 +20.0 19.98 -12.7 30.9 06 0A 0009 120B Alarm State:  0
Mon Feb 26 11:55:55 PST 2024 ON: 20.00 +20.0 20.00 -12.7 30.9 06 09 0010 1320 Alarm State:  0
Mon Feb 26 11:54:54 PST 2024 ON: 19.99 +20.0 19.99 -12.7 30.9 06 0A 000C 141E Alarm State:  0
Mon Feb 26 11:53:52 PST 2024 ON: 20.00 +20.0 19.99 -12.7 30.9 06 0A 0017 1312 Alarm State:  0
Mon Feb 26 11:52:51 PST 2024 ON: 19.99 +20.0 20.01 -12.7 30.9 06 08 0021 1229 Alarm State:  0
Mon Feb 26 11:51:49 PST 2024 ON: 20.00 +20.0 20.00 -12.7 30.8 06 09 0026 1310 Alarm State:  0
Mon Feb 26 11:50:48 PST 2024 ON: 20.00 +20.0 20.02 -12.8 30.8 06 09 0002 1424 Alarm State:  0
Mon Feb 26 11:49:46 PST 2024 ON: 19.99 +20.0 20.00 -12.7 30.8 06 0A 000D 1419 Alarm State:  0
Mon Feb 26 11:48:45 PST 2024 ON: 19.99 +20.0 20.00 -12.7 30.9 03 09 0017 1310 Alarm State:  0
Mon Feb 26 11:47:43 PST 2024 ON: 19.99 +20.0 19.97 -12.7 30.9 06 0A 0022 1204 Alarm State:  0
Mon Feb 26 11:46:42 PST 2024 ON: 19.99 +20.0 20.01 -12.7 30.8 06 08 002C 122A Alarm State:  0
Mon Feb 26 11:45:40 PST 2024 ON: 20.00 +20.0 19.98 -12.7 30.8 06 0A 0004 121B Alarm State:  0
Mon Feb 26 11:44:39 PST 2024 ON: 20.00 +20.0 20.00 -12.7 30.8 06 0A 0019 1406 Alarm State:  0
Mon Feb 26 11:43:37 PST 2024 ON: 19.99 +20.0 19.99 -12.7 30.8 06 0A 0024 132C Alarm State:  0
Mon Feb 26 11:42:36 PST 2024 ON: 20.00 +20.0 20.00 -12.8 30.8 06 0A 002E 1410 Alarm State:  0
Mon Feb 26 11:41:34 PST 2024 ON: 19.99 +20.0 20.00 -12.7 30.7 06 09 0006 1314 Alarm State:  0
Mon Feb 26 11:40:33 PST 2024 ON: 19.99 +20.0 20.00 -12.7 30.8 06 0A 0010 1410 Alarm State:  0
Mon Feb 26 11:39:31 PST 2024 ON: 19.99 +20.0 19.99 -12.7 30.8 06 0A 001B 130C Alarm State:  0
Mon Feb 26 11:38:30 PST 2024 ON: 20.00 +20.0 20.00 -12.8 30.8 06 09 0025 1221 Alarm State:  0
Mon Feb 26 11:37:28 PST 2024 ON: 20.00 +20.0 20.00 -12.8 30.7 06 09 0030 1302 Alarm State:  0
Mon Feb 26 11:36:27 PST 2024 ON: 20.00 +20.0 20.02 -12.7 30.7 06 09 0026 140E Alarm State:  0
Mon Feb 26 11:35:25 PST 2024 ON: 19.99 +20.0 19.98 -12.8 30.7 06 0A 0031 132C Alarm State:  0
Mon Feb 26 11:34:24 PST 2024 ON: 19.99 +20.0 19.99 -12.8 30.8 06 09 0008 122D Alarm State:  0
Mon Feb 26 11:33:22 PST 2024 ON: 20.00 +20.0 20.02 -12.8 30.8 06 08 0013 121B Alarm State:  0
Mon Feb 26 11:32:21 PST 2024 ON: 20.00 +20.0 20.00 -12.8 30.8 06 09 001B 1220 Alarm State:  0
Mon Feb 26 11:31:09 PST 2024  Alarm State: 0
Mon Feb 26 11:31:09 PST 2024 Chiller did not report ON, got this reading: 
Mon Feb 26 11:30:08 PST 2024 ON: 20.00 +20.0 20.00 -12.8 30.8 06 0A 0003 1417 Alarm State:  0
Mon Feb 26 11:29:06 PST 2024 ON: 19.99 +20.0 20.01 -12.8 30.8 03 09 000E 1315 Alarm State:  0
Mon Feb 26 11:28:05 PST 2024 ON: 19.99 +20.0 19.99 -12.8 30.8 06 09 0018 1226 Alarm State:  0
Mon Feb 26 11:27:03 PST 2024 ON: 20.00 +20.0 20.01 -12.7 30.9 06 09 0023 1322 Alarm State:  0
Mon Feb 26 11:26:02 PST 2024 ON: 19.99 +20.0 19.98 -12.7 30.8 06 0A 002D 1319 Alarm State:  0
Mon Feb 26 11:25:00 PST 2024 ON: 20.00 +20.0 20.00 -12.8 30.8 06 09 0005 121F Alarm State:  0
Mon Feb 26 11:23:59 PST 2024 ON: 20.00 +20.0 20.00 -12.8 30.8 03 0A 000D 1400 Alarm State:  0
Mon Feb 26 11:22:57 PST 2024 ON: 19.99 +20.0 19.99 -12.7 30.8 06 0A 0016 1330 Alarm State:  0
Mon Feb 26 11:21:56 PST 2024 ON: 20.00 +20.0 20.00 -12.7 30.8 06 0A 0020 1401 Alarm State:  0
Mon Feb 26 11:20:54 PST 2024 ON: 19.99 +20.0 19.98 -12.7 30.8 06 0A 002B 1318 Alarm State:  0
Mon Feb 26 11:19:53 PST 2024 ON: 19.99 +20.0 19.97 -12.8 30.8 06 0A 0002 121F Alarm State:  0
Mon Feb 26 11:18:51 PST 2024 ON: 20.00 +20.0 19.99 -12.8 30.8 06 09 000D 121B Alarm State:  0
Mon Feb 26 11:17:50 PST 2024 ON: 20.00 +20.0 20.01 -12.8 30.7 06 09 0017 1319 Alarm State:  0
Mon Feb 26 11:16:48 PST 2024 ON: 20.00 +20.0 19.99 -12.8 30.8 06 0A 0022 1315 Alarm State:  0
Mon Feb 26 11:15:47 PST 2024 ON: 20.00 +20.0 20.00 -12.7 30.8 06 0A 0022 1409 Alarm State:  0
Mon Feb 26 11:14:45 PST 2024 ON: 19.99 +20.0 20.00 -12.8 30.8 06 09 002D 1323 Alarm State:  0
Mon Feb 26 11:13:44 PST 2024 ON: 19.99 +20.0 20.00 -12.7 30.8 06 09 0004 1226 Alarm State:  0
Mon Feb 26 11:12:42 PST 2024 ON: 20.00 +20.0 19.99 -12.8 30.7 06 09 000D 1226 Alarm State:  0
Mon Feb 26 11:11:41 PST 2024 ON: 19.99 +20.0 19.99 -12.8 30.8 06 0A 0017 1318 Alarm State:  0
Mon Feb 26 11:10:39 PST 2024 ON: 20.00 +20.0 20.01 -12.8 30.8 06 09 0016 1326 Alarm State:  0
Mon Feb 26 11:09:38 PST 2024 ON: 20.00 +20.0 19.99 -12.8 30.7 06 0A 0020 1422 Alarm State:  0
Mon Feb 26 11:08:36 PST 2024 ON: 19.99 +20.0 20.00 -12.7 30.8 06 0A 002B 1412 Alarm State:  0
Mon Feb 26 11:07:35 PST 2024 ON: 19.99 +20.0 19.99 -12.8 30.8 06 0A 0002 1327 Alarm State:  0
Mon Feb 26 11:06:33 PST 2024 ON: 19.99 +20.0 19.97 -12.8 30.8 06 0A 000D 121B Alarm State:  0
Mon Feb 26 11:05:32 PST 2024 ON: 19.99 +20.0 19.98 -12.7 30.8 06 0A 0017 1214 Alarm State:  0
Mon Feb 26 11:04:30 PST 2024 ON: 19.99 +20.0 19.99 -12.8 30.8 06 09 0022 122A Alarm State:  0
Mon Feb 26 11:03:29 PST 2024 ON: 19.99 +20.0 20.00 -12.8 30.8 06 09 002C 1304 Alarm State:  0
Mon Feb 26 11:02:27 PST 2024 ON: 20.00 +20.0 20.00 -12.8 30.8 06 09 0004 121E Alarm State:  0
Mon Feb 26 11:01:26 PST 2024 ON: 19.99 +20.0 19.98 -12.7 30.8 06 0A 000E 121D Alarm State:  0
Mon Feb 26 11:00:24 PST 2024 ON: 20.00 +20.0 20.00 -12.7 30.9 06 09 0019 1213 Alarm State:  0
Mon Feb 26 10:59:23 PST 2024 ON: 20.00 +20.0 19.98 -12.8 30.8 06 0A 0023 1224 Alarm State:  0
Mon Feb 26 10:58:21 PST 2024 ON: 19.99 +20.0 19.99 -12.8 30.8 06 0A 0022 1303 Alarm State:  0
Mon Feb 26 10:57:20 PST 2024 ON: 19.99 +20.0 19.99 -12.8 30.8 06 09 002C 122B Alarm State:  0
Mon Feb 26 10:56:18 PST 2024 ON: 19.99 +20.0 19.98 -12.8 30.8 06 0A 0004 121F Alarm State:  0
Mon Feb 26 10:55:17 PST 2024 ON: 20.00 +20.0 20.00 -12.7 30.9 06 09 000C 130D Alarm State:  0
Mon Feb 26 10:54:15 PST 2024 ON: 20.00 +20.0 20.02 -12.7 30.8 06 08 0017 131B Alarm State:  0
Mon Feb 26 10:53:14 PST 2024 ON: 19.99 +20.0 19.99 -12.8 30.7 06 09 0022 122B Alarm State:  0
Mon Feb 26 10:52:12 PST 2024 ON: 19.99 +20.0 19.98 -12.8 30.8 06 0A 002C 122A Alarm State:  0
Mon Feb 26 10:51:11 PST 2024 ON: 19.99 +20.0 19.99 -12.8 30.8 06 0A 0031 131F Alarm State:  0
Mon Feb 26 10:50:09 PST 2024 ON: 19.99 +20.0 19.98 -12.7 30.7 06 0A 0008 130A Alarm State:  0
Mon Feb 26 10:49:08 PST 2024 ON: 19.99 +20.0 19.99 -12.8 30.8 06 09 0013 1130 Alarm State:  0
Mon Feb 26 10:48:06 PST 2024 ON: 20.00 +20.0 19.99 -12.7 30.8 06 09 001D 111F Alarm State:  0
Mon Feb 26 10:47:05 PST 2024 ON: 20.00 +20.0 20.00 -12.8 30.8 06 09 0024 1228 Alarm State:  0
Mon Feb 26 10:46:03 PST 2024 ON: 20.00 +20.0 20.00 -12.8 30.7 06 0A 0018 140D Alarm State:  0
Mon Feb 26 10:45:02 PST 2024 ON: 19.99 +20.0 20.01 -12.7 30.9 06 09 0023 141B Alarm State:  0
Mon Feb 26 10:44:00 PST 2024 ON: 19.99 +20.0 20.00 -12.7 30.8 06 09 002D 1310 Alarm State:  0
Mon Feb 26 10:42:59 PST 2024 ON: 19.98 +20.0 19.97 -12.7 30.8 06 0A 0005 1204 Alarm State:  0
Mon Feb 26 10:41:57 PST 2024 ON: 19.99 +20.0 19.98 -12.7 30.7 06 09 000F 1109 Alarm State:  0
Mon Feb 26 10:40:56 PST 2024 ON: 19.99 +20.0 19.98 -12.7 30.9 06 0A 001A 120C Alarm State:  0
Mon Feb 26 10:39:54 PST 2024 ON: 20.01 +20.0 19.99 -12.7 30.8 06 0A 001E 1314 Alarm State:  0
Mon Feb 26 10:38:53 PST 2024 ON: 19.99 +20.0 19.98 -12.7 30.8 06 0A 001B 1327 Alarm State:  0
Mon Feb 26 10:37:51 PST 2024 ON: 19.99 +20.0 19.98 -12.7 30.8 06 0A 0025 1306 Alarm State:  0
Mon Feb 26 10:36:50 PST 2024 ON: 19.99 +20.0 19.98 -12.7 30.8 06 09 0030 112E Alarm State:  0
Mon Feb 26 10:35:48 PST 2024 ON: 20.00 +20.0 19.99 -12.7 30.8 06 09 0030 1202 Alarm State:  0
Mon Feb 26 10:34:47 PST 2024 ON: 20.00 +20.0 19.99 -12.7 30.9 06 0A 002B 130B Alarm State:  0
Mon Feb 26 10:33:45 PST 2024 ON: 20.00 +20.0 20.01 -12.7 30.8 06 09 0002 1411 Alarm State:  0
Mon Feb 26 10:32:44 PST 2024 ON: 19.99 +20.0 20.00 -12.7 30.8 06 09 000D 1319 Alarm State:  0
Mon Feb 26 10:31:42 PST 2024 ON: 19.99 +20.0 19.98 -12.7 30.9 06 0A 0017 1220 Alarm State:  0
Mon Feb 26 10:30:41 PST 2024 ON: 19.99 +20.0 19.99 -12.7 30.8 06 09 0022 1223 Alarm State:  0
Mon Feb 26 10:29:39 PST 2024 ON: 19.99 +20.0 19.99 -12.7 30.9 06 09 002C 120E Alarm State:  0
Mon Feb 26 10:28:37 PST 2024 ON: 19.99 +20.0 19.99 -12.7 30.7 06 09 0004 122F Alarm State:  0
Mon Feb 26 10:27:36 PST 2024 ON: 19.99 +20.0 19.97 -12.7 30.8 06 0A 000E 121C Alarm State:  0
Mon Feb 26 10:26:34 PST 2024 ON: 19.99 +20.0 19.98 -12.7 30.7 06 0A 0019 121C Alarm State:  0
Mon Feb 26 10:25:33 PST 2024 ON: 20.00 +20.0 19.99 -12.7 30.8 06 09 0023 121D Alarm State:  0
Mon Feb 26 10:24:31 PST 2024 ON: 19.99 +20.0 19.98 -12.7 30.8 06 0A 002E 121D Alarm State:  0
Mon Feb 26 10:23:30 PST 2024 ON: 19.99 +20.0 19.97 -12.7 30.8 06 0A 0005 1220 Alarm State:  0
Mon Feb 26 10:22:28 PST 2024 ON: 20.00 +20.0 20.00 -12.7 30.8 06 09 000C 1222 Alarm State:  0
Mon Feb 26 10:21:27 PST 2024 ON: 19.99 +20.0 19.99 -12.7 30.9 06 0A 0016 1306 Alarm State:  0
Mon Feb 26 10:20:25 PST 2024 ON: 19.99 +20.0 19.99 -12.7 30.9 06 0A 0021 130F Alarm State:  0
Mon Feb 26 10:19:24 PST 2024 ON: 19.99 +20.0 19.99 -12.7 30.9 06 09 002B 1229 Alarm State:  0
Mon Feb 26 10:18:22 PST 2024 ON: 19.99 +20.0 19.99 -12.7 30.8 06 09 0003 1209 Alarm State:  0
Mon Feb 26 10:17:21 PST 2024 ON: 20.00 +20.0 19.99 -12.8 30.8 06 0A 000D 1315 Alarm State:  0
Mon Feb 26 10:16:19 PST 2024 ON: 19.99 +20.0 19.99 -12.7 30.8 06 0A 0016 1319 Alarm State:  0
Mon Feb 26 10:15:18 PST 2024 ON: 20.00 +20.0 20.01 -12.7 30.9 06 09 0020 1322 Alarm State:  0
Mon Feb 26 10:14:07 PST 2024 ON: 19.99 +20.0 19.98 -12.8 30.8 06 0A 0002 121E Alarm State:  0
Mon Feb 26 10:13:05 PST 2024 ON: 19.99 +20.0 19.97 -12.7 30.8 03 0A 000C 112D Alarm State:  0
Mon Feb 26 10:12:04 PST 2024 ON: 20.00 +20.0 19.99 -12.7 30.9 06 09 0017 1218 Alarm State:  0
Mon Feb 26 10:11:02 PST 2024 ON: 19.99 +20.0 20.00 -12.7 30.7 06 09 001D 1230 Alarm State:  0
Mon Feb 26 10:10:00 PST 2024 ON: 20.00 +20.0 20.02 -12.7 30.8 06 08 0028 1315 Alarm State:  0
Mon Feb 26 10:08:59 PST 2024 ON: 20.00 +20.0 20.00 -12.8 30.8 06 09 0030 1318 Alarm State:  0
Mon Feb 26 10:07:57 PST 2024 ON: 19.99 +20.0 20.01 -12.8 30.7 06 09 0008 1319 Alarm State:  0
Mon Feb 26 10:06:56 PST 2024 ON: 19.99 +20.0 19.98 -12.7 30.7 06 0A 0012 1222 Alarm State:  0
Mon Feb 26 10:05:54 PST 2024 ON: 20.00 +20.0 19.98 -12.7 30.7 06 09 001D 1124 Alarm State:  0
Mon Feb 26 10:04:53 PST 2024 ON: 20.00 +20.0 20.00 -12.7 30.7 06 09 0027 1226 Alarm State:  0
Mon Feb 26 10:03:51 PST 2024 ON: 19.99 +20.0 20.01 -12.7 30.8 06 09 0032 140A Alarm State:  0
Mon Feb 26 10:02:50 PST 2024 ON: 19.99 +20.0 20.00 -12.7 30.7 06 09 0009 130B Alarm State:  0
Mon Feb 26 10:01:48 PST 2024 ON: 19.99 +20.0 19.99 -12.7 30.7 06 09 0014 1131 Alarm State:  0
Mon Feb 26 10:00:47 PST 2024 ON: 20.00 +20.0 19.99 -12.7 30.8 06 09 001E 1120 Alarm State:  0
Mon Feb 26 09:59:45 PST 2024 ON: 20.00 +20.0 20.00 -12.7 30.8 06 08 0029 1128 Alarm State:  0
Mon Feb 26 09:58:44 PST 2024 ON: 20.00 +20.0 19.99 -12.7 30.8 06 09 002F 1212 Alarm State:  0
Mon Feb 26 09:57:42 PST 2024 ON: 19.99 +20.0 19.99 -12.8 30.7 06 0A 0007 130F Alarm State:  0
Mon Feb 26 09:56:41 PST 2024 ON: 19.99 +20.0 19.99 -12.7 30.8 06 0A 0011 1306 Alarm State:  0
Mon Feb 26 09:55:39 PST 2024 ON: 19.99 +20.0 19.97 -12.7 30.8 06 0A 001C 112C Alarm State:  0
Mon Feb 26 09:54:38 PST 2024 ON: 19.99 +20.0 19.99 -12.8 30.8 06 09 0026 112A Alarm State:  0
Mon Feb 26 09:53:36 PST 2024 ON: 20.00 +20.0 20.00 -12.8 30.7 06 08 0027 1128 Alarm State:  0
Mon Feb 26 09:52:35 PST 2024 ON: 19.99 +20.0 19.99 -12.7 30.8 06 09 0031 1220 Alarm State:  0
Mon Feb 26 09:51:33 PST 2024 ON: 20.00 +20.0 20.00 -12.7 30.8 06 09 0007 1315 Alarm State:  0
Mon Feb 26 09:50:32 PST 2024 ON: 20.00 +20.0 20.00 -12.8 30.7 06 09 0011 130D Alarm State:  0
Mon Feb 26 09:49:30 PST 2024 ON: 19.99 +20.0 19.98 -12.7 30.8 06 0A 001C 1207 Alarm State:  0
Mon Feb 26 09:48:29 PST 2024 ON: 20.00 +20.0 19.98 -12.7 30.7 06 09 0026 1120 Alarm State:  0
Mon Feb 26 09:47:27 PST 2024 ON: 20.00 +20.0 19.98 -12.7 30.8 06 0A 0031 1225 Alarm State:  0
Mon Feb 26 09:46:26 PST 2024 ON: 19.99 +20.0 19.99 -12.7 30.8 06 0A 0008 131D Alarm State:  0
Mon Feb 26 09:45:24 PST 2024 ON: 19.99 +20.0 20.00 -12.7 30.8 06 09 0013 1300 Alarm State:  0
Mon Feb 26 09:44:23 PST 2024 ON: 19.98 +20.0 19.98 -12.7 30.8 06 09 001D 112F Alarm State:  0
Mon Feb 26 09:43:21 PST 2024 ON: 19.99 +20.0 19.98 -12.7 30.8 06 0A 0028 1204 Alarm State:  0
Mon Feb 26 09:42:20 PST 2024 ON: 19.99 +20.0 20.00 -12.7 30.8 06 09 0030 1310 Alarm State:  0
Mon Feb 26 09:41:18 PST 2024 ON: 20.00 +20.0 19.98 -12.7 30.8 06 0A 0008 121A Alarm State:  0
Mon Feb 26 09:40:17 PST 2024 ON: 20.00 +20.0 20.00 -12.7 30.8 06 09 0012 1300 Alarm State:  0
Mon Feb 26 09:39:15 PST 2024 ON: 19.99 +20.0 19.98 -12.7 30.8 06 0A 001D 131E Alarm State:  0
Mon Feb 26 09:38:14 PST 2024 ON: 20.00 +20.0 20.01 -12.7 30.8 06 09 0027 131F Alarm State:  0
Mon Feb 26 09:37:12 PST 2024 ON: 19.99 +20.0 19.99 -12.7 30.8 06 09 0032 121F Alarm State:  0
Mon Feb 26 09:36:11 PST 2024 ON: 20.00 +20.0 19.98 -12.7 30.8 06 09 0009 1118 Alarm State:  0
Mon Feb 26 09:35:09 PST 2024 ON: 20.00 +20.0 19.99 -12.8 30.8 06 09 0014 1223 Alarm State:  0
Mon Feb 26 09:34:08 PST 2024 ON: 20.00 +20.0 19.99 -12.7 30.8 06 0A 001E 1318 Alarm State:  0
Mon Feb 26 09:33:06 PST 2024 ON: 20.00 +20.0 19.99 -12.8 30.8 06 0A 0013 1323 Alarm State:  0
Mon Feb 26 09:32:05 PST 2024 ON: 19.99 +20.0 20.01 -12.7 30.7 06 09 001D 1300 Alarm State:  0
Mon Feb 26 09:31:03 PST 2024 ON: 19.99 +20.0 19.99 -12.7 30.8 06 09 0028 1126 Alarm State:  0
Mon Feb 26 09:30:02 PST 2024 ON: 20.00 +20.0 19.99 -12.7 30.8 06 09 0032 111D Alarm State:  0
Mon Feb 26 09:29:00 PST 2024 ON: 20.00 +20.0 20.01 -12.7 30.8 06 08 000A 1228 Alarm State:  0
Mon Feb 26 09:27:59 PST 2024 ON: 19.99 +20.0 19.99 -12.7 30.9 06 0A 0014 1306 Alarm State:  0
Mon Feb 26 09:26:57 PST 2024 ON: 20.00 +20.0 19.98 -12.7 30.8 06 0A 001F 120A Alarm State:  0
Mon Feb 26 09:25:56 PST 2024 ON: 20.00 +20.0 19.98 -12.7 30.8 06 0A 0029 1204 Alarm State:  0
Mon Feb 26 09:24:54 PST 2024 ON: 20.00 +20.0 19.99 -12.7 30.8 06 09 0001 1224 Alarm State:  0
Mon Feb 26 09:23:53 PST 2024 ON: 19.99 +20.0 19.99 -12.7 30.8 06 09 000B 1224 Alarm State:  0
Mon Feb 26 09:22:51 PST 2024 ON: 20.00 +20.0 20.01 -12.7 30.8 06 09 000A 1319 Alarm State:  0
Mon Feb 26 09:21:50 PST 2024 ON: 19.99 +20.0 20.00 -12.7 30.8 01 09 0014 132A Alarm State:  0
Mon Feb 26 09:20:48 PST 2024 ON: 19.99 +20.0 20.00 -12.7 30.8 06 09 001F 130A Alarm State:  0
Mon Feb 26 09:19:47 PST 2024 ON: 19.99 +20.0 19.99 -12.7 30.9 06 09 0029 1225 Alarm State:  0
Mon Feb 26 09:18:45 PST 2024 ON: 19.99 +20.0 19.99 -12.8 30.7 06 09 0001 1213 Alarm State:  0
Mon Feb 26 09:17:44 PST 2024 ON: 20.00 +20.0 19.99 -12.8 30.8 06 0A 0026 130D Alarm State:  0
Mon Feb 26 09:16:42 PST 2024 ON: 20.00 +20.0 20.00 -12.7 30.8 06 0A 001D 140E Alarm State:  0
Mon Feb 26 09:15:41 PST 2024 ON: 19.99 +20.0 20.00 -12.7 30.8 06 0A 0027 1417 Alarm State:  0
Mon Feb 26 09:14:39 PST 2024 ON: 20.00 +20.0 19.99 -12.7 30.8 06 0A 0032 131D Alarm State:  0
Mon Feb 26 09:13:38 PST 2024 ON: 19.99 +20.0 19.99 -12.7 30.8 06 09 0009 1222 Alarm State:  0
Mon Feb 26 09:12:36 PST 2024 ON: 19.99 +20.0 19.97 -12.7 30.8 06 0A 0014 1116 Alarm State:  0
Mon Feb 26 09:11:35 PST 2024 ON: 20.00 +20.0 19.99 -12.8 30.7 06 09 001E 111F Alarm State:  0
Mon Feb 26 09:10:33 PST 2024 ON: 20.00 +20.0 19.99 -12.7 30.7 06 0A 0029 1309 Alarm State:  0
Mon Feb 26 09:09:32 PST 2024 ON: 20.00 +20.0 19.99 -12.7 30.7 06 0A 0013 1417 Alarm State:  0
Mon Feb 26 09:08:30 PST 2024 ON: 19.99 +20.0 20.00 -12.7 30.8 06 09 001E 132B Alarm State:  0
Mon Feb 26 09:07:29 PST 2024 ON: 20.00 +20.0 20.00 -12.7 30.8 06 09 0029 132D Alarm State:  0
Mon Feb 26 09:06:27 PST 2024 ON: 20.00 +20.0 20.00 -12.7 30.8 06 09 0000 130A Alarm State:  0
Mon Feb 26 09:05:26 PST 2024 ON: 19.99 +20.0 19.98 -12.8 30.7 06 0A 000B 122C Alarm State:  0
Mon Feb 26 09:04:24 PST 2024 ON: 19.99 +20.0 19.99 -12.8 30.7 06 09 0015 122D Alarm State:  0
Mon Feb 26 09:03:22 PST 2024 ON: 20.00 +20.0 19.98 -12.7 30.7 06 0A 0020 1219 Alarm State:  0
Mon Feb 26 09:02:11 PST 2024 ON: 19.99 +20.0 19.99 -12.8 30.7 06 0A 0001 1315 Alarm State:  0
Mon Feb 26 09:01:10 PST 2024 ON: 19.99 +20.0 19.99 -12.7 30.8 06 0A 000B 130E Alarm State:  0
Mon Feb 26 09:00:08 PST 2024 ON: 20.00 +20.0 20.01 -12.7 30.8 0B 09 0016 1307 Alarm State:  0
Mon Feb 26 08:59:07 PST 2024 ON: 20.00 +20.0 20.00 -12.7 30.8 06 09 0020 131C Alarm State:  0
Mon Feb 26 08:58:05 PST 2024 ON: 20.00 +20.0 20.01 -12.7 30.7 06 09 0027 132C Alarm State:  0
Mon Feb 26 08:57:04 PST 2024 ON: 19.99 +20.0 20.01 -12.7 30.7 06 09 0031 1329 Alarm State:  0
Mon Feb 26 08:56:02 PST 2024 ON: 19.99 +20.0 19.99 -12.8 30.8 03 09 0009 1229 Alarm State:  0
Mon Feb 26 08:55:01 PST 2024 ON: 19.99 +20.0 20.00 -12.7 30.7 06 08 0013 1128 Alarm State:  0
Mon Feb 26 08:53:59 PST 2024 ON: 20.00 +20.0 20.00 -12.7 30.7 06 09 001E 1220 Alarm State:  0
Mon Feb 26 08:52:58 PST 2024 ON: 19.99 +20.0 19.98 -12.8 30.7 06 0A 0028 1228 Alarm State:  0
Mon Feb 26 08:51:56 PST 2024 ON: 20.00 +20.0 19.99 -12.7 30.7 06 0A 0100 131B Alarm State:  0
Mon Feb 26 08:50:55 PST 2024 ON: 19.99 +20.0 19.99 -12.7 30.7 06 0A 0027 1331 Alarm State:  0
Mon Feb 26 08:49:53 PST 2024 ON: 19.99 +20.0 19.99 -12.7 30.7 06 0A 0032 1400 Alarm State:  0
Mon Feb 26 08:48:52 PST 2024 ON: 19.99 +20.0 19.99 -12.7 30.7 06 09 0009 1229 Alarm State:  0
Mon Feb 26 08:47:50 PST 2024 ON: 19.99 +20.0 19.99 -12.8 30.7 06 09 0014 1121 Alarm State:  0
Mon Feb 26 08:46:49 PST 2024 ON: 20.00 +20.0 20.00 -12.7 30.7 06 09 0012 1219 Alarm State:  0
Mon Feb 26 08:45:47 PST 2024 ON: 20.00 +20.0 19.99 -12.7 30.8 06 0A 001C 1405 Alarm State:  0
Mon Feb 26 08:44:46 PST 2024 ON: 19.99 +20.0 19.99 -12.7 30.7 06 0A 001D 142C Alarm State:  0
Mon Feb 26 08:43:44 PST 2024 ON: 19.99 +20.0 20.01 -12.7 30.7 06 09 0027 1401 Alarm State:  0
Mon Feb 26 08:42:42 PST 2024 ON: 19.99 +20.0 19.99 -12.7 30.7 06 09 0032 1229 Alarm State:  0
Mon Feb 26 08:41:41 PST 2024 ON: 19.99 +20.0 20.00 -12.7 30.7 06 09 0009 1315 Alarm State:  0
Mon Feb 26 08:40:39 PST 2024 ON: 19.99 +20.0 19.99 -12.8 30.7 06 0A 0014 1319 Alarm State:  0
Mon Feb 26 08:39:38 PST 2024 ON: 20.00 +20.0 20.01 -12.7 30.8 06 08 001E 1228 Alarm State:  0
Mon Feb 26 08:38:36 PST 2024 ON: 20.00 +20.0 19.99 -12.7 30.8 06 0A 0029 1313 Alarm State:  0
Mon Feb 26 08:37:35 PST 2024 ON: 20.00 +20.0 20.01 -12.7 30.7 06 09 0000 1324 Alarm State:  0
Mon Feb 26 08:36:33 PST 2024 ON: 19.99 +20.0 19.99 -12.7 30.6 06 0A 000B 1405 Alarm State:  0
Mon Feb 26 08:35:32 PST 2024 ON: 19.99 +20.0 19.99 -12.7 30.7 06 0A 0015 130C Alarm State:  0
Mon Feb 26 08:34:30 PST 2024 ON: 20.00 +20.0 19.99 -12.7 30.7 06 0A 0020 1305 Alarm State:  0
Mon Feb 26 08:33:29 PST 2024 ON: 19.99 +20.0 19.98 -12.7 30.7 06 0A 002A 132F Alarm State:  0
Mon Feb 26 08:32:27 PST 2024 ON: 20.00 +20.0 20.01 -12.8 30.7 06 09 0002 132C Alarm State:  0
Mon Feb 26 08:31:26 PST 2024 ON: 19.99 +20.0 20.00 -12.7 30.8 06 09 000C 122B Alarm State:  0
Mon Feb 26 08:30:24 PST 2024 ON: 20.00 +20.0 20.00 -12.7 30.6 06 09 0017 121F Alarm State:  0
Mon Feb 26 08:29:23 PST 2024 ON: 20.00 +20.0 20.01 -12.7 30.7 06 09 001D 131B Alarm State:  0
Mon Feb 26 08:28:21 PST 2024 ON: 20.00 +20.0 20.03 -12.7 30.7 06 08 0016 1422 Alarm State:  0
Mon Feb 26 08:27:20 PST 2024 ON: 19.99 +20.0 19.99 -12.7 30.7 06 0A 0020 1408 Alarm State:  0
Mon Feb 26 08:26:18 PST 2024 ON: 19.99 +20.0 19.98 -12.7 30.7 06 0A 002B 1302 Alarm State:  0
Mon Feb 26 08:25:17 PST 2024 ON: 19.99 +20.0 19.97 -12.7 30.7 01 0A 0002 1203 Alarm State:  0
Mon Feb 26 08:24:15 PST 2024 ON: 19.99 +20.0 20.00 -12.8 30.7 06 08 000D 1124 Alarm State:  0
Mon Feb 26 08:23:14 PST 2024 ON: 19.99 +20.0 19.98 -12.8 30.7 06 0A 0017 130B Alarm State:  0
Mon Feb 26 08:22:12 PST 2024 ON: 19.99 +20.0 20.00 -12.8 30.7 06 0A 001E 1406 Alarm State:  0
Mon Feb 26 08:21:11 PST 2024 ON: 19.99 +20.0 19.99 -12.8 30.7 06 09 0028 122D Alarm State:  0
Mon Feb 26 08:20:09 PST 2024 ON: 19.98 +20.0 19.98 -12.8 30.6 06 0A 0000 1205 Alarm State:  0
Mon Feb 26 08:19:08 PST 2024 ON: 20.00 +20.0 20.00 -12.7 30.8 06 08 000A 111A Alarm State:  0
Mon Feb 26 08:18:06 PST 2024 ON: 20.00 +20.0 19.99 -12.7 30.7 06 0A 0015 1302 Alarm State:  0
Mon Feb 26 08:17:05 PST 2024 ON: 19.99 +20.0 19.99 -12.7 30.6 06 0A 0028 1402 Alarm State:  0
Mon Feb 26 08:15:53 PST 2024 ON: 19.99 +20.0 20.00 -12.7 30.7 06 0A 000A 1406 Alarm State:  0
Mon Feb 26 08:14:52 PST 2024 ON: 19.98 +20.0 20.00 -12.8 30.6 06 09 0014 1311 Alarm State:  0
Mon Feb 26 08:13:50 PST 2024 ON: 19.99 +20.0 19.98 -12.7 30.7 00 0A 001F 1205 Alarm State:  0
Mon Feb 26 08:12:49 PST 2024 ON: 20.00 +20.0 19.98 -12.7 30.7 06 09 0029 111C Alarm State:  0
Mon Feb 26 08:11:47 PST 2024 ON: 20.01 +20.0 19.99 -12.8 30.7 06 0A 0101 1308 Alarm State:  0
Mon Feb 26 08:10:46 PST 2024 ON: 19.99 +20.0 20.00 -12.7 30.6 06 0A 002B 141A Alarm State:  0
Mon Feb 26 08:09:44 PST 2024 ON: 19.99 +20.0 19.99 -12.7 30.7 06 0A 0003 1327 Alarm State:  0
Mon Feb 26 08:08:43 PST 2024 ON: 19.99 +20.0 19.97 -12.7 30.7 06 0B 000D 1304 Alarm State:  0
Mon Feb 26 08:07:41 PST 2024 ON: 20.00 +20.0 20.01 -12.7 30.6 06 09 0014 1321 Alarm State:  0
Mon Feb 26 08:06:40 PST 2024 ON: 19.99 +20.0 19.98 -12.7 30.7 06 0A 001E 1303 Alarm State:  0
Mon Feb 26 08:05:38 PST 2024 ON: 19.99 +20.0 19.99 -12.8 30.6 06 09 0029 112F Alarm State:  0
Mon Feb 26 08:04:37 PST 2024 ON: 20.00 +20.0 19.99 -12.7 30.6 06 09 0000 1223 Alarm State:  0
Mon Feb 26 08:03:35 PST 2024 ON: 20.00 +20.0 19.99 -12.8 30.6 06 0A 0032 1316 Alarm State:  0
Mon Feb 26 08:02:34 PST 2024 ON: 20.00 +20.0 19.97 -12.8 30.7 06 0A 0009 1221 Alarm State:  0
Mon Feb 26 08:01:32 PST 2024 ON: 20.00 +20.0 19.99 -12.7 30.6 06 09 0014 121C Alarm State:  0
Mon Feb 26 08:00:31 PST 2024 ON: 20.00 +20.0 20.00 -12.8 30.6 06 09 001E 1324 Alarm State:  0
Mon Feb 26 07:59:29 PST 2024 ON: 19.99 +20.0 19.98 -12.8 30.6 06 0A 0029 121C Alarm State:  0
Mon Feb 26 07:58:28 PST 2024 ON: 20.00 +20.0 19.99 -12.8 30.7 06 0A 0000 1305 Alarm State:  0
Mon Feb 26 07:57:26 PST 2024 ON: 20.00 +20.0 19.98 -12.8 30.6 06 0A 000B 1225 Alarm State:  0
Mon Feb 26 07:56:25 PST 2024 ON: 20.00 +20.0 19.97 -12.8 30.6 06 0A 0015 1227 Alarm State:  0
Mon Feb 26 07:55:23 PST 2024 ON: 20.00 +20.0 19.98 -12.8 30.6 06 0A 0020 1220 Alarm State:  0
Mon Feb 26 07:54:22 PST 2024 ON: 19.99 +20.0 20.01 -12.8 30.7 06 08 002A 122F Alarm State:  0
Mon Feb 26 07:53:20 PST 2024 ON: 20.00 +20.0 19.99 -12.8 30.7 06 0A 0002 1306 Alarm State:  0
Mon Feb 26 07:52:19 PST 2024 ON: 19.99 +20.0 20.00 -12.8 30.6 06 09 000C 1307 Alarm State:  0
Mon Feb 26 07:51:17 PST 2024 ON: 19.99 +20.0 20.00 -12.8 30.7 06 09 0017 1219 Alarm State:  0
Mon Feb 26 07:50:16 PST 2024 ON: 20.00 +20.0 19.99 -12.8 30.7 06 09 0021 1216 Alarm State:  0
Mon Feb 26 07:49:14 PST 2024 ON: 20.00 +20.0 20.00 -12.8 30.7 06 09 002C 130D Alarm State:  0
Mon Feb 26 07:48:13 PST 2024 ON: 19.99 +20.0 19.99 -12.8 30.6 01 0A 0003 1314 Alarm State:  0
Mon Feb 26 07:47:11 PST 2024 ON: 19.99 +20.0 19.99 -12.8 30.6 06 0A 000E 1310 Alarm State:  0
Mon Feb 26 07:46:10 PST 2024 ON: 20.00 +20.0 19.99 -12.8 30.6 06 09 0018 1227 Alarm State:  0
Mon Feb 26 07:45:08 PST 2024 ON: 19.99 +20.0 19.96 -12.8 30.6 06 0B 0023 121C Alarm State:  0
Mon Feb 26 07:44:07 PST 2024 ON: 19.99 +20.0 19.99 -12.8 30.7 06 0A 002D 130A Alarm State:  0
Mon Feb 26 07:43:05 PST 2024 ON: 19.99 +20.0 20.01 -12.8 30.6 06 09 0005 131C Alarm State:  0
Mon Feb 26 07:42:04 PST 2024 ON: 19.99 +20.0 19.99 -12.8 30.6 06 09 000F 1223 Alarm State:  0
Mon Feb 26 07:41:02 PST 2024 ON: 19.99 +20.0 19.99 -12.8 30.6 06 09 001A 1213 Alarm State:  0
Mon Feb 26 07:40:01 PST 2024 ON: 19.99 +20.0 19.98 -12.8 30.8 06 0A 0024 1213 Alarm State:  0
Mon Feb 26 07:38:59 PST 2024 ON: 19.99 +20.0 20.00 -12.8 30.7 06 09 0029 1304 Alarm State:  0
Mon Feb 26 07:37:58 PST 2024 ON: 20.01 +20.0 20.01 -12.7 30.6 06 09 002B 1406 Alarm State:  0
Mon Feb 26 07:36:56 PST 2024 ON: 19.99 +20.0 20.00 -12.8 30.6 06 09 0032 131C Alarm State:  0
Mon Feb 26 07:35:55 PST 2024 ON: 20.00 +20.0 20.01 -12.8 30.6 06 09 0009 1315 Alarm State:  0
Mon Feb 26 07:34:53 PST 2024 ON: 19.99 +20.0 20.00 -12.7 30.6 06 09 0014 1213 Alarm State:  0
Mon Feb 26 07:33:52 PST 2024 ON: 20.00 +20.0 19.99 -12.8 30.6 06 09 001E 1128 Alarm State:  0
Mon Feb 26 07:32:50 PST 2024 ON: 19.99 +20.0 19.99 -12.8 30.6 06 09 0017 1229 Alarm State:  0
Mon Feb 26 07:31:49 PST 2024 ON: 19.99 +20.0 19.99 -12.8 30.7 06 0A 0021 1317 Alarm State:  0
Mon Feb 26 07:30:47 PST 2024 ON: 19.99 +20.0 19.99 -12.8 30.7 06 0A 002C 1318 Alarm State:  0
Mon Feb 26 07:29:46 PST 2024 ON: 19.99 +20.0 19.98 -12.8 30.6 06 0A 0003 120D Alarm State:  0
Mon Feb 26 07:28:34 PST 2024 ON: 20.00 +20.0 19.99 -12.7 30.6 06 0A 0018 131A Alarm State:  0
Mon Feb 26 07:27:33 PST 2024 ON: 19.99 +20.0 20.00 -12.8 30.6 06 0A 0022 1400 Alarm State:  0
Mon Feb 26 07:26:31 PST 2024 ON: 19.99 +20.0 19.99 -12.7 30.7 06 09 002D 1226 Alarm State:  0
Mon Feb 26 07:25:30 PST 2024 ON: 20.00 +20.0 20.00 -12.8 30.7 06 09 0004 1227 Alarm State:  0
Mon Feb 26 07:24:28 PST 2024 ON: 20.00 +20.0 20.01 -12.8 30.7 06 09 000F 130E Alarm State:  0
Mon Feb 26 07:23:27 PST 2024 ON: 20.00 +20.0 19.99 -12.8 30.7 06 09 0019 1227 Alarm State:  0
Mon Feb 26 07:22:25 PST 2024 ON: 20.00 +20.0 20.00 -12.7 30.7 06 09 0024 120F Alarm State:  0
Mon Feb 26 07:21:24 PST 2024 ON: 20.00 +20.0 19.98 -12.8 30.6 06 0A 002E 1305 Alarm State:  0
Mon Feb 26 07:20:22 PST 2024 ON: 19.99 +20.0 19.98 -12.8 30.6 06 0A 0006 1315 Alarm State:  0
Mon Feb 26 07:19:21 PST 2024 ON: 20.00 +20.0 20.00 -12.8 30.7 06 09 0010 1316 Alarm State:  0
Mon Feb 26 07:18:19 PST 2024 ON: 20.00 +20.0 19.98 -12.8 30.7 06 0A 001B 121E Alarm State:  0
Mon Feb 26 07:17:18 PST 2024 ON: 19.99 +20.0 20.00 -12.8 30.7 06 09 0025 1303 Alarm State:  0
Mon Feb 26 07:16:16 PST 2024 ON: 20.00 +20.0 20.00 -12.8 30.7 06 09 0030 1314 Alarm State:  0
Mon Feb 26 07:15:15 PST 2024 ON: 20.00 +20.0 20.00 -12.8 30.7 06 09 0007 1307 Alarm State:  0
Mon Feb 26 07:14:13 PST 2024 ON: 19.99 +20.0 19.99 -12.8 30.7 06 09 0012 1229 Alarm State:  0
Mon Feb 26 07:13:12 PST 2024 ON: 20.00 +20.0 20.00 -12.7 30.6 00 09 001C 121C Alarm State:  0
Mon Feb 26 07:12:10 PST 2024 ON: 19.99 +20.0 19.98 -12.7 30.6 01 0A 0027 1309 Alarm State:  0
Mon Feb 26 07:11:09 PST 2024 ON: 19.99 +20.0 19.98 -12.7 30.7 06 0A 0031 1327 Alarm State:  0
Mon Feb 26 07:10:07 PST 2024 ON: 19.99 +20.0 19.99 -12.7 30.7 06 0A 0009 1317 Alarm State:  0
Mon Feb 26 07:09:06 PST 2024 ON: 19.99 +20.0 19.99 -12.7 30.7 06 09 0013 121A Alarm State:  0
Mon Feb 26 07:08:04 PST 2024 ON: 20.00 +20.0 19.99 -12.8 30.7 06 0A 001C 130B Alarm State:  0
Mon Feb 26 07:07:03 PST 2024 ON: 19.99 +20.0 19.99 -12.7 30.7 06 0A 0026 132F Alarm State:  0
Mon Feb 26 07:06:01 PST 2024 ON: 19.99 +20.0 19.99 -12.8 30.8 06 09 0031 1227 Alarm State:  0
Mon Feb 26 07:04:59 PST 2024 ON: 19.99 +20.0 19.98 -12.8 30.7 06 09 0008 112E Alarm State:  0
Mon Feb 26 07:03:58 PST 2024 ON: 20.00 +20.0 19.97 -12.8 30.8 06 0A 0013 121D Alarm State:  0
Mon Feb 26 07:02:56 PST 2024 ON: 20.01 +20.0 20.00 -12.8 30.8 06 09 001B 1319 Alarm State:  0
Mon Feb 26 07:01:55 PST 2024 ON: 19.99 +20.0 20.00 -12.7 30.7 06 0A 0031 1406 Alarm State:  0
Mon Feb 26 07:00:53 PST 2024 ON: 19.99 +20.0 19.99 -12.7 30.7 06 0A 0008 1407 Alarm State:  0
Mon Feb 26 06:59:52 PST 2024 ON: 19.99 +20.0 19.99 -12.7 30.7 06 0A 0013 1301 Alarm State:  0
Mon Feb 26 06:58:50 PST 2024 ON: 19.99 +20.0 19.98 -12.7 30.7 06 09 001D 1128 Alarm State:  0
Mon Feb 26 06:57:49 PST 2024 ON: 20.00 +20.0 20.01 -12.7 30.6 06 08 0028 1223 Alarm State:  0
Mon Feb 26 06:56:47 PST 2024 ON: 20.00 +20.0 19.99 -12.7 30.6 06 0A 0030 1323 Alarm State:  0
Mon Feb 26 06:55:46 PST 2024 ON: 19.99 +20.0 20.00 -12.7 30.7 06 0A 0008 1402 Alarm State:  0
Mon Feb 26 06:54:44 PST 2024 ON: 20.00 +20.0 19.98 -12.8 30.7 06 0A 0012 1317 Alarm State:  0
Mon Feb 26 06:53:43 PST 2024 ON: 19.99 +20.0 19.99 -12.8 30.6 03 09 001D 1221 Alarm State:  0
Mon Feb 26 06:52:41 PST 2024 ON: 20.00 +20.0 19.97 -12.8 30.7 06 0A 0027 1118 Alarm State:  0
Mon Feb 26 06:51:40 PST 2024 ON: 20.00 +20.0 20.00 -12.8 30.7 06 09 0030 121D Alarm State:  0
Mon Feb 26 06:50:38 PST 2024 ON: 20.00 +20.0 19.99 -12.8 30.6 06 0A 0007 131B Alarm State:  0
Mon Feb 26 06:49:37 PST 2024 ON: 19.99 +20.0 20.00 -12.7 30.6 06 09 0012 132D Alarm State:  0
Mon Feb 26 06:48:35 PST 2024 ON: 19.99 +20.0 19.99 -12.8 30.7 06 0A 001D 131C Alarm State:  0
Mon Feb 26 06:47:34 PST 2024 ON: 20.00 +20.0 19.99 -12.8 30.6 06 09 0027 1225 Alarm State:  0
Mon Feb 26 06:46:32 PST 2024 ON: 20.00 +20.0 20.00 -12.8 30.7 06 09 0032 1227 Alarm State:  0
Mon Feb 26 06:45:31 PST 2024 ON: 20.00 +20.0 19.99 -12.8 30.7 06 0A 0009 1318 Alarm State:  0
Mon Feb 26 06:44:29 PST 2024 ON: 19.99 +20.0 19.99 -12.8 30.7 06 0A 0014 130D Alarm State:  0
Mon Feb 26 06:43:28 PST 2024 ON: 19.99 +20.0 20.00 -12.7 30.6 06 09 001E 1214 Alarm State:  0
Mon Feb 26 06:42:26 PST 2024 ON: 20.00 +20.0 20.01 -12.8 30.7 06 08 0023 1226 Alarm State:  0
Mon Feb 26 06:41:25 PST 2024 ON: 20.00 +20.0 20.00 -12.8 30.7 06 09 002D 1303 Alarm State:  0
Mon Feb 26 06:40:23 PST 2024 ON: 19.99 +20.0 19.97 -12.8 30.7 06 0A 0005 1225 Alarm State:  0
Mon Feb 26 06:39:22 PST 2024 ON: 19.99 +20.0 19.98 -12.8 30.6 06 0A 000F 1229 Alarm State:  0
Mon Feb 26 06:38:20 PST 2024 ON: 19.99 +20.0 19.99 -12.8 30.7 06 0A 001A 1314 Alarm State:  0
Mon Feb 26 06:37:19 PST 2024 ON: 19.99 +20.0 20.01 -12.8 30.7 06 09 0024 130F Alarm State:  0
Mon Feb 26 06:36:17 PST 2024 ON: 19.99 +20.0 20.00 -12.8 30.6 06 09 002F 1225 Alarm State:  0
Mon Feb 26 06:35:16 PST 2024 ON: 20.00 +20.0 20.00 -12.8 30.6 06 08 0006 1128 Alarm State:  0
Mon Feb 26 06:34:14 PST 2024 ON: 19.99 +20.0 19.99 -12.8 30.6 06 09 0011 1230 Alarm State:  0
Mon Feb 26 06:33:13 PST 2024 ON: 20.00 +20.0 20.01 -12.8 30.6 06 09 0017 1308 Alarm State:  0
Mon Feb 26 06:32:11 PST 2024 ON: 20.00 +20.0 19.99 -12.7 30.7 06 0A 0022 1401 Alarm State:  0
Mon Feb 26 06:31:10 PST 2024 ON: 19.99 +20.0 19.99 -12.8 30.7 06 0A 002A 140E Alarm State:  0
Mon Feb 26 06:30:08 PST 2024 ON: 19.99 +20.0 19.97 -12.8 30.7 06 0B 0002 1302 Alarm State:  0
Mon Feb 26 06:29:07 PST 2024 ON: 19.98 +20.0 19.98 -12.8 30.6 06 09 000C 1129 Alarm State:  0
Mon Feb 26 06:28:05 PST 2024 ON: 20.00 +20.0 19.97 -12.8 30.7 06 0A 000D 120C Alarm State:  0
Mon Feb 26 06:27:04 PST 2024 ON: 20.00 +20.0 19.98 -12.7 30.7 06 0A 0009 1314 Alarm State:  0
Mon Feb 26 06:26:02 PST 2024 ON: 20.00 +20.0 20.01 -12.8 30.7 06 09 0004 1427 Alarm State:  0
Mon Feb 26 06:25:01 PST 2024 ON: 19.99 +20.0 19.99 -12.8 30.6 06 0A 000E 1402 Alarm State:  0
Mon Feb 26 06:23:59 PST 2024 ON: 19.99 +20.0 20.00 -12.8 30.6 06 09 0019 1228 Alarm State:  0
Mon Feb 26 06:22:58 PST 2024 ON: 20.00 +20.0 19.99 -12.8 30.7 06 09 0023 1213 Alarm State:  0
Mon Feb 26 06:21:56 PST 2024 ON: 20.00 +20.0 19.98 -12.8 30.7 01 0A 002C 1326 Alarm State:  0
Mon Feb 26 06:20:55 PST 2024 ON: 19.99 +20.0 20.00 -12.8 30.7 06 0A 0003 140C Alarm State:  0
Mon Feb 26 06:19:53 PST 2024 ON: 20.00 +20.0 19.99 -12.8 30.7 06 0A 000E 1318 Alarm State:  0
Mon Feb 26 06:18:52 PST 2024 ON: 20.00 +20.0 20.00 -12.7 30.7 06 09 0018 1312 Alarm State:  0
Mon Feb 26 06:17:50 PST 2024 ON: 19.99 +20.0 20.01 -12.7 30.7 06 09 0023 140F Alarm State:  0
Mon Feb 26 06:16:49 PST 2024 ON: 19.99 +20.0 19.98 -12.7 30.7 06 0A 002D 1306 Alarm State:  0
Mon Feb 26 06:15:47 PST 2024 ON: 19.99 +20.0 19.97 -12.8 30.6 06 0A 0005 112C Alarm State:  0
Mon Feb 26 06:14:46 PST 2024 ON: 20.00 +20.0 19.99 -12.7 30.6 06 09 000F 1216 Alarm State:  0
Mon Feb 26 06:13:44 PST 2024 ON: 20.00 +20.0 19.99 -12.7 30.6 06 0A 0018 1402 Alarm State:  0
Mon Feb 26 06:12:43 PST 2024 ON: 19.99 +20.0 19.99 -12.7 30.7 06 0A 0022 1417 Alarm State:  0
Mon Feb 26 06:11:41 PST 2024 ON: 19.99 +20.0 19.99 -12.7 30.7 06 0A 002D 1412 Alarm State:  0
Mon Feb 26 06:10:40 PST 2024 ON: 19.99 +20.0 20.00 -12.7 30.6 06 09 0004 131B Alarm State:  0
Mon Feb 26 06:09:38 PST 2024 ON: 19.99 +20.0 20.00 -12.7 30.6 06 09 000F 1230 Alarm State:  0
Mon Feb 26 06:08:37 PST 2024 ON: 20.00 +20.0 20.00 -12.8 30.7 06 09 0019 1211 Alarm State:  0
Mon Feb 26 06:07:35 PST 2024 ON: 20.00 +20.0 20.00 -12.8 30.7 06 09 001C 1326 Alarm State:  0
Mon Feb 26 06:06:34 PST 2024 ON: 19.99 +20.0 20.01 -12.8 30.7 03 09 0024 1410 Alarm State:  0
Mon Feb 26 06:05:32 PST 2024 ON: 19.99 +20.0 19.99 -12.7 30.6 06 0A 002F 1318 Alarm State:  0
Mon Feb 26 06:04:31 PST 2024 ON: 19.99 +20.0 20.00 -12.7 30.6 06 09 0006 132E Alarm State:  0
Mon Feb 26 06:03:29 PST 2024 ON: 19.99 +20.0 19.99 -12.8 30.7 06 0A 0011 130D Alarm State:  0
Mon Feb 26 06:02:28 PST 2024 ON: 20.00 +20.0 19.99 -12.8 30.7 06 09 001B 1204 Alarm State:  0
Mon Feb 26 06:01:26 PST 2024 ON: 19.99 +20.0 19.99 -12.7 30.7 06 09 0026 1223 Alarm State:  0
Mon Feb 26 06:00:24 PST 2024 ON: 20.00 +20.0 20.01 -12.8 30.7 06 08 0030 1226 Alarm State:  0
Mon Feb 26 05:59:23 PST 2024 ON: 20.00 +20.0 19.99 -12.8 30.6 06 0A 0008 1319 Alarm State:  0
Mon Feb 26 05:58:21 PST 2024 ON: 19.99 +20.0 20.00 -12.8 30.7 06 0A 0012 1407 Alarm State:  0
Mon Feb 26 05:57:20 PST 2024 ON: 19.99 +20.0 19.99 -12.8 30.7 06 0A 001D 131E Alarm State:  0
Mon Feb 26 05:56:18 PST 2024 ON: 20.00 +20.0 20.00 -12.8 30.7 06 09 0027 1302 Alarm State:  0
Mon Feb 26 05:55:17 PST 2024 ON: 20.00 +20.0 20.00 -12.8 30.6 06 09 0032 1226 Alarm State:  0
Mon Feb 26 05:54:15 PST 2024 ON: 20.00 +20.0 20.00 -12.8 30.7 06 09 0009 1318 Alarm State:  0
Mon Feb 26 05:53:14 PST 2024 ON: 20.00 +20.0 20.00 -12.8 30.6 06 09 0014 1326 Alarm State:  0
Mon Feb 26 05:52:12 PST 2024 ON: 19.99 +20.0 20.00 -12.8 30.6 06 0A 001E 1408 Alarm State:  0
Mon Feb 26 05:51:11 PST 2024 ON: 19.99 +20.0 20.00 -12.7 30.6 06 09 0029 1230 Alarm State:  0
Mon Feb 26 05:50:09 PST 2024 ON: 20.00 +20.0 19.99 -12.7 30.6 06 0A 0000 1308 Alarm State:  0
Mon Feb 26 05:49:08 PST 2024 ON: 19.99 +20.0 20.01 -12.8 30.7 0B 08 000B 1228 Alarm State:  0
Mon Feb 26 05:48:06 PST 2024 ON: 20.00 +20.0 19.99 -12.8 30.7 06 09 0015 1227 Alarm State:  0
Mon Feb 26 05:47:05 PST 2024 ON: 20.00 +20.0 20.00 -12.7 30.7 06 09 0020 132E Alarm State:  0
Mon Feb 26 05:46:03 PST 2024 ON: 20.00 +20.0 20.00 -12.7 30.6 06 09 002A 132B Alarm State:  0
Mon Feb 26 05:45:02 PST 2024 ON: 19.99 +20.0 19.98 -12.8 30.6 06 0A 0002 1307 Alarm State:  0
Mon Feb 26 05:44:00 PST 2024 ON: 20.00 +20.0 19.99 -12.7 30.7 06 0A 0002 131D Alarm State:  0
Mon Feb 26 05:42:59 PST 2024 ON: 19.99 +20.0 19.99 -12.8 30.7 06 0A 000B 1320 Alarm State:  0
Mon Feb 26 05:41:57 PST 2024 ON: 19.99 +20.0 20.00 -12.8 30.7 06 09 0015 1311 Alarm State:  0
Mon Feb 26 05:40:56 PST 2024 ON: 19.99 +20.0 19.99 -12.7 30.8 06 0A 0020 1317 Alarm State:  0
Mon Feb 26 05:39:54 PST 2024 ON: 19.99 +20.0 20.00 -12.8 30.6 06 09 002A 1327 Alarm State:  0
Mon Feb 26 05:38:53 PST 2024 ON: 20.00 +20.0 20.01 -12.7 30.6 06 09 0002 131F Alarm State:  0
Mon Feb 26 05:37:51 PST 2024 ON: 19.99 +20.0 19.99 -12.7 30.6 06 0A 000C 1313 Alarm State:  0
Mon Feb 26 05:36:50 PST 2024 ON: 20.00 +20.0 20.01 -12.7 30.7 06 09 0017 132D Alarm State:  0
Mon Feb 26 05:35:48 PST 2024 ON: 20.00 +20.0 20.00 -12.7 30.7 06 09 0021 1326 Alarm State:  0
Mon Feb 26 05:34:47 PST 2024 ON: 20.00 +20.0 20.00 -12.8 30.6 06 09 002C 1307 Alarm State:  0
Mon Feb 26 05:33:45 PST 2024 ON: 20.00 +20.0 20.01 -12.8 30.6 06 09 0003 131C Alarm State:  0
Mon Feb 26 05:32:44 PST 2024 ON: 19.99 +20.0 19.98 -12.8 30.6 06 0A 000E 1308 Alarm State:  0
Mon Feb 26 05:31:42 PST 2024 ON: 20.00 +20.0 20.00 -12.8 30.6 06 09 0018 130D Alarm State:  0
Mon Feb 26 05:30:41 PST 2024 ON: 19.99 +20.0 19.98 -12.8 30.6 06 0A 0023 122A Alarm State:  0
Mon Feb 26 05:29:39 PST 2024 ON: 19.99 +20.0 19.98 -12.8 30.6 06 0A 002D 1302 Alarm State:  0
Mon Feb 26 05:28:38 PST 2024 ON: 19.99 +20.0 20.00 -12.7 30.6 06 09 0005 130F Alarm State:  0
Mon Feb 26 05:27:36 PST 2024 ON: 20.00 +20.0 19.99 -12.7 30.7 06 0A 0005 1417 Alarm State:  0
Mon Feb 26 05:26:35 PST 2024 ON: 19.99 +20.0 20.00 -12.7 30.6 06 0A 0010 1405 Alarm State:  0
Mon Feb 26 05:25:33 PST 2024 ON: 19.98 +20.0 19.99 -12.7 30.7 00 09 001A 122E Alarm State:  0
Mon Feb 26 05:24:32 PST 2024 ON: 20.00 +20.0 19.99 -12.8 30.8 06 09 0025 1212 Alarm State:  0
Mon Feb 26 05:23:30 PST 2024 ON: 20.00 +20.0 20.01 -12.7 30.7 06 09 0030 1319 Alarm State:  0
Mon Feb 26 05:22:29 PST 2024 ON: 19.99 +20.0 19.98 -12.8 30.7 06 0A 0007 1315 Alarm State:  0
Mon Feb 26 05:21:27 PST 2024 ON: 19.99 +20.0 19.99 -12.8 30.6 06 09 0012 122D Alarm State:  0
Mon Feb 26 05:20:26 PST 2024 ON: 20.00 +20.0 20.00 -12.8 30.7 06 09 001C 1228 Alarm State:  0
Mon Feb 26 05:19:24 PST 2024 ON: 20.00 +20.0 20.00 -12.8 30.7 06 0A 0013 1410 Alarm State:  0
Mon Feb 26 05:18:23 PST 2024 ON: 19.99 +20.0 19.98 -12.8 30.6 03 0A 001D 1325 Alarm State:  0
Mon Feb 26 05:17:21 PST 2024 ON: 19.99 +20.0 19.98 -12.8 30.6 06 0A 0028 122D Alarm State:  0
Mon Feb 26 05:16:20 PST 2024 ON: 20.00 +20.0 20.01 -12.8 30.6 06 09 0032 1323 Alarm State:  0
Mon Feb 26 05:15:18 PST 2024 ON: 19.99 +20.0 19.99 -12.7 30.7 06 0A 000A 1400 Alarm State:  0
Mon Feb 26 05:14:17 PST 2024 ON: 20.00 +20.0 20.00 -12.8 30.6 06 09 0014 1323 Alarm State:  0
Mon Feb 26 05:13:15 PST 2024 ON: 19.99 +20.0 19.98 -12.8 30.6 06 0A 001F 122D Alarm State:  0
Mon Feb 26 05:12:14 PST 2024 ON: 20.00 +20.0 19.99 -12.8 30.7 06 09 0029 1218 Alarm State:  0
Mon Feb 26 05:11:12 PST 2024 ON: 20.00 +20.0 20.00 -12.8 30.6 06 09 0001 1325 Alarm State:  0
Mon Feb 26 05:10:11 PST 2024 ON: 19.99 +20.0 19.99 -12.8 30.6 06 0A 000B 1307 Alarm State:  0
Mon Feb 26 05:09:09 PST 2024 ON: 19.99 +20.0 19.99 -12.8 30.6 03 09 0016 1215 Alarm State:  0
Mon Feb 26 05:08:08 PST 2024 ON: 20.00 +20.0 19.98 -12.8 30.5 06 0A 001C 1313 Alarm State:  0
Mon Feb 26 05:07:06 PST 2024 ON: 19.99 +20.0 20.00 -12.8 30.6 06 0A 0023 140C Alarm State:  0
Mon Feb 26 05:06:05 PST 2024 ON: 19.99 +20.0 19.99 -12.8 30.6 06 0A 002D 1303 Alarm State:  0
Mon Feb 26 05:05:03 PST 2024 ON: 20.00 +20.0 20.00 -12.8 30.6 06 09 0005 1215 Alarm State:  0
Mon Feb 26 05:04:02 PST 2024 ON: 20.00 +20.0 20.01 -12.8 30.7 06 09 000F 1400 Alarm State:  0
Mon Feb 26 05:03:00 PST 2024 ON: 19.99 +20.0 19.98 -12.8 30.7 06 0A 001A 1328 Alarm State:  0
Mon Feb 26 05:01:59 PST 2024 ON: 19.99 +20.0 20.00 -12.8 30.7 06 09 0024 1305 Alarm State:  0
Mon Feb 26 05:00:57 PST 2024 ON: 19.99 +20.0 19.99 -12.7 30.8 06 09 002F 121B Alarm State:  0
Mon Feb 26 04:59:56 PST 2024 ON: 20.00 +20.0 19.99 -12.8 30.6 06 0A 0006 130F Alarm State:  0
Mon Feb 26 04:58:54 PST 2024 ON: 20.00 +20.0 19.99 -12.8 30.7 06 0A 0011 1406 Alarm State:  0
Mon Feb 26 04:57:53 PST 2024 ON: 19.99 +20.0 19.99 -12.8 30.8 06 0A 001B 130B Alarm State:  0
Mon Feb 26 04:56:51 PST 2024 ON: 19.99 +20.0 19.99 -12.8 30.6 06 09 0026 122E Alarm State:  0
Mon Feb 26 04:55:40 PST 2024 ON: 20.00 +20.0 19.99 -12.8 30.7 06 09 0007 1228 Alarm State:  0
Mon Feb 26 04:54:38 PST 2024 ON: 20.00 +20.0 19.98 -12.8 30.6 03 0A 0012 130B Alarm State:  0
Mon Feb 26 04:53:37 PST 2024 ON: 20.00 +20.0 20.00 -12.8 30.7 06 09 001C 1301 Alarm State:  0
Mon Feb 26 04:52:35 PST 2024 ON: 19.99 +20.0 20.00 -12.8 30.7 06 09 0027 1307 Alarm State:  0
Mon Feb 26 04:51:34 PST 2024 ON: 19.99 +20.0 20.00 -12.8 30.6 03 09 0031 1331 Alarm State:  0
Mon Feb 26 04:50:32 PST 2024 ON: 19.99 +20.0 19.98 -12.8 30.7 06 0A 0009 1225 Alarm State:  0
Mon Feb 26 04:49:31 PST 2024 ON: 20.00 +20.0 19.99 -12.8 30.6 06 09 0013 120B Alarm State:  0
Mon Feb 26 04:48:29 PST 2024 ON: 19.99 +20.0 20.00 -12.8 30.6 06 09 001E 1225 Alarm State:  0
Mon Feb 26 04:47:28 PST 2024 ON: 20.01 +20.0 19.99 -12.8 30.6 06 0A 0016 1311 Alarm State:  0
Mon Feb 26 04:46:26 PST 2024 ON: 19.99 +20.0 19.99 -12.8 30.7 06 0A 0015 132C Alarm State:  0
Mon Feb 26 04:45:25 PST 2024 ON: 19.99 +20.0 20.02 -12.8 30.7 06 08 001F 131F Alarm State:  0
Mon Feb 26 04:44:23 PST 2024 ON: 19.98 +20.0 19.99 -12.8 30.6 06 09 002A 1229 Alarm State:  0
Mon Feb 26 04:43:22 PST 2024 ON: 20.00 +20.0 19.99 -12.8 30.7 06 0A 0001 1301 Alarm State:  0
Mon Feb 26 04:42:20 PST 2024 ON: 19.99 +20.0 19.99 -12.8 30.7 03 09 000C 1225 Alarm State:  0
Mon Feb 26 04:41:19 PST 2024 ON: 20.00 +20.0 20.00 -12.8 30.6 06 09 0016 1228 Alarm State:  0
Mon Feb 26 04:40:17 PST 2024 ON: 20.00 +20.0 20.00 -12.8 30.7 06 09 000F 131E Alarm State:  0
Mon Feb 26 04:39:16 PST 2024 ON: 20.00 +20.0 20.00 -12.7 30.7 06 09 0019 1315 Alarm State:  0
Mon Feb 26 04:38:14 PST 2024 ON: 19.99 +20.0 19.97 -12.8 30.7 06 0A 0024 1227 Alarm State:  0
Mon Feb 26 04:37:13 PST 2024 ON: 20.00 +20.0 20.00 -12.8 30.6 06 09 002E 1305 Alarm State:  0
Mon Feb 26 04:36:11 PST 2024 ON: 19.99 +20.0 20.00 -12.8 30.7 06 09 002D 131B Alarm State:  0
Mon Feb 26 04:35:10 PST 2024 ON: 20.00 +20.0 20.00 -12.8 30.7 06 09 0004 1324 Alarm State:  0
Mon Feb 26 04:34:08 PST 2024 ON: 20.00 +20.0 20.00 -12.8 30.6 06 09 000F 131C Alarm State:  0
Mon Feb 26 04:33:06 PST 2024 ON: 19.99 +20.0 19.99 -12.7 30.7 06 0A 0019 1313 Alarm State:  0
Mon Feb 26 04:32:05 PST 2024 ON: 20.00 +20.0 20.00 -12.8 30.7 06 09 0024 121D Alarm State:  0
Mon Feb 26 04:31:03 PST 2024 ON: 20.00 +20.0 20.00 -12.7 30.6 06 09 002E 1315 Alarm State:  0
Mon Feb 26 04:30:02 PST 2024 ON: 20.00 +20.0 20.01 -12.7 30.6 06 09 0006 1321 Alarm State:  0
Mon Feb 26 04:29:00 PST 2024 ON: 20.00 +20.0 20.00 -12.7 30.7 06 09 0010 131A Alarm State:  0
Mon Feb 26 04:27:59 PST 2024 ON: 19.99 +20.0 20.00 -12.8 30.7 06 09 001B 1319 Alarm State:  0
Mon Feb 26 04:26:57 PST 2024 ON: 19.99 +20.0 20.00 -12.7 30.6 06 09 0025 122C Alarm State:  0
Mon Feb 26 04:25:56 PST 2024 ON: 19.99 +20.0 19.99 -12.7 30.7 06 09 0030 1228 Alarm State:  0
Mon Feb 26 04:24:54 PST 2024 ON: 20.00 +20.0 20.02 -12.7 30.7 01 08 0007 130B Alarm State:  0
Mon Feb 26 04:23:53 PST 2024 ON: 19.99 +20.0 20.00 -12.7 30.7 00 09 0012 1221 Alarm State:  0
Mon Feb 26 04:22:51 PST 2024 ON: 20.00 +20.0 20.00 -12.7 30.6 06 09 001C 130B Alarm State:  0
Mon Feb 26 04:21:50 PST 2024 ON: 20.00 +20.0 20.00 -12.7 30.7 06 09 0027 1229 Alarm State:  0
Mon Feb 26 04:20:48 PST 2024 ON: 20.00 +20.0 20.00 -12.8 30.7 06 09 0031 131B Alarm State:  0
Mon Feb 26 04:19:47 PST 2024 ON: 19.99 +20.0 20.00 -12.7 30.7 06 09 0009 130F Alarm State:  0
Mon Feb 26 04:18:45 PST 2024 ON: 20.00 +20.0 20.00 -12.7 30.7 06 09 0013 1307 Alarm State:  0
Mon Feb 26 04:17:44 PST 2024 ON: 19.99 +20.0 20.00 -12.8 30.7 06 09 001E 130B Alarm State:  0
Mon Feb 26 04:16:42 PST 2024 ON: 20.00 +20.0 20.00 -12.7 30.7 06 09 0028 1218 Alarm State:  0
Mon Feb 26 04:15:41 PST 2024 ON: 20.01 +20.0 20.02 -12.8 30.7 06 09 010F 1404 Alarm State:  0
Mon Feb 26 04:14:39 PST 2024 ON: 19.99 +20.0 20.01 -12.7 30.8 06 09 0024 142C Alarm State:  0
Mon Feb 26 04:13:38 PST 2024 ON: 19.99 +20.0 20.00 -12.8 30.7 06 09 002F 1320 Alarm State:  0
Mon Feb 26 04:12:36 PST 2024 ON: 19.99 +20.0 20.00 -12.8 30.7 06 09 0006 121F Alarm State:  0
Mon Feb 26 04:11:35 PST 2024 ON: 20.00 +20.0 19.99 -12.8 30.7 06 09 0011 121C Alarm State:  0
Mon Feb 26 04:10:33 PST 2024 ON: 20.00 +20.0 20.00 -12.7 30.7 01 09 000F 131C Alarm State:  0
Mon Feb 26 04:09:32 PST 2024 ON: 19.98 +20.0 20.02 -12.8 30.7 06 09 000C 1425 Alarm State:  0
Mon Feb 26 04:08:30 PST 2024 ON: 19.99 +20.0 20.01 -12.8 30.6 06 09 0016 1331 Alarm State:  0
Mon Feb 26 04:07:29 PST 2024 ON: 19.98 +20.0 19.99 -12.8 30.7 06 09 0021 1225 Alarm State:  0
Mon Feb 26 04:06:27 PST 2024 ON: 19.99 +20.0 19.97 -12.8 30.7 06 0A 002B 111A Alarm State:  0
Mon Feb 26 04:05:26 PST 2024 ON: 19.99 +20.0 20.00 -12.8 30.7 06 09 0001 1215 Alarm State:  0
Mon Feb 26 04:04:24 PST 2024 ON: 20.00 +20.0 20.01 -12.8 30.6 06 09 0024 1327 Alarm State:  0
Mon Feb 26 04:03:23 PST 2024 ON: 19.99 +20.0 20.00 -12.8 30.7 06 0A 002D 1416 Alarm State:  0
Mon Feb 26 04:02:21 PST 2024 ON: 19.99 +20.0 20.00 -12.8 30.6 06 09 0004 1323 Alarm State:  0
Mon Feb 26 04:01:20 PST 2024 ON: 19.99 +20.0 19.99 -12.7 30.7 06 09 000F 122D Alarm State:  0
Mon Feb 26 04:00:18 PST 2024 ON: 19.99 +20.0 19.98 -12.8 30.7 06 09 0019 1122 Alarm State:  0
Mon Feb 26 03:59:17 PST 2024 ON: 19.99 +20.0 19.97 -12.8 30.7 06 0A 0024 110E Alarm State:  0
Mon Feb 26 03:58:15 PST 2024 ON: 20.00 +20.0 19.98 -12.8 30.6 06 0A 002E 120C Alarm State:  0
Mon Feb 26 03:57:14 PST 2024 ON: 20.00 +20.0 20.02 -12.8 30.8 06 08 0006 1321 Alarm State:  0
Mon Feb 26 03:56:12 PST 2024 ON: 19.99 +20.0 20.01 -12.8 30.6 06 09 0011 141A Alarm State:  0
Mon Feb 26 03:55:11 PST 2024 ON: 20.00 +20.0 20.00 -12.8 30.6 06 09 001B 1325 Alarm State:  0
Mon Feb 26 03:54:09 PST 2024 ON: 19.98 +20.0 20.00 -12.8 30.7 06 09 0026 131C Alarm State:  0
Mon Feb 26 03:53:08 PST 2024 ON: 19.99 +20.0 19.98 -12.8 30.7 06 0A 0030 1211 Alarm State:  0
Mon Feb 26 03:52:06 PST 2024 ON: 20.00 +20.0 19.99 -12.7 30.7 06 09 0008 111D Alarm State:  0
Mon Feb 26 03:51:04 PST 2024 ON: 20.00 +20.0 20.00 -12.7 30.7 01 09 0012 1225 Alarm State:  0
Mon Feb 26 03:50:03 PST 2024 ON: 20.00 +20.0 20.02 -12.8 30.7 06 08 001D 1313 Alarm State:  0
Mon Feb 26 03:49:01 PST 2024 ON: 20.00 +20.0 20.00 -12.7 30.7 06 09 0027 1305 Alarm State:  0
Mon Feb 26 03:48:00 PST 2024 ON: 20.00 +20.0 20.00 -12.8 30.7 06 09 0032 1312 Alarm State:  0
Mon Feb 26 03:46:58 PST 2024 ON: 20.00 +20.0 20.00 -12.8 30.7 06 09 0009 121B Alarm State:  0
Mon Feb 26 03:45:57 PST 2024 ON: 20.00 +20.0 20.00 -12.7 30.7 06 09 0014 1221 Alarm State:  0
Mon Feb 26 03:44:55 PST 2024 ON: 20.00 +20.0 19.99 -12.7 30.7 06 0A 000E 140C Alarm State:  0
Mon Feb 26 03:43:44 PST 2024 ON: 19.99 +20.0 19.99 -12.8 30.7 06 0A 0023 1326 Alarm State:  0
Mon Feb 26 03:42:43 PST 2024 ON: 19.99 +20.0 19.98 -12.8 30.6 06 0A 002D 121B Alarm State:  0
Mon Feb 26 03:41:41 PST 2024 ON: 19.99 +20.0 19.99 -12.8 30.7 06 09 0005 121A Alarm State:  0
Mon Feb 26 03:40:40 PST 2024 ON: 20.00 +20.0 20.01 -12.8 30.7 06 09 000F 1320 Alarm State:  0
Mon Feb 26 03:39:38 PST 2024 ON: 20.00 +20.0 20.01 -12.8 30.6 06 09 001A 1305 Alarm State:  0
Mon Feb 26 03:38:37 PST 2024 ON: 20.00 +20.0 19.99 -12.8 30.7 06 09 0024 121C Alarm State:  0
Mon Feb 26 03:37:35 PST 2024 ON: 19.99 +20.0 20.00 -12.8 30.6 06 0A 001B 1408 Alarm State:  0
Mon Feb 26 03:36:33 PST 2024 ON: 19.99 +20.0 20.01 -12.7 30.6 06 09 0025 1415 Alarm State:  0
Mon Feb 26 03:35:32 PST 2024 ON: 19.99 +20.0 19.98 -12.7 30.7 06 0A 0030 130D Alarm State:  0
Mon Feb 26 03:34:30 PST 2024 ON: 19.98 +20.0 19.99 -12.7 30.6 06 09 0007 1202 Alarm State:  0
Mon Feb 26 03:33:29 PST 2024 ON: 20.00 +20.0 20.00 -12.7 30.6 06 09 0012 1207 Alarm State:  0
Mon Feb 26 03:32:27 PST 2024 ON: 20.00 +20.0 20.00 -12.7 30.5 06 09 002F 131B Alarm State:  0
Mon Feb 26 03:31:26 PST 2024 ON: 19.99 +20.0 19.98 -12.8 30.6 06 0A 0007 1307 Alarm State:  0
Mon Feb 26 03:30:24 PST 2024 ON: 20.00 +20.0 19.99 -12.8 30.7 06 0A 0011 1307 Alarm State:  0
Mon Feb 26 03:29:23 PST 2024 ON: 19.99 +20.0 20.00 -12.8 30.7 06 09 001C 1315 Alarm State:  0
Mon Feb 26 03:28:21 PST 2024 ON: 20.00 +20.0 19.98 -12.7 30.7 06 0A 0026 1220 Alarm State:  0
Mon Feb 26 03:27:20 PST 2024 ON: 20.00 +20.0 20.01 -12.7 30.7 06 09 0029 140C Alarm State:  0
Mon Feb 26 03:26:18 PST 2024 ON: 19.99 +20.0 19.99 -12.8 30.7 06 0A 0000 1401 Alarm State:  0
Mon Feb 26 03:25:17 PST 2024 ON: 19.98 +20.0 19.99 -12.8 30.8 06 0A 000B 1316 Alarm State:  0
Mon Feb 26 03:24:15 PST 2024 ON: 20.00 +20.0 20.00 -12.7 30.8 06 09 0015 1221 Alarm State:  0
Mon Feb 26 03:23:14 PST 2024 ON: 19.99 +20.0 19.99 -12.7 30.7 06 09 0020 1215 Alarm State:  0
Mon Feb 26 03:22:12 PST 2024 ON: 20.00 +20.0 19.98 -12.7 30.7 06 0A 002A 1307 Alarm State:  0
Mon Feb 26 03:21:11 PST 2024 ON: 19.99 +20.0 20.00 -12.8 30.7 06 0A 0003 1412 Alarm State:  0
Mon Feb 26 03:20:09 PST 2024 ON: 19.99 +20.0 20.00 -12.8 30.8 06 09 000D 1309 Alarm State:  0
Mon Feb 26 03:18:58 PST 2024 ON: 20.00 +20.0 20.01 -12.7 30.7 08 09 0022 130A Alarm State:  0
Mon Feb 26 03:17:56 PST 2024 ON: 19.98 +20.0 19.99 -12.8 30.7 06 0A 002C 1315 Alarm State:  0
Mon Feb 26 03:16:55 PST 2024 ON: 19.99 +20.0 19.99 -12.8 30.7 06 09 0004 1209 Alarm State:  0
Mon Feb 26 03:15:53 PST 2024 ON: 19.98 +20.0 19.96 -12.8 30.7 06 0A 000E 1100 Alarm State:  0
Mon Feb 26 03:14:52 PST 2024 ON: 20.01 +20.0 19.98 -12.7 30.7 03 09 0017 110F Alarm State:  0
Mon Feb 26 03:13:50 PST 2024 ON: 20.00 +20.0 19.99 -12.8 30.7 06 09 0013 121D Alarm State:  0
Mon Feb 26 03:12:49 PST 2024 ON: 19.99 +20.0 19.98 -12.7 30.7 06 0A 001E 130C Alarm State:  0
Mon Feb 26 03:11:47 PST 2024 ON: 19.99 +20.0 19.99 -12.8 30.7 06 0A 0028 1301 Alarm State:  0
Mon Feb 26 03:10:46 PST 2024 ON: 19.99 +20.0 19.99 -12.8 30.6 06 09 0000 1127 Alarm State:  0
Mon Feb 26 03:09:44 PST 2024 ON: 20.00 +20.0 19.99 -12.7 30.7 01 09 000A 1122 Alarm State:  0
Mon Feb 26 03:08:43 PST 2024 ON: 20.00 +20.0 19.99 -12.7 30.8 06 0A 0015 1304 Alarm State:  0
Mon Feb 26 03:07:41 PST 2024 ON: 19.99 +20.0 19.98 -12.8 30.7 06 0A 001D 1301 Alarm State:  0
Mon Feb 26 03:06:40 PST 2024 ON: 20.00 +20.0 19.99 -12.8 30.7 06 09 0028 1217 Alarm State:  0
Mon Feb 26 03:05:38 PST 2024 ON: 20.00 +20.0 19.99 -12.8 30.7 06 09 0032 1214 Alarm State:  0
Mon Feb 26 03:04:37 PST 2024 ON: 20.00 +20.0 20.00 -12.8 30.6 06 0A 0002 1400 Alarm State:  0
Mon Feb 26 03:03:35 PST 2024 ON: 19.99 +20.0 19.99 -12.8 30.7 06 0A 000C 1317 Alarm State:  0
Mon Feb 26 03:02:34 PST 2024 ON: 19.99 +20.0 19.99 -12.7 30.7 06 09 0017 1231 Alarm State:  0
Mon Feb 26 03:01:32 PST 2024 ON: 20.00 +20.0 19.98 -12.7 30.7 06 0A 0021 1309 Alarm State:  0
Mon Feb 26 03:00:31 PST 2024 ON: 19.99 +20.0 19.98 -12.7 30.7 06 0A 001C 131A Alarm State:  0
Mon Feb 26 02:59:29 PST 2024 ON: 19.99 +20.0 19.99 -12.7 30.7 06 0A 0026 131B Alarm State:  0
Mon Feb 26 02:58:28 PST 2024 ON: 20.00 +20.0 19.99 -12.8 30.7 06 09 0031 1225 Alarm State:  0
Mon Feb 26 02:57:26 PST 2024 ON: 19.99 +20.0 19.98 -12.8 30.6 03 0A 0008 1224 Alarm State:  0
Mon Feb 26 02:56:25 PST 2024 ON: 20.00 +20.0 19.99 -12.8 30.6 06 0A 0013 1300 Alarm State:  0
Mon Feb 26 02:55:23 PST 2024 ON: 19.99 +20.0 19.99 -12.8 30.8 06 0A 001D 1311 Alarm State:  0
Mon Feb 26 02:54:22 PST 2024 ON: 19.99 +20.0 20.02 -12.8 30.6 06 08 0028 131B Alarm State:  0
Mon Feb 26 02:53:20 PST 2024 ON: 20.00 +20.0 19.99 -12.8 30.7 06 0A 0032 1302 Alarm State:  0
Mon Feb 26 02:52:19 PST 2024 ON: 19.99 +20.0 19.98 -12.7 30.7 06 0A 000A 122E Alarm State:  0
Mon Feb 26 02:51:17 PST 2024 ON: 20.00 +20.0 19.98 -12.8 30.7 06 0A 0012 130A Alarm State:  0
Mon Feb 26 02:50:16 PST 2024 ON: 19.99 +20.0 19.98 -12.8 30.7 06 0A 001D 1319 Alarm State:  0
Mon Feb 26 02:49:14 PST 2024 ON: 19.99 +20.0 20.01 -12.8 30.7 06 09 0027 132D Alarm State:  0
Mon Feb 26 02:48:13 PST 2024 ON: 19.98 +20.0 19.99 -12.8 30.7 06 09 0032 1221 Alarm State:  0
Mon Feb 26 02:47:11 PST 2024 ON: 20.00 +20.0 19.99 -12.8 30.6 06 09 0009 1201 Alarm State:  0
Mon Feb 26 02:46:10 PST 2024 ON: 19.99 +20.0 20.00 -12.8 30.6 06 09 0014 1314 Alarm State:  0
Mon Feb 26 02:45:08 PST 2024 ON: 19.99 +20.0 20.01 -12.8 30.7 06 09 001E 1311 Alarm State:  0
Mon Feb 26 02:44:07 PST 2024 ON: 20.00 +20.0 19.99 -12.7 30.7 06 0A 0029 1310 Alarm State:  0
Mon Feb 26 02:43:05 PST 2024 ON: 19.99 +20.0 19.97 -12.8 30.7 06 0B 0000 1307 Alarm State:  0
Mon Feb 26 02:42:04 PST 2024 ON: 19.99 +20.0 20.00 -12.8 30.6 06 09 000B 131A Alarm State:  0
Mon Feb 26 02:41:02 PST 2024 ON: 19.99 +20.0 20.00 -12.8 30.6 06 09 0015 1311 Alarm State:  0
Mon Feb 26 02:40:01 PST 2024 ON: 19.99 +20.0 19.98 -12.8 30.6 06 0A 0020 122B Alarm State:  0
Mon Feb 26 02:38:59 PST 2024 ON: 20.00 +20.0 20.00 -12.8 30.7 06 09 0028 1319 Alarm State:  0
Mon Feb 26 02:37:58 PST 2024 ON: 19.99 +20.0 20.00 -12.8 30.7 06 09 0000 1227 Alarm State:  0
Mon Feb 26 02:36:56 PST 2024 ON: 19.99 +20.0 19.99 -12.8 30.6 06 09 000A 122A Alarm State:  0
Mon Feb 26 02:35:55 PST 2024 ON: 19.99 +20.0 19.99 -12.8 30.7 06 0A 0015 131B Alarm State:  0
Mon Feb 26 02:34:53 PST 2024 ON: 20.00 +20.0 20.00 -12.8 30.7 06 09 001F 131A Alarm State:  0
Mon Feb 26 02:33:52 PST 2024 ON: 19.99 +20.0 19.98 -12.8 30.7 06 0A 002A 131A Alarm State:  0
Mon Feb 26 02:32:50 PST 2024 ON: 19.99 +20.0 19.99 -12.8 30.6 06 0A 0001 131F Alarm State:  0
Mon Feb 26 02:31:49 PST 2024 ON: 19.99 +20.0 20.00 -12.8 30.6 06 09 000C 132C Alarm State:  0
Mon Feb 26 02:30:47 PST 2024 ON: 19.99 +20.0 19.98 -12.8 30.6 06 0A 0016 1221 Alarm State:  0
Mon Feb 26 02:29:46 PST 2024 ON: 19.99 +20.0 19.98 -12.8 30.6 06 09 0021 1115 Alarm State:  0
Mon Feb 26 02:28:44 PST 2024 ON: 20.00 +20.0 19.99 -12.8 30.7 06 09 002B 1205 Alarm State:  0
Mon Feb 26 02:27:43 PST 2024 ON: 20.00 +20.0 19.99 -12.8 30.7 06 0A 0032 131A Alarm State:  0
Mon Feb 26 02:26:41 PST 2024 ON: 20.00 +20.0 20.03 -12.7 30.6 06 09 0019 1505 Alarm State:  0
Mon Feb 26 02:25:40 PST 2024 ON: 19.99 +20.0 20.02 -12.8 30.6 06 09 0024 141D Alarm State:  0
Mon Feb 26 02:24:38 PST 2024 ON: 20.00 +20.0 19.98 -12.7 30.7 06 0A 002E 1314 Alarm State:  0
Mon Feb 26 02:23:37 PST 2024 ON: 19.99 +20.0 19.99 -12.8 30.6 03 09 0006 1222 Alarm State:  0
Mon Feb 26 02:22:35 PST 2024 ON: 19.99 +20.0 20.01 -12.8 30.7 06 08 0010 122B Alarm State:  0
Mon Feb 26 02:21:34 PST 2024 ON: 20.00 +20.0 20.00 -12.7 30.7 06 0A 0005 140F Alarm State:  0
Mon Feb 26 02:20:32 PST 2024 ON: 19.99 +20.0 20.00 -12.8 30.6 06 09 000F 132D Alarm State:  0
Mon Feb 26 02:19:31 PST 2024 ON: 19.99 +20.0 20.00 -12.8 30.7 06 09 001A 1310 Alarm State:  0
Mon Feb 26 02:18:29 PST 2024 ON: 19.99 +20.0 19.97 -12.8 30.7 06 0A 0024 1205 Alarm State:  0
Mon Feb 26 02:17:28 PST 2024 ON: 20.00 +20.0 20.00 -12.8 30.7 06 09 002F 1220 Alarm State:  0
Mon Feb 26 02:16:26 PST 2024 ON: 20.00 +20.0 19.98 -12.8 30.7 06 0A 002F 1324 Alarm State:  0
Mon Feb 26 02:15:25 PST 2024 ON: 19.99 +20.0 19.99 -12.7 30.6 06 0A 0007 1405 Alarm State:  0
Mon Feb 26 02:14:23 PST 2024 ON: 19.99 +20.0 19.99 -12.8 30.6 06 09 0011 122E Alarm State:  0
Mon Feb 26 02:13:22 PST 2024 ON: 19.99 +20.0 19.97 -12.8 30.7 06 0A 001C 1122 Alarm State:  0
Mon Feb 26 02:12:20 PST 2024 ON: 20.00 +20.0 19.98 -12.8 30.7 06 0A 0026 1208 Alarm State:  0
Mon Feb 26 02:11:18 PST 2024 ON: 20.00 +20.0 19.99 -12.8 30.7 06 0A 001F 131D Alarm State:  0
Mon Feb 26 02:10:17 PST 2024 ON: 19.99 +20.0 20.00 -12.8 30.6 06 0A 0029 1427 Alarm State:  0
Mon Feb 26 02:09:15 PST 2024 ON: 19.99 +20.0 19.98 -12.8 30.7 06 0A 0001 132F Alarm State:  0
Mon Feb 26 02:08:14 PST 2024 ON: 20.00 +20.0 20.00 -12.8 30.7 06 09 000C 1309 Alarm State:  0
Mon Feb 26 02:07:12 PST 2024 ON: 20.00 +20.0 20.00 -12.8 30.7 06 09 0016 1224 Alarm State:  0
Mon Feb 26 02:06:11 PST 2024 ON: 20.00 +20.0 19.99 -12.7 30.6 06 0A 0021 130D Alarm State:  0
Mon Feb 26 02:05:09 PST 2024 ON: 19.99 +20.0 20.00 -12.8 30.6 06 0A 0019 140D Alarm State:  0
Mon Feb 26 02:04:08 PST 2024 ON: 19.99 +20.0 19.99 -12.8 30.7 06 0A 0024 1311 Alarm State:  0
Mon Feb 26 02:03:06 PST 2024 ON: 19.99 +20.0 19.99 -12.8 30.7 06 09 002E 1222 Alarm State:  0
Mon Feb 26 02:02:05 PST 2024 ON: 20.00 +20.0 20.00 -12.8 30.7 06 09 0000 1313 Alarm State:  0
Mon Feb 26 02:01:03 PST 2024 ON: 19.99 +20.0 20.01 -12.8 30.6 06 09 0006 1409 Alarm State:  0
Mon Feb 26 02:00:02 PST 2024 ON: 19.99 +20.0 19.97 -12.8 30.7 06 0B 0011 1305 Alarm State:  0
Mon Feb 26 01:59:00 PST 2024 ON: 19.99 +20.0 19.97 -12.8 30.6 06 0A 001B 112C Alarm State:  0
Mon Feb 26 01:57:59 PST 2024 ON: 20.00 +20.0 20.00 -12.8 30.7 06 09 0024 1304 Alarm State:  0
Mon Feb 26 01:56:57 PST 2024 ON: 20.00 +20.0 20.00 -12.8 30.7 06 0A 002E 1404 Alarm State:  0
Mon Feb 26 01:55:56 PST 2024 ON: 19.99 +20.0 19.99 -12.8 30.6 06 0A 0006 1326 Alarm State:  0
Mon Feb 26 01:54:54 PST 2024 ON: 19.99 +20.0 19.99 -12.8 30.6 03 0A 0010 131D Alarm State:  0
Mon Feb 26 01:53:53 PST 2024 ON: 19.99 +20.0 19.99 -12.8 30.6 06 09 001B 1211 Alarm State:  0
Mon Feb 26 01:52:51 PST 2024 ON: 19.99 +20.0 19.98 -12.7 30.6 06 0A 0025 1221 Alarm State:  0
Mon Feb 26 01:51:50 PST 2024 ON: 20.00 +20.0 20.00 -12.8 30.7 06 09 0030 1308 Alarm State:  0
Mon Feb 26 01:50:48 PST 2024 ON: 20.00 +20.0 20.01 -12.8 30.7 06 09 0005 140C Alarm State:  0
Mon Feb 26 01:49:47 PST 2024 ON: 19.99 +20.0 20.00 -12.8 30.6 06 0A 0010 1408 Alarm State:  0
Mon Feb 26 01:48:45 PST 2024 ON: 19.99 +20.0 19.97 -12.8 30.7 06 0A 001A 122F Alarm State:  0
Mon Feb 26 01:47:44 PST 2024 ON: 20.00 +20.0 19.99 -12.7 30.7 06 09 0025 112B Alarm State:  0
Mon Feb 26 01:46:42 PST 2024 ON: 20.01 +20.0 20.00 -12.8 30.7 06 09 002F 1304 Alarm State:  0
Mon Feb 26 01:45:41 PST 2024 ON: 20.00 +20.0 19.99 -12.8 30.7 06 0A 0005 1316 Alarm State:  0
Mon Feb 26 01:44:39 PST 2024 ON: 19.99 +20.0 20.01 -12.7 30.7 06 09 0001 1324 Alarm State:  0
Mon Feb 26 01:43:38 PST 2024 ON: 19.99 +20.0 19.98 -12.8 30.8 06 0A 000C 121C Alarm State:  0
Mon Feb 26 01:42:36 PST 2024 ON: 20.00 +20.0 20.00 -12.8 30.7 06 09 0016 1322 Alarm State:  0
Mon Feb 26 01:41:35 PST 2024 ON: 19.99 +20.0 19.98 -12.8 30.7 06 0A 0021 121A Alarm State:  0
Mon Feb 26 01:40:33 PST 2024 ON: 20.00 +20.0 20.01 -12.8 30.7 06 09 0025 1318 Alarm State:  0
Mon Feb 26 01:39:32 PST 2024 ON: 19.99 +20.0 20.00 -12.8 30.8 06 0A 001C 1403 Alarm State:  0
Mon Feb 26 01:38:30 PST 2024 ON: 20.00 +20.0 20.00 -12.8 30.6 06 09 0026 1304 Alarm State:  0
Mon Feb 26 01:37:29 PST 2024 ON: 19.99 +20.0 20.00 -12.8 30.7 06 09 0031 1222 Alarm State:  0
Mon Feb 26 01:36:27 PST 2024 ON: 20.00 +20.0 20.00 -12.7 30.7 01 09 0008 130A Alarm State:  0
Mon Feb 26 01:35:26 PST 2024 ON: 20.00 +20.0 19.98 -12.8 30.6 06 0A 0013 121A Alarm State:  0
Mon Feb 26 01:34:24 PST 2024 ON: 20.00 +20.0 20.00 -12.8 30.7 06 0A 0003 1403 Alarm State:  0
Mon Feb 26 01:33:23 PST 2024 ON: 19.99 +20.0 20.00 -12.8 30.6 06 0A 000E 140D Alarm State:  0
Mon Feb 26 01:32:21 PST 2024 ON: 19.99 +20.0 19.98 -12.8 30.7 06 0A 0018 1302 Alarm State:  0
Mon Feb 26 01:31:20 PST 2024 ON: 20.00 +20.0 19.98 -12.8 30.6 06 0A 0023 121B Alarm State:  0
Mon Feb 26 01:30:18 PST 2024 ON: 20.00 +20.0 20.01 -12.8 30.7 06 08 002D 1227 Alarm State:  0
Mon Feb 26 01:29:17 PST 2024 ON: 19.99 +20.0 19.98 -12.8 30.6 06 0A 0005 1212 Alarm State:  0
Mon Feb 26 01:28:15 PST 2024 ON: 20.00 +20.0 20.00 -12.8 30.7 06 09 000D 1316 Alarm State:  0
Mon Feb 26 01:27:14 PST 2024 ON: 20.00 +20.0 19.99 -12.8 30.6 06 0A 0018 131B Alarm State:  0
Mon Feb 26 01:26:12 PST 2024 ON: 19.99 +20.0 19.99 -12.8 30.7 06 0A 0022 131B Alarm State:  0
Mon Feb 26 01:25:11 PST 2024 ON: 20.00 +20.0 20.00 -12.8 30.7 06 09 002D 1314 Alarm State:  0
Mon Feb 26 01:24:09 PST 2024 ON: 19.99 +20.0 20.00 -12.7 30.7 06 09 0004 121D Alarm State:  0
Mon Feb 26 01:23:08 PST 2024 ON: 20.00 +20.0 20.00 -12.8 30.7 06 09 000F 1309 Alarm State:  0
Mon Feb 26 01:22:06 PST 2024 ON: 20.00 +20.0 20.01 -12.8 30.7 06 09 0019 1305 Alarm State:  0
Mon Feb 26 01:21:05 PST 2024 ON: 20.00 +20.0 20.01 -12.8 30.7 06 09 0024 130C Alarm State:  0
Mon Feb 26 01:20:03 PST 2024 ON: 20.00 +20.0 20.01 -12.8 30.7 06 09 002A 1325 Alarm State:  0
Mon Feb 26 01:19:02 PST 2024 ON: 19.99 +20.0 20.02 -12.8 30.7 06 08 0002 132E Alarm State:  0
Mon Feb 26 01:18:00 PST 2024 ON: 19.99 +20.0 19.98 -12.8 30.7 06 0A 000C 1223 Alarm State:  0
Mon Feb 26 01:16:59 PST 2024 ON: 20.00 +20.0 19.99 -12.8 30.7 06 09 0017 121B Alarm State:  0
Mon Feb 26 01:15:57 PST 2024 ON: 20.00 +20.0 19.99 -12.8 30.6 06 09 0021 1216 Alarm State:  0
Mon Feb 26 01:14:46 PST 2024 ON: 20.00 +20.0 20.02 -12.8 30.7 06 09 002F 140C Alarm State:  0
Mon Feb 26 01:13:44 PST 2024 ON: 19.99 +20.0 20.00 -12.8 30.7 06 0A 0006 1414 Alarm State:  0
Mon Feb 26 01:12:43 PST 2024 ON: 19.99 +20.0 19.99 -12.8 30.7 06 0A 0011 1308 Alarm State:  0
Mon Feb 26 01:11:41 PST 2024 ON: 20.00 +20.0 19.98 -12.8 30.8 06 0A 001B 120C Alarm State:  0
Mon Feb 26 01:10:40 PST 2024 ON: 20.00 +20.0 19.99 -12.8 30.7 06 0A 0026 1309 Alarm State:  0
Mon Feb 26 01:09:38 PST 2024 ON: 19.99 +20.0 20.01 -12.8 30.7 06 09 0030 140B Alarm State:  0
Mon Feb 26 01:08:37 PST 2024 ON: 19.99 +20.0 19.99 -12.8 30.7 06 09 0008 1231 Alarm State:  0
Mon Feb 26 01:07:35 PST 2024 ON: 20.00 +20.0 19.98 -12.8 30.6 06 09 0012 1128 Alarm State:  0
Mon Feb 26 01:06:34 PST 2024 ON: 20.00 +20.0 20.00 -12.8 30.6 06 09 001D 1314 Alarm State:  0
Mon Feb 26 01:05:32 PST 2024 ON: 20.00 +20.0 19.99 -12.8 30.7 06 0A 0027 130B Alarm State:  0
Mon Feb 26 01:04:31 PST 2024 ON: 19.99 +20.0 19.99 -12.8 30.6 06 0A 0032 1309 Alarm State:  0
Mon Feb 26 01:03:19 PST 2024 ON: 19.99 +20.0 19.98 -12.8 30.7 06 09 0013 1126 Alarm State:  0
Mon Feb 26 01:02:18 PST 2024 ON: 19.99 +20.0 19.99 -12.8 30.7 06 09 001E 1213 Alarm State:  0
Mon Feb 26 01:01:16 PST 2024 ON: 20.01 +20.0 20.01 -12.8 30.7 06 09 0006 131D Alarm State:  0
Mon Feb 26 01:00:15 PST 2024 ON: 19.99 +20.0 20.00 -12.8 30.8 06 0A 000F 1420 Alarm State:  0
Mon Feb 26 00:59:13 PST 2024 ON: 19.99 +20.0 20.00 -12.8 30.7 06 09 0019 131B Alarm State:  0
Mon Feb 26 00:58:12 PST 2024 ON: 20.00 +20.0 19.97 -12.8 30.7 06 0A 0024 1217 Alarm State:  0
Mon Feb 26 00:57:10 PST 2024 ON: 20.00 +20.0 20.00 -12.8 30.7 06 09 002E 121E Alarm State:  0
Mon Feb 26 00:56:09 PST 2024 ON: 20.00 +20.0 20.02 -12.8 30.7 06 08 0006 1309 Alarm State:  0
Mon Feb 26 00:55:07 PST 2024 ON: 19.99 +20.0 19.98 -12.8 30.6 06 0A 000E 1322 Alarm State:  0
Mon Feb 26 00:54:06 PST 2024 ON: 19.99 +20.0 20.01 -12.8 30.7 06 09 0019 131C Alarm State:  0
Mon Feb 26 00:53:04 PST 2024 ON: 20.00 +20.0 20.00 -12.8 30.7 06 09 0023 1223 Alarm State:  0
Mon Feb 26 00:52:03 PST 2024 ON: 20.00 +20.0 20.01 -12.8 30.7 06 08 002E 121D Alarm State:  0
Mon Feb 26 00:51:01 PST 2024 ON: 20.00 +20.0 19.99 -12.8 30.9 06 09 0105 1214 Alarm State:  0
Mon Feb 26 00:50:00 PST 2024 ON: 19.99 +20.0 19.99 -12.8 30.6 06 0A 0021 130D Alarm State:  0
Mon Feb 26 00:48:58 PST 2024 ON: 20.00 +20.0 19.98 -12.8 30.6 06 0A 002B 1214 Alarm State:  0
Mon Feb 26 00:47:56 PST 2024 ON: 19.99 +20.0 19.97 -12.8 30.7 06 0A 0003 121D Alarm State:  0
Mon Feb 26 00:46:55 PST 2024 ON: 19.99 +20.0 19.99 -12.8 30.8 06 09 000E 1221 Alarm State:  0
Mon Feb 26 00:45:53 PST 2024 ON: 20.00 +20.0 20.00 -12.8 30.7 06 09 0018 130B Alarm State:  0
Mon Feb 26 00:44:52 PST 2024 ON: 19.99 +20.0 20.00 -12.8 30.6 03 09 0023 1323 Alarm State:  0
Mon Feb 26 00:43:50 PST 2024 ON: 20.00 +20.0 19.99 -12.8 30.7 06 0A 002D 132A Alarm State:  0
Mon Feb 26 00:42:49 PST 2024 ON: 19.99 +20.0 19.99 -12.8 30.7 06 0A 0005 1300 Alarm State:  0
Mon Feb 26 00:41:37 PST 2024 ON: 19.99 +20.0 19.99 -12.8 30.8 01 09 0019 1215 Alarm State:  0
Mon Feb 26 00:40:36 PST 2024 ON: 19.99 +20.0 19.99 -12.8 30.7 06 09 0024 122C Alarm State:  0
Mon Feb 26 00:39:34 PST 2024 ON: 19.99 +20.0 19.97 -12.8 30.7 06 0A 002E 122C Alarm State:  0
Mon Feb 26 00:38:33 PST 2024 ON: 20.00 +20.0 19.98 -12.8 30.7 06 0A 0006 1222 Alarm State:  0
Mon Feb 26 00:37:31 PST 2024 ON: 20.00 +20.0 20.00 -12.8 30.7 06 09 0010 1320 Alarm State:  0
Mon Feb 26 00:36:30 PST 2024 ON: 19.99 +20.0 19.99 -12.8 30.7 06 0A 001B 130D Alarm State:  0
Mon Feb 26 00:35:28 PST 2024 ON: 19.99 +20.0 19.97 -12.8 30.7 06 0A 0025 1202 Alarm State:  0
Mon Feb 26 00:34:27 PST 2024 ON: 20.00 +20.0 19.98 -12.8 30.8 06 09 0030 1112 Alarm State:  0
Mon Feb 26 00:33:25 PST 2024 ON: 20.00 +20.0 19.99 -12.8 30.7 06 09 0007 1204 Alarm State:  0
Mon Feb 26 00:32:24 PST 2024 ON: 20.00 +20.0 19.99 -12.7 30.7 06 0A 0031 1313 Alarm State:  0
Mon Feb 26 00:31:22 PST 2024 ON: 20.00 +20.0 20.00 -12.8 30.7 06 09 0008 132D Alarm State:  0
Mon Feb 26 00:30:21 PST 2024 ON: 19.99 +20.0 19.98 -12.8 30.7 06 0A 0013 1227 Alarm State:  0
Mon Feb 26 00:29:19 PST 2024 ON: 20.00 +20.0 20.00 -12.8 30.7 06 09 001D 1305 Alarm State:  0
Mon Feb 26 00:28:18 PST 2024 ON: 19.99 +20.0 20.00 -12.8 30.7 06 09 0028 1229 Alarm State:  0
Mon Feb 26 00:27:16 PST 2024 ON: 20.00 +20.0 19.98 -12.8 30.6 03 0A 0032 121D Alarm State:  0
Mon Feb 26 00:26:15 PST 2024 ON: 19.99 +20.0 19.97 -12.8 30.7 06 0A 000A 121A Alarm State:  0
Mon Feb 26 00:25:13 PST 2024 ON: 20.00 +20.0 20.01 -12.8 30.6 06 09 0014 1312 Alarm State:  0
Mon Feb 26 00:24:12 PST 2024 ON: 19.99 +20.0 20.00 -12.8 30.6 06 09 001F 1324 Alarm State:  0
Mon Feb 26 00:23:10 PST 2024 ON: 19.99 +20.0 19.99 -12.8 30.7 06 09 0029 1227 Alarm State:  0
Mon Feb 26 00:22:09 PST 2024 ON: 19.99 +20.0 19.97 -12.8 30.7 01 0A 0001 111D Alarm State:  0
Mon Feb 26 00:21:07 PST 2024 ON: 20.00 +20.0 19.98 -12.8 30.7 01 0A 000B 1209 Alarm State:  0
Mon Feb 26 00:20:06 PST 2024 ON: 19.99 +20.0 19.99 -12.8 30.7 06 0A 000A 1316 Alarm State:  0
Mon Feb 26 00:19:04 PST 2024 ON: 20.00 +20.0 20.00 -12.8 30.7 06 09 0014 130B Alarm State:  0
Mon Feb 26 00:18:03 PST 2024 ON: 20.00 +20.0 19.99 -12.8 30.6 06 09 001F 1223 Alarm State:  0
Mon Feb 26 00:17:01 PST 2024 ON: 20.00 +20.0 19.99 -12.8 30.6 06 0A 0019 1327 Alarm State:  0
Mon Feb 26 00:16:00 PST 2024 ON: 19.99 +20.0 19.99 -12.8 30.6 06 09 0024 1228 Alarm State:  0
Mon Feb 26 00:14:58 PST 2024 ON: 20.00 +20.0 19.98 -12.8 30.7 06 0A 002E 121F Alarm State:  0
Mon Feb 26 00:13:57 PST 2024 ON: 19.99 +20.0 20.01 -12.8 30.6 06 09 0004 1405 Alarm State:  0
Mon Feb 26 00:12:55 PST 2024 ON: 19.99 +20.0 20.00 -12.8 30.7 06 09 000E 130E Alarm State:  0
Mon Feb 26 00:11:54 PST 2024 ON: 19.99 +20.0 19.99 -12.8 30.7 06 09 0019 1204 Alarm State:  0
Mon Feb 26 00:10:52 PST 2024 ON: 19.99 +20.0 19.99 -12.8 30.6 06 09 0023 120D Alarm State:  0
Mon Feb 26 00:09:51 PST 2024 ON: 20.00 +20.0 19.99 -12.8 30.7 06 0A 002C 1306 Alarm State:  0
Mon Feb 26 00:08:49 PST 2024 ON: 20.00 +20.0 20.01 -12.8 30.6 06 09 002C 140E Alarm State:  0
Mon Feb 26 00:07:48 PST 2024 ON: 19.99 +20.0 19.99 -12.8 30.7 06 0A 0004 1326 Alarm State:  0
Mon Feb 26 00:06:46 PST 2024 ON: 19.99 +20.0 19.99 -12.8 30.7 06 09 000E 122B Alarm State:  0
Mon Feb 26 00:05:45 PST 2024 ON: 20.00 +20.0 19.98 -12.8 30.6 06 0A 0019 1306 Alarm State:  0
Mon Feb 26 00:04:43 PST 2024 ON: 20.00 +20.0 20.00 -12.8 30.7 06 09 0023 1302 Alarm State:  0
Mon Feb 26 00:03:42 PST 2024 ON: 19.99 +20.0 19.99 -12.8 30.7 06 09 002E 1228 Alarm State:  0
Mon Feb 26 00:02:40 PST 2024 ON: 20.00 +20.0 20.00 -12.8 30.7 06 09 0032 1302 Alarm State:  0
Mon Feb 26 00:01:39 PST 2024 ON: 20.00 +20.0 20.01 -12.8 30.7 06 09 000A 1413 Alarm State:  0
Mon Feb 26 00:00:37 PST 2024 ON: 19.99 +20.0 20.01 -12.7 30.7 06 09 0014 1314 Alarm State:  0
Sun Feb 25 23:59:36 PST 2024 ON: 19.99 +20.0 20.00 -12.8 30.8 06 09 001F 1208 Alarm State:  0
Sun Feb 25 23:58:34 PST 2024 ON: 20.00 +20.0 19.99 -12.8 30.7 06 0A 0029 1308 Alarm State:  0
Sun Feb 25 23:57:33 PST 2024 ON: 19.99 +20.0 20.00 -12.8 30.6 06 09 0001 122C Alarm State:  0
Sun Feb 25 23:56:31 PST 2024 ON: 20.00 +20.0 19.99 -12.8 30.7 06 0A 000B 1312 Alarm State:  0
Sun Feb 25 23:55:30 PST 2024 ON: 19.99 +20.0 19.99 -12.8 30.6 06 0A 000E 1331 Alarm State:  0
Sun Feb 25 23:54:28 PST 2024 ON: 20.00 +20.0 19.99 -12.8 30.6 06 0A 0018 132C Alarm State:  0
Sun Feb 25 23:53:27 PST 2024 ON: 19.99 +20.0 19.99 -12.8 30.7 06 0A 0023 1306 Alarm State:  0
Sun Feb 25 23:52:25 PST 2024 ON: 19.99 +20.0 19.98 -12.8 30.7 06 0A 002D 1303 Alarm State:  0
Sun Feb 25 23:51:24 PST 2024 ON: 19.99 +20.0 19.98 -12.8 30.7 06 0A 0005 122F Alarm State:  0
Sun Feb 25 23:50:22 PST 2024 ON: 20.00 +20.0 19.99 -12.8 30.6 06 0A 000F 1309 Alarm State:  0
Sun Feb 25 23:49:21 PST 2024 ON: 20.00 +20.0 20.00 -12.8 30.7 06 09 001A 1327 Alarm State:  0
Sun Feb 25 23:48:19 PST 2024 ON: 20.00 +20.0 20.02 -12.8 30.6 06 08 0024 131E Alarm State:  0
Sun Feb 25 23:47:17 PST 2024 ON: 19.99 +20.0 19.99 -12.8 30.7 06 0A 002F 1325 Alarm State:  0
Sun Feb 25 23:46:16 PST 2024 ON: 19.99 +20.0 19.99 -12.8 30.7 06 0A 0006 1316 Alarm State:  0
Sun Feb 25 23:45:14 PST 2024 ON: 19.99 +20.0 20.00 -12.8 30.6 06 09 0011 122E Alarm State:  0
Sun Feb 25 23:44:13 PST 2024 ON: 20.00 +20.0 20.00 -12.8 30.6 06 09 001B 1308 Alarm State:  0
Sun Feb 25 23:43:11 PST 2024 ON: 19.99 +20.0 19.99 -12.8 30.6 06 0A 0026 130C Alarm State:  0
Sun Feb 25 23:42:10 PST 2024 ON: 19.99 +20.0 19.99 -12.8 30.7 06 0A 0030 1316 Alarm State:  0
Sun Feb 25 23:41:08 PST 2024 ON: 20.00 +20.0 20.01 -12.8 30.7 06 09 0002 1328 Alarm State:  0
Sun Feb 25 23:40:07 PST 2024 ON: 20.00 +20.0 20.01 -12.8 30.6 01 09 000C 1411 Alarm State:  0
Sun Feb 25 23:39:05 PST 2024 ON: 19.99 +20.0 20.01 -12.8 30.8 06 09 0017 130F Alarm State:  0
Sun Feb 25 23:38:04 PST 2024 ON: 20.00 +20.0 19.98 -12.7 30.7 06 0A 0021 1206 Alarm State:  0
Sun Feb 25 23:37:02 PST 2024 ON: 20.00 +20.0 19.99 -12.8 30.7 06 0A 002C 130D Alarm State:  0
Sun Feb 25 23:36:01 PST 2024 ON: 19.99 +20.0 19.99 -12.8 30.6 06 0A 0003 132F Alarm State:  0
Sun Feb 25 23:34:59 PST 2024 ON: 19.99 +20.0 19.99 -12.8 30.7 06 0A 000E 131A Alarm State:  0
Sun Feb 25 23:33:58 PST 2024 ON: 19.99 +20.0 19.97 -12.8 30.7 06 0B 0018 1320 Alarm State:  0
Sun Feb 25 23:32:56 PST 2024 ON: 19.99 +20.0 19.99 -12.8 30.7 06 09 0023 122A Alarm State:  0
Sun Feb 25 23:31:55 PST 2024 ON: 19.99 +20.0 19.98 -12.8 30.6 06 0A 002D 1222 Alarm State:  0
Sun Feb 25 23:30:53 PST 2024 ON: 19.99 +20.0 19.98 -12.8 30.6 06 0A 0005 120A Alarm State:  0
Sun Feb 25 23:29:52 PST 2024 ON: 20.01 +20.0 20.00 -12.8 30.7 06 09 0028 130C Alarm State:  0
Sun Feb 25 23:28:50 PST 2024 ON: 19.99 +20.0 20.01 -12.8 30.6 06 09 0027 1417 Alarm State:  0
Sun Feb 25 23:27:49 PST 2024 ON: 19.99 +20.0 20.01 -12.8 30.6 06 09 0031 1322 Alarm State:  0
Sun Feb 25 23:26:47 PST 2024 ON: 19.99 +20.0 20.00 -12.8 30.7 06 09 0009 1322 Alarm State:  0
Sun Feb 25 23:25:46 PST 2024 ON: 19.99 +20.0 20.00 -12.8 30.7 06 09 0013 130B Alarm State:  0
Sun Feb 25 23:24:44 PST 2024 ON: 20.00 +20.0 19.99 -12.8 30.6 06 0A 001E 1318 Alarm State:  0
Sun Feb 25 23:23:43 PST 2024 ON: 20.00 +20.0 19.98 -12.8 30.6 06 0A 0028 1319 Alarm State:  0
Sun Feb 25 23:22:41 PST 2024 ON: 19.99 +20.0 20.00 -12.8 30.6 06 09 0000 1316 Alarm State:  0
Sun Feb 25 23:21:40 PST 2024 ON: 19.99 +20.0 19.98 -12.7 30.7 06 0A 000A 1213 Alarm State:  0
Sun Feb 25 23:20:38 PST 2024 ON: 20.00 +20.0 19.99 -12.8 30.6 06 09 0015 121F Alarm State:  0
Sun Feb 25 23:19:37 PST 2024 ON: 20.00 +20.0 20.00 -12.8 30.7 06 0A 001F 140A Alarm State:  0
Sun Feb 25 23:18:35 PST 2024 ON: 19.99 +20.0 19.99 -12.8 30.6 06 0A 002A 1322 Alarm State:  0
Sun Feb 25 23:17:34 PST 2024 ON: 20.00 +20.0 20.02 -12.8 30.7 06 09 002F 1419 Alarm State:  0
Sun Feb 25 23:16:32 PST 2024 ON: 19.99 +20.0 20.01 -12.8 30.7 06 09 0006 1320 Alarm State:  0
Sun Feb 25 23:15:31 PST 2024 ON: 19.99 +20.0 19.99 -12.7 30.7 06 09 0011 122D Alarm State:  0
Sun Feb 25 23:14:29 PST 2024 ON: 20.00 +20.0 19.99 -12.8 30.6 06 0A 0018 1408 Alarm State:  0
Sun Feb 25 23:13:28 PST 2024 ON: 20.00 +20.0 19.99 -12.8 30.7 06 0A 002E 142F Alarm State:  0
Sun Feb 25 23:12:26 PST 2024 ON: 19.99 +20.0 19.99 -12.8 30.6 06 0A 0005 1330 Alarm State:  0
Sun Feb 25 23:11:25 PST 2024 ON: 19.99 +20.0 19.99 -12.8 30.7 06 0A 0010 1310 Alarm State:  0
Sun Feb 25 23:10:23 PST 2024 ON: 19.99 +20.0 20.00 -12.8 30.6 06 09 001A 121B Alarm State:  0
Sun Feb 25 23:09:22 PST 2024 ON: 20.00 +20.0 20.00 -12.8 30.6 06 09 0025 1302 Alarm State:  0
Sun Feb 25 23:08:20 PST 2024 ON: 20.00 +20.0 20.01 -12.8 30.7 06 09 002F 140C Alarm State:  0
Sun Feb 25 23:07:19 PST 2024 ON: 19.99 +20.0 20.02 -12.8 30.8 06 09 0007 141C Alarm State:  0
Sun Feb 25 23:06:17 PST 2024 ON: 19.99 +20.0 20.00 -12.7 30.7 06 09 0011 1311 Alarm State:  0